PWSweather.com
Personal Weather Stations
Station Observations
KNMFARMI31
Near Jackson Lake, Farmington, NM 87401

Near Jackson LakeFarmington, NM 87401

Lat: 36.821, Lon: -108.225

Elevation: 5482

Station Type: Davis Vantange Vue

High Low Average
Temperature 97.3°F36.3°C 58.7°F14.8°C 78.1°F25.6°C
Dew Point 46.4°F8.0°C 29.8°F-1.2°C 39.3°F4.1°C
Winds 24.0 mph 38.6 kmh Calm Calm 4.0 mph SSW6.4 kmh SSW
Wind Gusts 27.0 mph43.5 kmh -- 9.0 mph14.5 kmh
Humidity 44% 12% 27%
Pressure 29.37 in994.6 mb 29.20 in988.8 mb -
Precipitation 0.00 in0.0 mm - -
Hour Temp Dew Point Humidity Winds Wind Gusts Pressure Precip Precip Rate Daily Precip Total
12:00 AM 67.2°F19.6°C 33.9°F1.1°C 29% 4.0 mph NW6.4 kmh NW 7.0 mph11.3 kmh 29.29 in991.9 mb 0.00 in0.0 mm 0.00 in0.0 mm 0.00 in0.0 mm
12:01 AM 67.2°F19.6°C 33.9°F1.1°C 29% 4.0 mph NW6.4 kmh NW 7.0 mph11.3 kmh 29.29 in991.9 mb 0.00 in0.0 mm 0.00 in0.0 mm 0.00 in0.0 mm
12:02 AM 67.2°F19.6°C 33.9°F1.1°C 29% 3.0 mph NW4.8 kmh NW 7.0 mph11.3 kmh 29.29 in991.9 mb 0.00 in0.0 mm 0.00 in0.0 mm 0.00 in0.0 mm
12:03 AM 67.2°F19.6°C 33.9°F1.1°C 29% 5.0 mph NW8.0 kmh NW 7.0 mph11.3 kmh 29.29 in991.9 mb 0.00 in0.0 mm 0.00 in0.0 mm 0.00 in0.0 mm
12:04 AM 67.2°F19.6°C 33.9°F1.1°C 29% 5.0 mph NW8.0 kmh NW 7.0 mph11.3 kmh 29.29 in991.9 mb 0.00 in0.0 mm 0.00 in0.0 mm 0.00 in0.0 mm
12:05 AM 67.1°F19.5°C 33.8°F1.0°C 29% 4.0 mph NW6.4 kmh NW 7.0 mph11.3 kmh 29.29 in991.9 mb 0.00 in0.0 mm 0.00 in0.0 mm 0.00 in0.0 mm
12:06 AM 67.1°F19.5°C 33.8°F1.0°C 29% 4.0 mph WNW6.4 kmh WNW 7.0 mph11.3 kmh 29.29 in991.9 mb 0.00 in0.0 mm 0.00 in0.0 mm 0.00 in0.0 mm
12:07 AM 67.1°F19.5°C 33.8°F1.0°C 29% 6.0 mph NW9.7 kmh NW 7.0 mph11.3 kmh 29.29 in991.9 mb 0.00 in0.0 mm 0.00 in0.0 mm 0.00 in0.0 mm
12:08 AM 67.0°F19.4°C 33.7°F0.9°C 29% 4.0 mph NW6.4 kmh NW 7.0 mph11.3 kmh 29.29 in991.9 mb 0.00 in0.0 mm 0.00 in0.0 mm 0.00 in0.0 mm
12:09 AM 67.0°F19.4°C 33.7°F0.9°C 29% 3.0 mph NW4.8 kmh NW 7.0 mph11.3 kmh 29.29 in991.9 mb 0.00 in0.0 mm 0.00 in0.0 mm 0.00 in0.0 mm
12:10 AM 66.9°F19.4°C 33.6°F0.9°C 29% 7.0 mph NW11.3 kmh NW 7.0 mph11.3 kmh 29.29 in991.9 mb 0.00 in0.0 mm 0.00 in0.0 mm 0.00 in0.0 mm
12:11 AM 66.9°F19.4°C 33.6°F0.9°C 29% 3.0 mph W4.8 kmh W 7.0 mph11.3 kmh 29.29 in991.9 mb 0.00 in0.0 mm 0.00 in0.0 mm 0.00 in0.0 mm
12:12 AM 66.9°F19.4°C 33.6°F0.9°C 29% 4.0 mph NW6.4 kmh NW 7.0 mph11.3 kmh 29.29 in991.9 mb 0.00 in0.0 mm 0.00 in0.0 mm 0.00 in0.0 mm
12:13 AM 66.8°F19.3°C 33.5°F0.8°C 29% 6.0 mph NW9.7 kmh NW 7.0 mph11.3 kmh 29.29 in991.9 mb 0.00 in0.0 mm 0.00 in0.0 mm 0.00 in0.0 mm
12:14 AM 66.8°F19.3°C 33.5°F0.8°C 29% 4.0 mph NW6.4 kmh NW 7.0 mph11.3 kmh 29.29 in991.9 mb 0.00 in0.0 mm 0.00 in0.0 mm 0.00 in0.0 mm
12:15 AM 66.7°F19.3°C 33.4°F0.8°C 29% 5.0 mph NW8.0 kmh NW 7.0 mph11.3 kmh 29.29 in991.9 mb 0.00 in0.0 mm 0.00 in0.0 mm 0.00 in0.0 mm
12:16 AM 66.7°F19.3°C 33.4°F0.8°C 29% 4.0 mph NW6.4 kmh NW 7.0 mph11.3 kmh 29.29 in991.9 mb 0.00 in0.0 mm 0.00 in0.0 mm 0.00 in0.0 mm
12:17 AM 66.6°F19.2°C 33.3°F0.7°C 29% 7.0 mph NW11.3 kmh NW 7.0 mph11.3 kmh 29.29 in991.9 mb 0.00 in0.0 mm 0.00 in0.0 mm 0.00 in0.0 mm
12:18 AM 66.6°F19.2°C 33.3°F0.7°C 29% 4.0 mph NW6.4 kmh NW 7.0 mph11.3 kmh 29.29 in991.9 mb 0.00 in0.0 mm 0.00 in0.0 mm 0.00 in0.0 mm
12:19 AM 66.6°F19.2°C 33.3°F0.7°C 29% 4.0 mph NW6.4 kmh NW 7.0 mph11.3 kmh 29.29 in991.9 mb 0.00 in0.0 mm 0.00 in0.0 mm 0.00 in0.0 mm
12:20 AM 66.6°F19.2°C 33.3°F0.7°C 29% 7.0 mph NW11.3 kmh NW 7.0 mph11.3 kmh 29.29 in991.9 mb 0.00 in0.0 mm 0.00 in0.0 mm 0.00 in0.0 mm
12:21 AM 66.6°F19.2°C 33.3°F0.7°C 29% 1.0 mph NW1.6 kmh NW 7.0 mph11.3 kmh 29.29 in991.9 mb 0.00 in0.0 mm 0.00 in0.0 mm 0.00 in0.0 mm
12:22 AM 66.6°F19.2°C 33.3°F0.7°C 29% 4.0 mph NW6.4 kmh NW 7.0 mph11.3 kmh 29.29 in991.9 mb 0.00 in0.0 mm 0.00 in0.0 mm 0.00 in0.0 mm
12:23 AM 66.5°F19.2°C 34.1°F1.2°C 30% 2.0 mph WNW3.2 kmh WNW 7.0 mph11.3 kmh 29.29 in991.9 mb 0.00 in0.0 mm 0.00 in0.0 mm 0.00 in0.0 mm
12:24 AM 66.4°F19.1°C 34.0°F1.1°C 30% 1.0 mph WNW1.6 kmh WNW 7.0 mph11.3 kmh 29.29 in991.9 mb 0.00 in0.0 mm 0.00 in0.0 mm 0.00 in0.0 mm
12:25 AM 66.3°F19.1°C 33.9°F1.1°C 30% 3.0 mph W4.8 kmh W 7.0 mph11.3 kmh 29.29 in991.9 mb 0.00 in0.0 mm 0.00 in0.0 mm 0.00 in0.0 mm
12:26 AM 66.2°F19.0°C 33.9°F1.1°C 30% 4.0 mph WSW6.4 kmh WSW 7.0 mph11.3 kmh 29.29 in991.9 mb 0.00 in0.0 mm 0.00 in0.0 mm 0.00 in0.0 mm
12:27 AM 66.1°F18.9°C 33.8°F1.0°C 30% 2.0 mph NW3.2 kmh NW 7.0 mph11.3 kmh 29.29 in991.9 mb 0.00 in0.0 mm 0.00 in0.0 mm 0.00 in0.0 mm
12:28 AM 66.0°F18.9°C 33.7°F0.9°C 30% 1.0 mph WNW1.6 kmh WNW 7.0 mph11.3 kmh 29.29 in991.9 mb 0.00 in0.0 mm 0.00 in0.0 mm 0.00 in0.0 mm
12:29 AM 65.9°F18.8°C 33.6°F0.9°C 30% 3.0 mph W4.8 kmh W 5.0 mph8.0 kmh 29.29 in991.9 mb 0.00 in0.0 mm 0.00 in0.0 mm 0.00 in0.0 mm
12:30 AM 65.9°F18.8°C 33.6°F0.9°C 30% 2.0 mph WNW3.2 kmh WNW 5.0 mph8.0 kmh 29.29 in991.9 mb 0.00 in0.0 mm 0.00 in0.0 mm 0.00 in0.0 mm
12:31 AM 65.9°F18.8°C 33.6°F0.9°C 30% 4.0 mph WNW6.4 kmh WNW 4.0 mph6.4 kmh 29.29 in991.9 mb 0.00 in0.0 mm 0.00 in0.0 mm 0.00 in0.0 mm
12:32 AM 65.9°F18.8°C 33.6°F0.9°C 30% 3.0 mph NW4.8 kmh NW 6.0 mph9.7 kmh 29.29 in991.9 mb 0.00 in0.0 mm 0.00 in0.0 mm 0.00 in0.0 mm
12:33 AM 65.9°F18.8°C 33.6°F0.9°C 30% 2.0 mph WNW3.2 kmh WNW 6.0 mph9.7 kmh 29.29 in991.9 mb 0.00 in0.0 mm 0.00 in0.0 mm 0.00 in0.0 mm
12:34 AM 66.0°F18.9°C 33.7°F0.9°C 30% 2.0 mph WNW3.2 kmh WNW 6.0 mph9.7 kmh 29.29 in991.9 mb 0.00 in0.0 mm 0.00 in0.0 mm 0.00 in0.0 mm
12:35 AM 66.0°F18.9°C 33.7°F0.9°C 30% 4.0 mph NW6.4 kmh NW 6.0 mph9.7 kmh 29.29 in991.9 mb 0.00 in0.0 mm 0.00 in0.0 mm 0.00 in0.0 mm
12:36 AM 66.0°F18.9°C 33.7°F0.9°C 30% 3.0 mph WNW4.8 kmh WNW 6.0 mph9.7 kmh 29.29 in991.9 mb 0.00 in0.0 mm 0.00 in0.0 mm 0.00 in0.0 mm
12:37 AM 66.0°F18.9°C 33.7°F0.9°C 30% 3.0 mph NW4.8 kmh NW 6.0 mph9.7 kmh 29.29 in991.9 mb 0.00 in0.0 mm 0.00 in0.0 mm 0.00 in0.0 mm
12:38 AM 66.0°F18.9°C 33.7°F0.9°C 30% 3.0 mph WNW4.8 kmh WNW 6.0 mph9.7 kmh 29.29 in991.9 mb 0.00 in0.0 mm 0.00 in0.0 mm 0.00 in0.0 mm
12:39 AM 66.0°F18.9°C 33.7°F0.9°C 30% 4.0 mph NW6.4 kmh NW 6.0 mph9.7 kmh 29.29 in991.9 mb 0.00 in0.0 mm 0.00 in0.0 mm 0.00 in0.0 mm
12:40 AM 65.9°F18.8°C 33.6°F0.9°C 30% 3.0 mph WNW4.8 kmh WNW 5.0 mph8.0 kmh 29.29 in991.9 mb 0.00 in0.0 mm 0.00 in0.0 mm 0.00 in0.0 mm
12:41 AM 65.8°F18.8°C 33.5°F0.8°C 30% 3.0 mph NW4.8 kmh NW 5.0 mph8.0 kmh 29.29 in991.9 mb 0.00 in0.0 mm 0.00 in0.0 mm 0.00 in0.0 mm
12:42 AM 65.7°F18.7°C 33.4°F0.8°C 30% 2.0 mph NW3.2 kmh NW 5.0 mph8.0 kmh 29.29 in991.9 mb 0.00 in0.0 mm 0.00 in0.0 mm 0.00 in0.0 mm
12:43 AM 65.6°F18.7°C 33.3°F0.7°C 30% 3.0 mph NW4.8 kmh NW 5.0 mph8.0 kmh 29.29 in991.9 mb 0.00 in0.0 mm 0.00 in0.0 mm 0.00 in0.0 mm
12:44 AM 65.6°F18.7°C 33.3°F0.7°C 30% 3.0 mph WNW4.8 kmh WNW 5.0 mph8.0 kmh 29.29 in991.9 mb 0.00 in0.0 mm 0.00 in0.0 mm 0.00 in0.0 mm
12:45 AM 65.5°F18.6°C 33.2°F0.7°C 30% 2.0 mph NW3.2 kmh NW 5.0 mph8.0 kmh 29.29 in991.9 mb 0.00 in0.0 mm 0.00 in0.0 mm 0.00 in0.0 mm
12:46 AM 65.4°F18.6°C 33.2°F0.7°C 30% 4.0 mph NW6.4 kmh NW 5.0 mph8.0 kmh 29.29 in991.9 mb 0.00 in0.0 mm 0.00 in0.0 mm 0.00 in0.0 mm
12:47 AM 65.4°F18.6°C 33.2°F0.7°C 30% 4.0 mph NW6.4 kmh NW 6.0 mph9.7 kmh 29.29 in991.9 mb 0.00 in0.0 mm 0.00 in0.0 mm 0.00 in0.0 mm
12:48 AM 65.5°F18.6°C 33.2°F0.7°C 30% 5.0 mph WNW8.0 kmh WNW 6.0 mph9.7 kmh 29.29 in991.9 mb 0.00 in0.0 mm 0.00 in0.0 mm 0.00 in0.0 mm
12:49 AM 65.5°F18.6°C 33.2°F0.7°C 30% 3.0 mph NW4.8 kmh NW 6.0 mph9.7 kmh 29.29 in991.9 mb 0.00 in0.0 mm 0.00 in0.0 mm 0.00 in0.0 mm
12:50 AM 65.5°F18.6°C 33.2°F0.7°C 30% 2.0 mph WNW3.2 kmh WNW 6.0 mph9.7 kmh 29.29 in991.9 mb 0.00 in0.0 mm 0.00 in0.0 mm 0.00 in0.0 mm
12:51 AM 65.5°F18.6°C 33.2°F0.7°C 30% 2.0 mph WNW3.2 kmh WNW 6.0 mph9.7 kmh 29.29 in991.9 mb 0.00 in0.0 mm 0.00 in0.0 mm 0.00 in0.0 mm
12:52 AM 65.5°F18.6°C 33.2°F0.7°C 30% 2.0 mph WSW3.2 kmh WSW 6.0 mph9.7 kmh 29.29 in991.9 mb 0.00 in0.0 mm 0.00 in0.0 mm 0.00 in0.0 mm
12:53 AM 65.4°F18.6°C 33.2°F0.7°C 30% 2.0 mph NW3.2 kmh NW 6.0 mph9.7 kmh 29.29 in991.9 mb 0.00 in0.0 mm 0.00 in0.0 mm 0.00 in0.0 mm
12:54 AM 65.3°F18.5°C 33.1°F0.6°C 30% 2.0 mph NW3.2 kmh NW 6.0 mph9.7 kmh 29.29 in991.9 mb 0.00 in0.0 mm 0.00 in0.0 mm 0.00 in0.0 mm
12:55 AM 65.2°F18.4°C 33.0°F0.6°C 30% 2.0 mph NW3.2 kmh NW 6.0 mph9.7 kmh 29.29 in991.9 mb 0.00 in0.0 mm 0.00 in0.0 mm 0.00 in0.0 mm
12:56 AM 65.2°F18.4°C 33.0°F0.6°C 30% 1.0 mph NW1.6 kmh NW 5.0 mph8.0 kmh 29.29 in991.9 mb 0.00 in0.0 mm 0.00 in0.0 mm 0.00 in0.0 mm
12:57 AM 65.1°F18.4°C 32.9°F0.5°C 30% 2.0 mph WNW3.2 kmh WNW 5.0 mph8.0 kmh 29.29 in991.9 mb 0.00 in0.0 mm 0.00 in0.0 mm 0.00 in0.0 mm
12:58 AM 64.9°F18.3°C 32.7°F0.4°C 30% Calm Calm 4.0 mph6.4 kmh 29.29 in991.9 mb 0.00 in0.0 mm 0.00 in0.0 mm 0.00 in0.0 mm
12:59 AM 64.9°F18.3°C 32.7°F0.4°C 30% 1.0 mph W1.6 kmh W 3.0 mph4.8 kmh 29.30 in992.2 mb 0.00 in0.0 mm 0.00 in0.0 mm 0.00 in0.0 mm
01:00 AM 64.7°F18.2°C 32.6°F0.3°C 30% 1.0 mph W1.6 kmh W 3.0 mph4.8 kmh 29.30 in992.2 mb 0.00 in0.0 mm 0.00 in0.0 mm 0.00 in0.0 mm
01:01 AM 64.7°F18.2°C 32.6°F0.3°C 30% Calm Calm 3.0 mph4.8 kmh 29.30 in992.2 mb 0.00 in0.0 mm 0.00 in0.0 mm 0.00 in0.0 mm
01:02 AM 64.6°F18.1°C 33.3°F0.7°C 31% 2.0 mph WNW3.2 kmh WNW 3.0 mph4.8 kmh 29.30 in992.2 mb 0.00 in0.0 mm 0.00 in0.0 mm 0.00 in0.0 mm
01:03 AM 64.5°F18.1°C 32.4°F0.2°C 30% 1.0 mph WNW1.6 kmh WNW 3.0 mph4.8 kmh 29.30 in992.2 mb 0.00 in0.0 mm 0.00 in0.0 mm 0.00 in0.0 mm
01:04 AM 64.5°F18.1°C 33.2°F0.7°C 31% Calm Calm 3.0 mph4.8 kmh 29.30 in992.2 mb 0.00 in0.0 mm 0.00 in0.0 mm 0.00 in0.0 mm
01:05 AM 64.5°F18.1°C 33.2°F0.7°C 31% 1.0 mph WNW1.6 kmh WNW 3.0 mph4.8 kmh 29.30 in992.2 mb 0.00 in0.0 mm 0.00 in0.0 mm 0.00 in0.0 mm
01:06 AM 64.5°F18.1°C 33.2°F0.7°C 31% 1.0 mph WNW1.6 kmh WNW 3.0 mph4.8 kmh 29.30 in992.2 mb 0.00 in0.0 mm 0.00 in0.0 mm 0.00 in0.0 mm
01:07 AM 64.4°F18.0°C 33.1°F0.6°C 31% Calm Calm 3.0 mph4.8 kmh 29.30 in992.2 mb 0.00 in0.0 mm 0.00 in0.0 mm 0.00 in0.0 mm
01:08 AM 64.3°F17.9°C 33.0°F0.6°C 31% 1.0 mph WNW1.6 kmh WNW 2.0 mph3.2 kmh 29.30 in992.2 mb 0.00 in0.0 mm 0.00 in0.0 mm 0.00 in0.0 mm
01:09 AM 64.3°F17.9°C 33.0°F0.6°C 31% Calm Calm 2.0 mph3.2 kmh 29.30 in992.2 mb 0.00 in0.0 mm 0.00 in0.0 mm 0.00 in0.0 mm
01:10 AM 64.2°F17.9°C 32.9°F0.5°C 31% Calm Calm 2.0 mph3.2 kmh 29.30 in992.2 mb 0.00 in0.0 mm 0.00 in0.0 mm 0.00 in0.0 mm
01:11 AM 64.1°F17.8°C 32.8°F0.4°C 31% Calm Calm 2.0 mph3.2 kmh 29.30 in992.2 mb 0.00 in0.0 mm 0.00 in0.0 mm 0.00 in0.0 mm
01:12 AM 64.0°F17.8°C 32.8°F0.4°C 31% Calm Calm 2.0 mph3.2 kmh 29.30 in992.2 mb 0.00 in0.0 mm 0.00 in0.0 mm 0.00 in0.0 mm
01:13 AM 63.8°F17.7°C 32.6°F0.3°C 31% Calm Calm 2.0 mph3.2 kmh 29.30 in992.2 mb 0.00 in0.0 mm 0.00 in0.0 mm 0.00 in0.0 mm
01:14 AM 63.7°F17.6°C 32.5°F0.3°C 31% Calm Calm 2.0 mph3.2 kmh 29.30 in992.2 mb 0.00 in0.0 mm 0.00 in0.0 mm 0.00 in0.0 mm
01:15 AM 63.5°F17.5°C 32.3°F0.2°C 31% Calm Calm 1.0 mph1.6 kmh 29.30 in992.2 mb 0.00 in0.0 mm 0.00 in0.0 mm 0.00 in0.0 mm
01:16 AM 63.3°F17.4°C 32.2°F0.1°C 31% 1.0 mph NW1.6 kmh NW 1.0 mph1.6 kmh 29.30 in992.2 mb 0.00 in0.0 mm 0.00 in0.0 mm 0.00 in0.0 mm
01:17 AM 63.2°F17.3°C 32.1°F0.1°C 31% Calm Calm 1.0 mph1.6 kmh 29.30 in992.2 mb 0.00 in0.0 mm 0.00 in0.0 mm 0.00 in0.0 mm
01:18 AM 63.0°F17.2°C 31.9°F-0.1°C 31% 1.0 mph NW1.6 kmh NW 1.0 mph1.6 kmh 29.30 in992.2 mb 0.00 in0.0 mm 0.00 in0.0 mm 0.00 in0.0 mm
01:19 AM 63.0°F17.2°C 31.9°F-0.1°C 31% 2.0 mph NW3.2 kmh NW 2.0 mph3.2 kmh 29.30 in992.2 mb 0.00 in0.0 mm 0.00 in0.0 mm 0.00 in0.0 mm
01:20 AM 62.9°F17.2°C 32.6°F0.3°C 32% 2.0 mph NW3.2 kmh NW 2.0 mph3.2 kmh 29.30 in992.2 mb 0.00 in0.0 mm 0.00 in0.0 mm 0.00 in0.0 mm
01:21 AM 62.8°F17.1°C 32.5°F0.3°C 32% 1.0 mph NW1.6 kmh NW 2.0 mph3.2 kmh 29.29 in991.9 mb 0.00 in0.0 mm 0.00 in0.0 mm 0.00 in0.0 mm
01:22 AM 62.8°F17.1°C 32.5°F0.3°C 32% 2.0 mph NW3.2 kmh NW 2.0 mph3.2 kmh 29.29 in991.9 mb 0.00 in0.0 mm 0.00 in0.0 mm 0.00 in0.0 mm
01:23 AM 62.7°F17.1°C 32.4°F0.2°C 32% 4.0 mph NW6.4 kmh NW 4.0 mph6.4 kmh 29.29 in991.9 mb 0.00 in0.0 mm 0.00 in0.0 mm 0.00 in0.0 mm
01:24 AM 62.7°F17.1°C 32.4°F0.2°C 32% 3.0 mph NW4.8 kmh NW 4.0 mph6.4 kmh 29.29 in991.9 mb 0.00 in0.0 mm 0.00 in0.0 mm 0.00 in0.0 mm
01:25 AM 62.7°F17.1°C 32.4°F0.2°C 32% 3.0 mph NW4.8 kmh NW 4.0 mph6.4 kmh 29.29 in991.9 mb 0.00 in0.0 mm 0.00 in0.0 mm 0.00 in0.0 mm
01:26 AM 62.7°F17.1°C 32.4°F0.2°C 32% 4.0 mph NW6.4 kmh NW 4.0 mph6.4 kmh 29.30 in992.2 mb 0.00 in0.0 mm 0.00 in0.0 mm 0.00 in0.0 mm
01:27 AM 62.8°F17.1°C 31.7°F-0.2°C 31% 4.0 mph NW6.4 kmh NW 4.0 mph6.4 kmh 29.29 in991.9 mb 0.00 in0.0 mm 0.00 in0.0 mm 0.00 in0.0 mm
01:28 AM 62.9°F17.2°C 31.8°F-0.1°C 31% 3.0 mph NW4.8 kmh NW 4.0 mph6.4 kmh 29.29 in991.9 mb 0.00 in0.0 mm 0.00 in0.0 mm 0.00 in0.0 mm
01:29 AM 63.0°F17.2°C 31.9°F-0.1°C 31% 2.0 mph NW3.2 kmh NW 4.0 mph6.4 kmh 29.29 in991.9 mb 0.00 in0.0 mm 0.00 in0.0 mm 0.00 in0.0 mm
01:30 AM 63.0°F17.2°C 31.9°F-0.1°C 31% 2.0 mph NW3.2 kmh NW 4.0 mph6.4 kmh 29.29 in991.9 mb 0.00 in0.0 mm 0.00 in0.0 mm 0.00 in0.0 mm
01:31 AM 62.9°F17.2°C 31.8°F-0.1°C 31% 2.0 mph NW3.2 kmh NW 4.0 mph6.4 kmh 29.30 in992.2 mb 0.00 in0.0 mm 0.00 in0.0 mm 0.00 in0.0 mm
01:32 AM 62.9°F17.2°C 31.8°F-0.1°C 31% 1.0 mph NW1.6 kmh NW 4.0 mph6.4 kmh 29.30 in992.2 mb 0.00 in0.0 mm 0.00 in0.0 mm 0.00 in0.0 mm
01:33 AM 62.9°F17.2°C 31.8°F-0.1°C 31% 2.0 mph NNW3.2 kmh NNW 4.0 mph6.4 kmh 29.29 in991.9 mb 0.00 in0.0 mm 0.00 in0.0 mm 0.00 in0.0 mm
01:34 AM 62.8°F17.1°C 31.7°F-0.2°C 31% 1.0 mph NNW1.6 kmh NNW 4.0 mph6.4 kmh 29.29 in991.9 mb 0.00 in0.0 mm 0.00 in0.0 mm 0.00 in0.0 mm
01:35 AM 62.6°F17.0°C 31.5°F-0.3°C 31% 1.0 mph NNW1.6 kmh NNW 4.0 mph6.4 kmh 29.30 in992.2 mb 0.00 in0.0 mm 0.00 in0.0 mm 0.00 in0.0 mm
01:36 AM 62.4°F16.9°C 32.2°F0.1°C 32% Calm Calm 4.0 mph6.4 kmh 29.30 in992.2 mb 0.00 in0.0 mm 0.00 in0.0 mm 0.00 in0.0 mm
01:37 AM 62.2°F16.8°C 32.0°F0.0°C 32% Calm Calm 4.0 mph6.4 kmh 29.30 in992.2 mb 0.00 in0.0 mm 0.00 in0.0 mm 0.00 in0.0 mm
01:38 AM 62.1°F16.7°C 31.9°F-0.1°C 32% Calm Calm 4.0 mph6.4 kmh 29.30 in992.2 mb 0.00 in0.0 mm 0.00 in0.0 mm 0.00 in0.0 mm
01:39 AM 62.0°F16.7°C 31.8°F-0.1°C 32% Calm Calm 2.0 mph3.2 kmh 29.30 in992.2 mb 0.00 in0.0 mm 0.00 in0.0 mm 0.00 in0.0 mm
01:40 AM 61.9°F16.6°C 32.5°F0.3°C 33% Calm Calm 2.0 mph3.2 kmh 29.30 in992.2 mb 0.00 in0.0 mm 0.00 in0.0 mm 0.00 in0.0 mm
01:41 AM 61.9°F16.6°C 31.7°F-0.2°C 32% Calm Calm 2.0 mph3.2 kmh 29.30 in992.2 mb 0.00 in0.0 mm 0.00 in0.0 mm 0.00 in0.0 mm
01:42 AM 61.9°F16.6°C 32.5°F0.3°C 33% Calm Calm 2.0 mph3.2 kmh 29.30 in992.2 mb 0.00 in0.0 mm 0.00 in0.0 mm 0.00 in0.0 mm
01:43 AM 61.8°F16.6°C 32.4°F0.2°C 33% Calm Calm 1.0 mph1.6 kmh 29.30 in992.2 mb 0.00 in0.0 mm 0.00 in0.0 mm 0.00 in0.0 mm
01:44 AM 61.7°F16.5°C 33.0°F0.6°C 34% Calm Calm 1.0 mph1.6 kmh 29.30 in992.2 mb 0.00 in0.0 mm 0.00 in0.0 mm 0.00 in0.0 mm
01:45 AM 61.6°F16.4°C 33.7°F0.9°C 35% Calm Calm 1.0 mph1.6 kmh 29.30 in992.2 mb 0.00 in0.0 mm 0.00 in0.0 mm 0.00 in0.0 mm
01:46 AM 61.4°F16.3°C 34.2°F1.2°C 36% Calm Calm 1.0 mph1.6 kmh 29.30 in992.2 mb 0.00 in0.0 mm 0.00 in0.0 mm 0.00 in0.0 mm
01:47 AM 61.2°F16.2°C 34.0°F1.1°C 36% Calm Calm 1.0 mph1.6 kmh 29.30 in992.2 mb 0.00 in0.0 mm 0.00 in0.0 mm 0.00 in0.0 mm
01:48 AM 61.1°F16.2°C 33.9°F1.1°C 36% Calm Calm -- 29.30 in992.2 mb 0.00 in0.0 mm 0.00 in0.0 mm 0.00 in0.0 mm
01:49 AM 60.9°F16.1°C 33.8°F1.0°C 36% 2.0 mph ESE3.2 kmh ESE 2.0 mph3.2 kmh 29.31 in992.6 mb 0.00 in0.0 mm 0.00 in0.0 mm 0.00 in0.0 mm
01:50 AM 60.7°F15.9°C 33.6°F0.9°C 36% 7.0 mph ESE11.3 kmh ESE 7.0 mph11.3 kmh 29.32 in992.9 mb 0.00 in0.0 mm 0.00 in0.0 mm 0.00 in0.0 mm
01:51 AM 60.6°F15.9°C 33.5°F0.8°C 36% 11.0 mph ESE17.7 kmh ESE 13.0 mph20.9 kmh 29.33 in993.2 mb 0.00 in0.0 mm 0.00 in0.0 mm 0.00 in0.0 mm
01:52 AM 60.6°F15.9°C 31.3°F-0.4°C 33% 7.0 mph SE11.3 kmh SE 13.0 mph20.9 kmh 29.33 in993.2 mb 0.00 in0.0 mm 0.00 in0.0 mm 0.00 in0.0 mm
01:53 AM 60.8°F16.0°C 30.8°F-0.7°C 32% 5.0 mph SE8.0 kmh SE 13.0 mph20.9 kmh 29.33 in993.2 mb 0.00 in0.0 mm 0.00 in0.0 mm 0.00 in0.0 mm
01:54 AM 61.1°F16.2°C 30.2°F-1.0°C 31% 2.0 mph SE3.2 kmh SE 13.0 mph20.9 kmh 29.32 in992.9 mb 0.00 in0.0 mm 0.00 in0.0 mm 0.00 in0.0 mm
01:55 AM 61.4°F16.3°C 30.5°F-0.8°C 31% Calm Calm 13.0 mph20.9 kmh 29.32 in992.9 mb 0.00 in0.0 mm 0.00 in0.0 mm 0.00 in0.0 mm
01:56 AM 61.6°F16.4°C 29.9°F-1.2°C 30% Calm Calm 13.0 mph20.9 kmh 29.32 in992.9 mb 0.00 in0.0 mm 0.00 in0.0 mm 0.00 in0.0 mm
01:57 AM 61.8°F16.6°C 30.0°F-1.1°C 30% 1.0 mph WSW1.6 kmh WSW 13.0 mph20.9 kmh 29.31 in992.6 mb 0.00 in0.0 mm 0.00 in0.0 mm 0.00 in0.0 mm
01:58 AM 62.0°F16.7°C 30.2°F-1.0°C 30% Calm Calm 13.0 mph20.9 kmh 29.31 in992.6 mb 0.00 in0.0 mm 0.00 in0.0 mm 0.00 in0.0 mm
01:59 AM 62.2°F16.8°C 30.4°F-0.9°C 30% Calm Calm 13.0 mph20.9 kmh 29.31 in992.6 mb 0.00 in0.0 mm 0.00 in0.0 mm 0.00 in0.0 mm
02:00 AM 62.2°F16.8°C 30.4°F-0.9°C 30% Calm Calm 11.0 mph17.7 kmh 29.32 in992.9 mb 0.00 in0.0 mm 0.00 in0.0 mm 0.00 in0.0 mm
02:01 AM 62.2°F16.8°C 30.4°F-0.9°C 30% Calm Calm 11.0 mph17.7 kmh 29.31 in992.6 mb 0.00 in0.0 mm 0.00 in0.0 mm 0.00 in0.0 mm
02:02 AM 62.2°F16.8°C 31.2°F-0.4°C 31% Calm Calm 3.0 mph4.8 kmh 29.32 in992.9 mb 0.00 in0.0 mm 0.00 in0.0 mm 0.00 in0.0 mm
02:03 AM 62.2°F16.8°C 31.2°F-0.4°C 31% Calm Calm 2.0 mph3.2 kmh 29.31 in992.6 mb 0.00 in0.0 mm 0.00 in0.0 mm 0.00 in0.0 mm
02:04 AM 62.3°F16.8°C 31.3°F-0.4°C 31% Calm Calm 2.0 mph3.2 kmh 29.31 in992.6 mb 0.00 in0.0 mm 0.00 in0.0 mm 0.00 in0.0 mm
02:05 AM 62.3°F16.8°C 31.3°F-0.4°C 31% Calm Calm 2.0 mph3.2 kmh 29.31 in992.6 mb 0.00 in0.0 mm 0.00 in0.0 mm 0.00 in0.0 mm
02:06 AM 62.3°F16.8°C 31.3°F-0.4°C 31% Calm Calm 2.0 mph3.2 kmh 29.31 in992.6 mb 0.00 in0.0 mm 0.00 in0.0 mm 0.00 in0.0 mm
02:07 AM 62.2°F16.8°C 31.2°F-0.4°C 31% 1.0 mph WNW1.6 kmh WNW 1.0 mph1.6 kmh 29.31 in992.6 mb 0.00 in0.0 mm 0.00 in0.0 mm 0.00 in0.0 mm
02:08 AM 62.1°F16.7°C 31.1°F-0.5°C 31% Calm Calm 1.0 mph1.6 kmh 29.31 in992.6 mb 0.00 in0.0 mm 0.00 in0.0 mm 0.00 in0.0 mm
02:09 AM 62.0°F16.7°C 31.0°F-0.6°C 31% 1.0 mph NW1.6 kmh NW 1.0 mph1.6 kmh 29.31 in992.6 mb 0.00 in0.0 mm 0.00 in0.0 mm 0.00 in0.0 mm
02:10 AM 61.9°F16.6°C 30.9°F-0.6°C 31% 1.0 mph N1.6 kmh N 2.0 mph3.2 kmh 29.31 in992.6 mb 0.00 in0.0 mm 0.00 in0.0 mm 0.00 in0.0 mm
02:11 AM 61.7°F16.5°C 30.8°F-0.7°C 31% Calm Calm 2.0 mph3.2 kmh 29.31 in992.6 mb 0.00 in0.0 mm 0.00 in0.0 mm 0.00 in0.0 mm
02:12 AM 61.6°F16.4°C 30.7°F-0.7°C 31% Calm Calm 2.0 mph3.2 kmh 29.31 in992.6 mb 0.00 in0.0 mm 0.00 in0.0 mm 0.00 in0.0 mm
02:13 AM 61.4°F16.3°C 31.3°F-0.4°C 32% Calm Calm 2.0 mph3.2 kmh 29.31 in992.6 mb 0.00 in0.0 mm 0.00 in0.0 mm 0.00 in0.0 mm
02:14 AM 61.3°F16.3°C 31.2°F-0.4°C 32% Calm Calm 2.0 mph3.2 kmh 29.31 in992.6 mb 0.00 in0.0 mm 0.00 in0.0 mm 0.00 in0.0 mm
02:15 AM 61.1°F16.2°C 31.0°F-0.6°C 32% Calm Calm 2.0 mph3.2 kmh 29.31 in992.6 mb 0.00 in0.0 mm 0.00 in0.0 mm 0.00 in0.0 mm
02:16 AM 60.9°F16.1°C 30.8°F-0.7°C 32% Calm Calm 2.0 mph3.2 kmh 29.31 in992.6 mb 0.00 in0.0 mm 0.00 in0.0 mm 0.00 in0.0 mm
02:17 AM 60.8°F16.0°C 30.8°F-0.7°C 32% Calm Calm 2.0 mph3.2 kmh 29.31 in992.6 mb 0.00 in0.0 mm 0.00 in0.0 mm 0.00 in0.0 mm
02:18 AM 60.7°F15.9°C 30.7°F-0.7°C 32% Calm Calm 2.0 mph3.2 kmh 29.31 in992.6 mb 0.00 in0.0 mm 0.00 in0.0 mm 0.00 in0.0 mm
02:19 AM 60.6°F15.9°C 30.6°F-0.8°C 32% Calm Calm 2.0 mph3.2 kmh 29.31 in992.6 mb 0.00 in0.0 mm 0.00 in0.0 mm 0.00 in0.0 mm
02:20 AM 60.6°F15.9°C 30.6°F-0.8°C 32% Calm Calm 1.0 mph1.6 kmh 29.31 in992.6 mb 0.00 in0.0 mm 0.00 in0.0 mm 0.00 in0.0 mm
02:21 AM 60.6°F15.9°C 30.6°F-0.8°C 32% 1.0 mph NNW1.6 kmh NNW 1.0 mph1.6 kmh 29.31 in992.6 mb 0.00 in0.0 mm 0.00 in0.0 mm 0.00 in0.0 mm
02:22 AM 60.6°F15.9°C 30.6°F-0.8°C 32% 1.0 mph NW1.6 kmh NW 1.0 mph1.6 kmh 29.31 in992.6 mb 0.00 in0.0 mm 0.00 in0.0 mm 0.00 in0.0 mm
02:23 AM 60.5°F15.8°C 30.5°F-0.8°C 32% 1.0 mph NW1.6 kmh NW 1.0 mph1.6 kmh 29.31 in992.6 mb 0.00 in0.0 mm 0.00 in0.0 mm 0.00 in0.0 mm
02:24 AM 60.5°F15.8°C 30.5°F-0.8°C 32% Calm Calm 1.0 mph1.6 kmh 29.31 in992.6 mb 0.00 in0.0 mm 0.00 in0.0 mm 0.00 in0.0 mm
02:25 AM 60.4°F15.8°C 30.4°F-0.9°C 32% Calm Calm 1.0 mph1.6 kmh 29.31 in992.6 mb 0.00 in0.0 mm 0.00 in0.0 mm 0.00 in0.0 mm
02:26 AM 60.3°F15.7°C 30.3°F-0.9°C 32% Calm Calm 1.0 mph1.6 kmh 29.31 in992.6 mb 0.00 in0.0 mm 0.00 in0.0 mm 0.00 in0.0 mm
02:27 AM 60.2°F15.7°C 30.2°F-1.0°C 32% Calm Calm 1.0 mph1.6 kmh 29.31 in992.6 mb 0.00 in0.0 mm 0.00 in0.0 mm 0.00 in0.0 mm
02:28 AM 60.2°F15.7°C 30.2°F-1.0°C 32% 1.0 mph W1.6 kmh W 1.0 mph1.6 kmh 29.31 in992.6 mb 0.00 in0.0 mm 0.00 in0.0 mm 0.00 in0.0 mm
02:29 AM 60.3°F15.7°C 30.3°F-0.9°C 32% 2.0 mph W3.2 kmh W 2.0 mph3.2 kmh 29.31 in992.6 mb 0.00 in0.0 mm 0.00 in0.0 mm 0.00 in0.0 mm
02:30 AM 60.4°F15.8°C 30.4°F-0.9°C 32% 1.0 mph WNW1.6 kmh WNW 2.0 mph3.2 kmh 29.31 in992.6 mb 0.00 in0.0 mm 0.00 in0.0 mm 0.00 in0.0 mm
02:31 AM 60.5°F15.8°C 30.5°F-0.8°C 32% 1.0 mph WNW1.6 kmh WNW 2.0 mph3.2 kmh 29.31 in992.6 mb 0.00 in0.0 mm 0.00 in0.0 mm 0.00 in0.0 mm
02:32 AM 60.6°F15.9°C 29.8°F-1.2°C 31% Calm Calm 2.0 mph3.2 kmh 29.31 in992.6 mb 0.00 in0.0 mm 0.00 in0.0 mm 0.00 in0.0 mm
02:33 AM 60.7°F15.9°C 29.9°F-1.2°C 31% 1.0 mph WNW1.6 kmh WNW 2.0 mph3.2 kmh 29.31 in992.6 mb 0.00 in0.0 mm 0.00 in0.0 mm 0.00 in0.0 mm
02:34 AM 60.7°F15.9°C 29.9°F-1.2°C 31% Calm Calm 2.0 mph3.2 kmh 29.31 in992.6 mb 0.00 in0.0 mm 0.00 in0.0 mm 0.00 in0.0 mm
02:35 AM 60.7°F15.9°C 29.9°F-1.2°C 31% Calm Calm 2.0 mph3.2 kmh 29.31 in992.6 mb 0.00 in0.0 mm 0.00 in0.0 mm 0.00 in0.0 mm
02:36 AM 60.7°F15.9°C 29.9°F-1.2°C 31% Calm Calm 2.0 mph3.2 kmh 29.31 in992.6 mb 0.00 in0.0 mm 0.00 in0.0 mm 0.00 in0.0 mm
02:37 AM 60.8°F16.0°C 30.0°F-1.1°C 31% 1.0 mph WNW1.6 kmh WNW 2.0 mph3.2 kmh 29.31 in992.6 mb 0.00 in0.0 mm 0.00 in0.0 mm 0.00 in0.0 mm
02:38 AM 60.9°F16.1°C 30.1°F-1.1°C 31% 2.0 mph WNW3.2 kmh WNW 2.0 mph3.2 kmh 29.31 in992.6 mb 0.00 in0.0 mm 0.00 in0.0 mm 0.00 in0.0 mm
02:39 AM 61.0°F16.1°C 30.2°F-1.0°C 31% Calm Calm 2.0 mph3.2 kmh 29.31 in992.6 mb 0.00 in0.0 mm 0.00 in0.0 mm 0.00 in0.0 mm
02:40 AM 61.0°F16.1°C 30.2°F-1.0°C 31% Calm Calm 2.0 mph3.2 kmh 29.31 in992.6 mb 0.00 in0.0 mm 0.00 in0.0 mm 0.00 in0.0 mm
02:41 AM 61.0°F16.1°C 30.2°F-1.0°C 31% Calm Calm 2.0 mph3.2 kmh 29.31 in992.6 mb 0.00 in0.0 mm 0.00 in0.0 mm 0.00 in0.0 mm
02:42 AM 61.0°F16.1°C 30.2°F-1.0°C 31% Calm Calm 2.0 mph3.2 kmh 29.31 in992.6 mb 0.00 in0.0 mm 0.00 in0.0 mm 0.00 in0.0 mm
02:43 AM 61.1°F16.2°C 30.2°F-1.0°C 31% Calm Calm 2.0 mph3.2 kmh 29.31 in992.6 mb 0.00 in0.0 mm 0.00 in0.0 mm 0.00 in0.0 mm
02:44 AM 61.1°F16.2°C 30.2°F-1.0°C 31% Calm Calm 2.0 mph3.2 kmh 29.31 in992.6 mb 0.00 in0.0 mm 0.00 in0.0 mm 0.00 in0.0 mm
02:45 AM 61.1°F16.2°C 30.2°F-1.0°C 31% 2.0 mph NW3.2 kmh NW 2.0 mph3.2 kmh 29.31 in992.6 mb 0.00 in0.0 mm 0.00 in0.0 mm 0.00 in0.0 mm
02:46 AM 61.0°F16.1°C 30.2°F-1.0°C 31% Calm Calm 2.0 mph3.2 kmh 29.31 in992.6 mb 0.00 in0.0 mm 0.00 in0.0 mm 0.00 in0.0 mm
02:47 AM 60.9°F16.1°C 30.1°F-1.1°C 31% Calm Calm 2.0 mph3.2 kmh 29.31 in992.6 mb 0.00 in0.0 mm 0.00 in0.0 mm 0.00 in0.0 mm
02:48 AM 60.8°F16.0°C 30.0°F-1.1°C 31% 1.0 mph WNW1.6 kmh WNW 2.0 mph3.2 kmh 29.31 in992.6 mb 0.00 in0.0 mm 0.00 in0.0 mm 0.00 in0.0 mm
02:49 AM 60.7°F15.9°C 29.9°F-1.2°C 31% 1.0 mph WNW1.6 kmh WNW 2.0 mph3.2 kmh 29.31 in992.6 mb 0.00 in0.0 mm 0.00 in0.0 mm 0.00 in0.0 mm
02:50 AM 60.7°F15.9°C 29.9°F-1.2°C 31% 1.0 mph WNW1.6 kmh WNW 2.0 mph3.2 kmh 29.31 in992.6 mb 0.00 in0.0 mm 0.00 in0.0 mm 0.00 in0.0 mm
02:51 AM 60.7°F15.9°C 29.9°F-1.2°C 31% 3.0 mph NW4.8 kmh NW 4.0 mph6.4 kmh 29.31 in992.6 mb 0.00 in0.0 mm 0.00 in0.0 mm 0.00 in0.0 mm
02:52 AM 60.9°F16.1°C 30.1°F-1.1°C 31% 2.0 mph NW3.2 kmh NW 4.0 mph6.4 kmh 29.31 in992.6 mb 0.00 in0.0 mm 0.00 in0.0 mm 0.00 in0.0 mm
02:53 AM 61.1°F16.2°C 30.2°F-1.0°C 31% 3.0 mph NW4.8 kmh NW 4.0 mph6.4 kmh 29.31 in992.6 mb 0.00 in0.0 mm 0.00 in0.0 mm 0.00 in0.0 mm
02:54 AM 61.3°F16.3°C 30.4°F-0.9°C 31% 3.0 mph NW4.8 kmh NW 4.0 mph6.4 kmh 29.31 in992.6 mb 0.00 in0.0 mm 0.00 in0.0 mm 0.00 in0.0 mm
02:55 AM 61.5°F16.4°C 30.6°F-0.8°C 31% 2.0 mph NW3.2 kmh NW 4.0 mph6.4 kmh 29.31 in992.6 mb 0.00 in0.0 mm 0.00 in0.0 mm 0.00 in0.0 mm
02:56 AM 61.6°F16.4°C 30.7°F-0.7°C 31% 3.0 mph NW4.8 kmh NW 4.0 mph6.4 kmh 29.31 in992.6 mb 0.00 in0.0 mm 0.00 in0.0 mm 0.00 in0.0 mm
02:57 AM 61.7°F16.5°C 30.0°F-1.1°C 30% 3.0 mph NW4.8 kmh NW 4.0 mph6.4 kmh 29.31 in992.6 mb 0.00 in0.0 mm 0.00 in0.0 mm 0.00 in0.0 mm
02:58 AM 61.8°F16.6°C 30.0°F-1.1°C 30% 4.0 mph NW6.4 kmh NW 4.0 mph6.4 kmh 29.31 in992.6 mb 0.00 in0.0 mm 0.00 in0.0 mm 0.00 in0.0 mm
02:59 AM 62.0°F16.7°C 30.2°F-1.0°C 30% 2.0 mph NW3.2 kmh NW 5.0 mph8.0 kmh 29.31 in992.6 mb 0.00 in0.0 mm 0.00 in0.0 mm 0.00 in0.0 mm
03:00 AM 62.1°F16.7°C 30.3°F-0.9°C 30% 3.0 mph NW4.8 kmh NW 5.0 mph8.0 kmh 29.31 in992.6 mb 0.00 in0.0 mm 0.00 in0.0 mm 0.00 in0.0 mm
03:01 AM 62.2°F16.8°C 30.4°F-0.9°C 30% 3.0 mph NW4.8 kmh NW 5.0 mph8.0 kmh 29.31 in992.6 mb 0.00 in0.0 mm 0.00 in0.0 mm 0.00 in0.0 mm
03:02 AM 62.2°F16.8°C 30.4°F-0.9°C 30% 3.0 mph NW4.8 kmh NW 5.0 mph8.0 kmh 29.31 in992.6 mb 0.00 in0.0 mm 0.00 in0.0 mm 0.00 in0.0 mm
03:03 AM 62.1°F16.7°C 30.3°F-0.9°C 30% 4.0 mph NW6.4 kmh NW 5.0 mph8.0 kmh 29.31 in992.6 mb 0.00 in0.0 mm 0.00 in0.0 mm 0.00 in0.0 mm
03:04 AM 62.2°F16.8°C 30.4°F-0.9°C 30% 7.0 mph NW11.3 kmh NW 7.0 mph11.3 kmh 29.31 in992.6 mb 0.00 in0.0 mm 0.00 in0.0 mm 0.00 in0.0 mm
03:05 AM 62.3°F16.8°C 30.5°F-0.8°C 30% 4.0 mph NW6.4 kmh NW 7.0 mph11.3 kmh 29.31 in992.6 mb 0.00 in0.0 mm 0.00 in0.0 mm 0.00 in0.0 mm
03:06 AM 62.4°F16.9°C 30.6°F-0.8°C 30% 3.0 mph NW4.8 kmh NW 7.0 mph11.3 kmh 29.31 in992.6 mb 0.00 in0.0 mm 0.00 in0.0 mm 0.00 in0.0 mm
03:07 AM 62.4°F16.9°C 30.6°F-0.8°C 30% 3.0 mph NW4.8 kmh NW 7.0 mph11.3 kmh 29.31 in992.6 mb 0.00 in0.0 mm 0.00 in0.0 mm 0.00 in0.0 mm
03:08 AM 62.3°F16.8°C 30.5°F-0.8°C 30% 5.0 mph NW8.0 kmh NW 7.0 mph11.3 kmh 29.31 in992.6 mb 0.00 in0.0 mm 0.00 in0.0 mm 0.00 in0.0 mm
03:09 AM 62.2°F16.8°C 30.4°F-0.9°C 30% 5.0 mph NW8.0 kmh NW 7.0 mph11.3 kmh 29.31 in992.6 mb 0.00 in0.0 mm 0.00 in0.0 mm 0.00 in0.0 mm
03:10 AM 62.1°F16.7°C 31.1°F-0.5°C 31% 4.0 mph NW6.4 kmh NW 7.0 mph11.3 kmh 29.31 in992.6 mb 0.00 in0.0 mm 0.00 in0.0 mm 0.00 in0.0 mm
03:11 AM 62.0°F16.7°C 31.0°F-0.6°C 31% 4.0 mph NW6.4 kmh NW 7.0 mph11.3 kmh 29.31 in992.6 mb 0.00 in0.0 mm 0.00 in0.0 mm 0.00 in0.0 mm
03:12 AM 61.9°F16.6°C 30.9°F-0.6°C 31% 5.0 mph NW8.0 kmh NW 7.0 mph11.3 kmh 29.32 in992.9 mb 0.00 in0.0 mm 0.00 in0.0 mm 0.00 in0.0 mm
03:13 AM 61.9°F16.6°C 30.9°F-0.6°C 31% 4.0 mph NW6.4 kmh NW 7.0 mph11.3 kmh 29.31 in992.6 mb 0.00 in0.0 mm 0.00 in0.0 mm 0.00 in0.0 mm
03:14 AM 61.9°F16.6°C 30.9°F-0.6°C 31% 6.0 mph NW9.7 kmh NW 7.0 mph11.3 kmh 29.31 in992.6 mb 0.00 in0.0 mm 0.00 in0.0 mm 0.00 in0.0 mm
03:15 AM 61.9°F16.6°C 30.9°F-0.6°C 31% 4.0 mph NW6.4 kmh NW 7.0 mph11.3 kmh 29.31 in992.6 mb 0.00 in0.0 mm 0.00 in0.0 mm 0.00 in0.0 mm
03:16 AM 61.9°F16.6°C 30.9°F-0.6°C 31% 3.0 mph NW4.8 kmh NW 7.0 mph11.3 kmh 29.32 in992.9 mb 0.00 in0.0 mm 0.00 in0.0 mm 0.00 in0.0 mm
03:17 AM 61.8°F16.6°C 30.8°F-0.7°C 31% 3.0 mph NW4.8 kmh NW 7.0 mph11.3 kmh 29.32 in992.9 mb 0.00 in0.0 mm 0.00 in0.0 mm 0.00 in0.0 mm
03:18 AM 61.8°F16.6°C 30.8°F-0.7°C 31% 5.0 mph NW8.0 kmh NW 7.0 mph11.3 kmh 29.32 in992.9 mb 0.00 in0.0 mm 0.00 in0.0 mm 0.00 in0.0 mm
03:19 AM 61.7°F16.5°C 31.5°F-0.3°C 32% 4.0 mph NW6.4 kmh NW 7.0 mph11.3 kmh 29.32 in992.9 mb 0.00 in0.0 mm 0.00 in0.0 mm 0.00 in0.0 mm
03:20 AM 61.7°F16.5°C 31.5°F-0.3°C 32% 5.0 mph WNW8.0 kmh WNW 7.0 mph11.3 kmh 29.32 in992.9 mb 0.00 in0.0 mm 0.00 in0.0 mm 0.00 in0.0 mm
03:21 AM 61.6°F16.4°C 31.5°F-0.3°C 32% 3.0 mph NW4.8 kmh NW 7.0 mph11.3 kmh 29.32 in992.9 mb 0.00 in0.0 mm 0.00 in0.0 mm 0.00 in0.0 mm
03:22 AM 61.6°F16.4°C 31.5°F-0.3°C 32% 3.0 mph NW4.8 kmh NW 7.0 mph11.3 kmh 29.32 in992.9 mb 0.00 in0.0 mm 0.00 in0.0 mm 0.00 in0.0 mm
03:23 AM 61.5°F16.4°C 31.4°F-0.3°C 32% 4.0 mph NW6.4 kmh NW 6.0 mph9.7 kmh 29.32 in992.9 mb 0.00 in0.0 mm 0.00 in0.0 mm 0.00 in0.0 mm
03:24 AM 61.4°F16.3°C 31.3°F-0.4°C 32% 5.0 mph NW8.0 kmh NW 6.0 mph9.7 kmh 29.32 in992.9 mb 0.00 in0.0 mm 0.00 in0.0 mm 0.00 in0.0 mm
03:25 AM 61.3°F16.3°C 31.2°F-0.4°C 32% 3.0 mph WNW4.8 kmh WNW 6.0 mph9.7 kmh 29.32 in992.9 mb 0.00 in0.0 mm 0.00 in0.0 mm 0.00 in0.0 mm
03:26 AM 61.3°F16.3°C 31.2°F-0.4°C 32% 3.0 mph NW4.8 kmh NW 6.0 mph9.7 kmh 29.32 in992.9 mb 0.00 in0.0 mm 0.00 in0.0 mm 0.00 in0.0 mm
03:27 AM 61.2°F16.2°C 31.1°F-0.5°C 32% 4.0 mph NW6.4 kmh NW 6.0 mph9.7 kmh 29.32 in992.9 mb 0.00 in0.0 mm 0.00 in0.0 mm 0.00 in0.0 mm
03:28 AM 61.2°F16.2°C 31.9°F-0.1°C 33% 4.0 mph NW6.4 kmh NW 6.0 mph9.7 kmh 29.32 in992.9 mb 0.00 in0.0 mm 0.00 in0.0 mm 0.00 in0.0 mm
03:29 AM 61.1°F16.2°C 31.8°F-0.1°C 33% 4.0 mph NW6.4 kmh NW 6.0 mph9.7 kmh 29.32 in992.9 mb 0.00 in0.0 mm 0.00 in0.0 mm 0.00 in0.0 mm
03:30 AM 61.0°F16.1°C 31.7°F-0.2°C 33% 4.0 mph NW6.4 kmh NW 6.0 mph9.7 kmh 29.32 in992.9 mb 0.00 in0.0 mm 0.00 in0.0 mm 0.00 in0.0 mm
03:31 AM 61.0°F16.1°C 31.7°F-0.2°C 33% 2.0 mph NW3.2 kmh NW 6.0 mph9.7 kmh 29.32 in992.9 mb 0.00 in0.0 mm 0.00 in0.0 mm 0.00 in0.0 mm
03:32 AM 60.9°F16.1°C 31.6°F-0.2°C 33% 3.0 mph NW4.8 kmh NW 6.0 mph9.7 kmh 29.32 in992.9 mb 0.00 in0.0 mm 0.00 in0.0 mm 0.00 in0.0 mm
03:33 AM 60.9°F16.1°C 31.6°F-0.2°C 33% 4.0 mph NW6.4 kmh NW 5.0 mph8.0 kmh 29.32 in992.9 mb 0.00 in0.0 mm 0.00 in0.0 mm 0.00 in0.0 mm
03:34 AM 60.8°F16.0°C 31.5°F-0.3°C 33% 3.0 mph NW4.8 kmh NW 5.0 mph8.0 kmh 29.32 in992.9 mb 0.00 in0.0 mm 0.00 in0.0 mm 0.00 in0.0 mm
03:35 AM 60.8°F16.0°C 31.5°F-0.3°C 33% 4.0 mph WNW6.4 kmh WNW 5.0 mph8.0 kmh 29.32 in992.9 mb 0.00 in0.0 mm 0.00 in0.0 mm 0.00 in0.0 mm
03:36 AM 60.7°F15.9°C 31.4°F-0.3°C 33% 4.0 mph NW6.4 kmh NW 6.0 mph9.7 kmh 29.32 in992.9 mb 0.00 in0.0 mm 0.00 in0.0 mm 0.00 in0.0 mm
03:37 AM 60.8°F16.0°C 32.3°F0.2°C 34% 3.0 mph WNW4.8 kmh WNW 6.0 mph9.7 kmh 29.32 in992.9 mb 0.00 in0.0 mm 0.00 in0.0 mm 0.00 in0.0 mm
03:38 AM 60.9°F16.1°C 32.3°F0.2°C 34% 4.0 mph NW6.4 kmh NW 6.0 mph9.7 kmh 29.32 in992.9 mb 0.00 in0.0 mm 0.00 in0.0 mm 0.00 in0.0 mm
03:39 AM 60.9°F16.1°C 32.3°F0.2°C 34% 3.0 mph NW4.8 kmh NW 6.0 mph9.7 kmh 29.32 in992.9 mb 0.00 in0.0 mm 0.00 in0.0 mm 0.00 in0.0 mm
03:40 AM 61.0°F16.1°C 31.7°F-0.2°C 33% 2.0 mph WNW3.2 kmh WNW 6.0 mph9.7 kmh 29.32 in992.9 mb 0.00 in0.0 mm 0.00 in0.0 mm 0.00 in0.0 mm
03:41 AM 61.1°F16.2°C 31.8°F-0.1°C 33% 3.0 mph NW4.8 kmh NW 6.0 mph9.7 kmh 29.32 in992.9 mb 0.00 in0.0 mm 0.00 in0.0 mm 0.00 in0.0 mm
03:42 AM 61.2°F16.2°C 31.9°F-0.1°C 33% 4.0 mph NW6.4 kmh NW 6.0 mph9.7 kmh 29.32 in992.9 mb 0.00 in0.0 mm 0.00 in0.0 mm 0.00 in0.0 mm
03:43 AM 61.2°F16.2°C 31.9°F-0.1°C 33% 2.0 mph NW3.2 kmh NW 6.0 mph9.7 kmh 29.32 in992.9 mb 0.00 in0.0 mm 0.00 in0.0 mm 0.00 in0.0 mm
03:44 AM 61.3°F16.3°C 32.0°F0.0°C 33% 4.0 mph NW6.4 kmh NW 6.0 mph9.7 kmh 29.32 in992.9 mb 0.00 in0.0 mm 0.00 in0.0 mm 0.00 in0.0 mm
03:45 AM 61.3°F16.3°C 32.0°F0.0°C 33% 3.0 mph NW4.8 kmh NW 6.0 mph9.7 kmh 29.32 in992.9 mb 0.00 in0.0 mm 0.00 in0.0 mm 0.00 in0.0 mm
03:46 AM 61.3°F16.3°C 32.0°F0.0°C 33% 4.0 mph NW6.4 kmh NW 6.0 mph9.7 kmh 29.32 in992.9 mb 0.00 in0.0 mm 0.00 in0.0 mm 0.00 in0.0 mm
03:47 AM 61.3°F16.3°C 32.0°F0.0°C 33% 2.0 mph NW3.2 kmh NW 6.0 mph9.7 kmh 29.32 in992.9 mb 0.00 in0.0 mm 0.00 in0.0 mm 0.00 in0.0 mm
03:48 AM 61.3°F16.3°C 32.0°F0.0°C 33% 5.0 mph WNW8.0 kmh WNW 6.0 mph9.7 kmh 29.32 in992.9 mb 0.00 in0.0 mm 0.00 in0.0 mm 0.00 in0.0 mm
03:49 AM 61.3°F16.3°C 32.0°F0.0°C 33% 3.0 mph NW4.8 kmh NW 6.0 mph9.7 kmh 29.32 in992.9 mb 0.00 in0.0 mm 0.00 in0.0 mm 0.00 in0.0 mm
03:50 AM 61.2°F16.2°C 31.9°F-0.1°C 33% 2.0 mph NW3.2 kmh NW 6.0 mph9.7 kmh 29.32 in992.9 mb 0.00 in0.0 mm 0.00 in0.0 mm 0.00 in0.0 mm
03:51 AM 61.2°F16.2°C 31.9°F-0.1°C 33% 5.0 mph NW8.0 kmh NW 6.0 mph9.7 kmh 29.32 in992.9 mb 0.00 in0.0 mm 0.00 in0.0 mm 0.00 in0.0 mm
03:52 AM 61.1°F16.2°C 31.8°F-0.1°C 33% 5.0 mph WNW8.0 kmh WNW 6.0 mph9.7 kmh 29.32 in992.9 mb 0.00 in0.0 mm 0.00 in0.0 mm 0.00 in0.0 mm
03:53 AM 61.1°F16.2°C 31.8°F-0.1°C 33% 3.0 mph NW4.8 kmh NW 6.0 mph9.7 kmh 29.32 in992.9 mb 0.00 in0.0 mm 0.00 in0.0 mm 0.00 in0.0 mm
03:54 AM 61.1°F16.2°C 31.8°F-0.1°C 33% 3.0 mph WNW4.8 kmh WNW 6.0 mph9.7 kmh 29.32 in992.9 mb 0.00 in0.0 mm 0.00 in0.0 mm 0.00 in0.0 mm
03:55 AM 61.1°F16.2°C 31.8°F-0.1°C 33% 3.0 mph NW4.8 kmh NW 6.0 mph9.7 kmh 29.32 in992.9 mb 0.00 in0.0 mm 0.00 in0.0 mm 0.00 in0.0 mm
03:56 AM 61.1°F16.2°C 31.8°F-0.1°C 33% 4.0 mph W6.4 kmh W 6.0 mph9.7 kmh 29.32 in992.9 mb 0.00 in0.0 mm 0.00 in0.0 mm 0.00 in0.0 mm
03:57 AM 61.1°F16.2°C 31.8°F-0.1°C 33% 4.0 mph NW6.4 kmh NW 6.0 mph9.7 kmh 29.32 in992.9 mb 0.00 in0.0 mm 0.00 in0.0 mm 0.00 in0.0 mm
03:58 AM 61.1°F16.2°C 31.8°F-0.1°C 33% 4.0 mph WNW6.4 kmh WNW 7.0 mph11.3 kmh 29.32 in992.9 mb 0.00 in0.0 mm 0.00 in0.0 mm 0.00 in0.0 mm
03:59 AM 61.1°F16.2°C 31.8°F-0.1°C 33% 5.0 mph NW8.0 kmh NW 7.0 mph11.3 kmh 29.32 in992.9 mb 0.00 in0.0 mm 0.00 in0.0 mm 0.00 in0.0 mm
04:00 AM 61.2°F16.2°C 31.9°F-0.1°C 33% 3.0 mph WNW4.8 kmh WNW 7.0 mph11.3 kmh 29.32 in992.9 mb 0.00 in0.0 mm 0.00 in0.0 mm 0.00 in0.0 mm
04:01 AM 61.1°F16.2°C 31.8°F-0.1°C 33% 3.0 mph NW4.8 kmh NW 7.0 mph11.3 kmh 29.32 in992.9 mb 0.00 in0.0 mm 0.00 in0.0 mm 0.00 in0.0 mm
04:02 AM 61.1°F16.2°C 31.8°F-0.1°C 33% 3.0 mph NW4.8 kmh NW 7.0 mph11.3 kmh 29.32 in992.9 mb 0.00 in0.0 mm 0.00 in0.0 mm 0.00 in0.0 mm
04:03 AM 61.1°F16.2°C 31.8°F-0.1°C 33% 2.0 mph NW3.2 kmh NW 7.0 mph11.3 kmh 29.32 in992.9 mb 0.00 in0.0 mm 0.00 in0.0 mm 0.00 in0.0 mm
04:04 AM 61.0°F16.1°C 31.7°F-0.2°C 33% 2.0 mph NW3.2 kmh NW 7.0 mph11.3 kmh 29.32 in992.9 mb 0.00 in0.0 mm 0.00 in0.0 mm 0.00 in0.0 mm
04:05 AM 61.0°F16.1°C 31.7°F-0.2°C 33% 2.0 mph WNW3.2 kmh WNW 7.0 mph11.3 kmh 29.32 in992.9 mb 0.00 in0.0 mm 0.00 in0.0 mm 0.00 in0.0 mm
04:06 AM 60.9°F16.1°C 31.6°F-0.2°C 33% 3.0 mph NW4.8 kmh NW 6.0 mph9.7 kmh 29.32 in992.9 mb 0.00 in0.0 mm 0.00 in0.0 mm 0.00 in0.0 mm
04:07 AM 60.8°F16.0°C 31.5°F-0.3°C 33% 4.0 mph NW6.4 kmh NW 6.0 mph9.7 kmh 29.32 in992.9 mb 0.00 in0.0 mm 0.00 in0.0 mm 0.00 in0.0 mm
04:08 AM 60.8°F16.0°C 31.5°F-0.3°C 33% 3.0 mph WNW4.8 kmh WNW 6.0 mph9.7 kmh 29.32 in992.9 mb 0.00 in0.0 mm 0.00 in0.0 mm 0.00 in0.0 mm
04:09 AM 60.8°F16.0°C 32.3°F0.2°C 34% 4.0 mph WNW6.4 kmh WNW 5.0 mph8.0 kmh 29.32 in992.9 mb 0.00 in0.0 mm 0.00 in0.0 mm 0.00 in0.0 mm
04:10 AM 60.7°F15.9°C 32.2°F0.1°C 34% 3.0 mph NW4.8 kmh NW 5.0 mph8.0 kmh 29.32 in992.9 mb 0.00 in0.0 mm 0.00 in0.0 mm 0.00 in0.0 mm
04:11 AM 60.7°F15.9°C 32.2°F0.1°C 34% 2.0 mph WNW3.2 kmh WNW 6.0 mph9.7 kmh 29.32 in992.9 mb 0.00 in0.0 mm 0.00 in0.0 mm 0.00 in0.0 mm
04:12 AM 60.7°F15.9°C 32.2°F0.1°C 34% 4.0 mph NW6.4 kmh NW 6.0 mph9.7 kmh 29.33 in993.2 mb 0.00 in0.0 mm 0.00 in0.0 mm 0.00 in0.0 mm
04:13 AM 60.6°F15.9°C 32.1°F0.1°C 34% 3.0 mph WNW4.8 kmh WNW 6.0 mph9.7 kmh 29.32 in992.9 mb 0.00 in0.0 mm 0.00 in0.0 mm 0.00 in0.0 mm
04:14 AM 60.6°F15.9°C 32.1°F0.1°C 34% 3.0 mph NW4.8 kmh NW 6.0 mph9.7 kmh 29.32 in992.9 mb 0.00 in0.0 mm 0.00 in0.0 mm 0.00 in0.0 mm
04:15 AM 60.6°F15.9°C 32.1°F0.1°C 34% 5.0 mph NW8.0 kmh NW 6.0 mph9.7 kmh 29.32 in992.9 mb 0.00 in0.0 mm 0.00 in0.0 mm 0.00 in0.0 mm
04:16 AM 60.5°F15.8°C 32.7°F0.4°C 35% 6.0 mph WNW9.7 kmh WNW 7.0 mph11.3 kmh 29.32 in992.9 mb 0.00 in0.0 mm 0.00 in0.0 mm 0.00 in0.0 mm
04:17 AM 60.5°F15.8°C 32.7°F0.4°C 35% 6.0 mph NW9.7 kmh NW 8.0 mph12.9 kmh 29.32 in992.9 mb 0.00 in0.0 mm 0.00 in0.0 mm 0.00 in0.0 mm
04:18 AM 60.6°F15.9°C 32.8°F0.4°C 35% 4.0 mph NW6.4 kmh NW 9.0 mph14.5 kmh 29.33 in993.2 mb 0.00 in0.0 mm 0.00 in0.0 mm 0.00 in0.0 mm
04:19 AM 60.6°F15.9°C 32.8°F0.4°C 35% 5.0 mph NW8.0 kmh NW 9.0 mph14.5 kmh 29.33 in993.2 mb 0.00 in0.0 mm 0.00 in0.0 mm 0.00 in0.0 mm
04:20 AM 60.6°F15.9°C 32.8°F0.4°C 35% 5.0 mph NW8.0 kmh NW 9.0 mph14.5 kmh 29.33 in993.2 mb 0.00 in0.0 mm 0.00 in0.0 mm 0.00 in0.0 mm
04:21 AM 60.6°F15.9°C 32.8°F0.4°C 35% 5.0 mph NW8.0 kmh NW 9.0 mph14.5 kmh 29.33 in993.2 mb 0.00 in0.0 mm 0.00 in0.0 mm 0.00 in0.0 mm
04:22 AM 60.5°F15.8°C 32.7°F0.4°C 35% 6.0 mph NW9.7 kmh NW 9.0 mph14.5 kmh 29.33 in993.2 mb 0.00 in0.0 mm 0.00 in0.0 mm 0.00 in0.0 mm
04:23 AM 60.5°F15.8°C 32.7°F0.4°C 35% 6.0 mph WNW9.7 kmh WNW 9.0 mph14.5 kmh 29.33 in993.2 mb 0.00 in0.0 mm 0.00 in0.0 mm 0.00 in0.0 mm
04:24 AM 60.5°F15.8°C 32.7°F0.4°C 35% 7.0 mph NW11.3 kmh NW 9.0 mph14.5 kmh 29.33 in993.2 mb 0.00 in0.0 mm 0.00 in0.0 mm 0.00 in0.0 mm
04:25 AM 60.5°F15.8°C 32.7°F0.4°C 35% 5.0 mph NW8.0 kmh NW 9.0 mph14.5 kmh 29.33 in993.2 mb 0.00 in0.0 mm 0.00 in0.0 mm 0.00 in0.0 mm
04:26 AM 60.5°F15.8°C 32.7°F0.4°C 35% 6.0 mph NW9.7 kmh NW 9.0 mph14.5 kmh 29.33 in993.2 mb 0.00 in0.0 mm 0.00 in0.0 mm 0.00 in0.0 mm
04:27 AM 60.5°F15.8°C 32.7°F0.4°C 35% 6.0 mph WNW9.7 kmh WNW 9.0 mph14.5 kmh 29.33 in993.2 mb 0.00 in0.0 mm 0.00 in0.0 mm 0.00 in0.0 mm
04:28 AM 60.5°F15.8°C 32.7°F0.4°C 35% 5.0 mph NW8.0 kmh NW 9.0 mph14.5 kmh 29.33 in993.2 mb 0.00 in0.0 mm 0.00 in0.0 mm 0.00 in0.0 mm
04:29 AM 60.5°F15.8°C 32.7°F0.4°C 35% 6.0 mph NW9.7 kmh NW 9.0 mph14.5 kmh 29.33 in993.2 mb 0.00 in0.0 mm 0.00 in0.0 mm 0.00 in0.0 mm
04:30 AM 60.5°F15.8°C 32.0°F0.0°C 34% 7.0 mph NW11.3 kmh NW 9.0 mph14.5 kmh 29.33 in993.2 mb 0.00 in0.0 mm 0.00 in0.0 mm 0.00 in0.0 mm
04:31 AM 60.5°F15.8°C 32.0°F0.0°C 34% 4.0 mph NW6.4 kmh NW 9.0 mph14.5 kmh 29.33 in993.2 mb 0.00 in0.0 mm 0.00 in0.0 mm 0.00 in0.0 mm
04:32 AM 60.6°F15.9°C 32.1°F0.1°C 34% 4.0 mph NW6.4 kmh NW 9.0 mph14.5 kmh 29.33 in993.2 mb 0.00 in0.0 mm 0.00 in0.0 mm 0.00 in0.0 mm
04:33 AM 60.5°F15.8°C 32.0°F0.0°C 34% 7.0 mph NW11.3 kmh NW 9.0 mph14.5 kmh 29.33 in993.2 mb 0.00 in0.0 mm 0.00 in0.0 mm 0.00 in0.0 mm
04:34 AM 60.5°F15.8°C 32.0°F0.0°C 34% 6.0 mph NW9.7 kmh NW 9.0 mph14.5 kmh 29.33 in993.2 mb 0.00 in0.0 mm 0.00 in0.0 mm 0.00 in0.0 mm
04:35 AM 60.5°F15.8°C 32.0°F0.0°C 34% 7.0 mph WNW11.3 kmh WNW 9.0 mph14.5 kmh 29.33 in993.2 mb 0.00 in0.0 mm 0.00 in0.0 mm 0.00 in0.0 mm
04:36 AM 60.5°F15.8°C 32.0°F0.0°C 34% 7.0 mph NW11.3 kmh NW 10.0 mph16.1 kmh 29.33 in993.2 mb 0.00 in0.0 mm 0.00 in0.0 mm 0.00 in0.0 mm
04:37 AM 60.5°F15.8°C 32.0°F0.0°C 34% 5.0 mph NW8.0 kmh NW 10.0 mph16.1 kmh 29.33 in993.2 mb 0.00 in0.0 mm 0.00 in0.0 mm 0.00 in0.0 mm
04:38 AM 60.5°F15.8°C 32.0°F0.0°C 34% 6.0 mph NW9.7 kmh NW 10.0 mph16.1 kmh 29.34 in993.6 mb 0.00 in0.0 mm 0.00 in0.0 mm 0.00 in0.0 mm
04:39 AM 60.5°F15.8°C 32.0°F0.0°C 34% 5.0 mph NW8.0 kmh NW 10.0 mph16.1 kmh 29.34 in993.6 mb 0.00 in0.0 mm 0.00 in0.0 mm 0.00 in0.0 mm
04:40 AM 60.4°F15.8°C 31.9°F-0.1°C 34% 8.0 mph NW12.9 kmh NW 10.0 mph16.1 kmh 29.33 in993.2 mb 0.00 in0.0 mm 0.00 in0.0 mm 0.00 in0.0 mm
04:41 AM 60.4°F15.8°C 32.6°F0.3°C 35% 7.0 mph WNW11.3 kmh WNW 10.0 mph16.1 kmh 29.33 in993.2 mb 0.00 in0.0 mm 0.00 in0.0 mm 0.00 in0.0 mm
04:42 AM 60.5°F15.8°C 32.7°F0.4°C 35% 3.0 mph NW4.8 kmh NW 10.0 mph16.1 kmh 29.33 in993.2 mb 0.00 in0.0 mm 0.00 in0.0 mm 0.00 in0.0 mm
04:43 AM 60.4°F15.8°C 32.6°F0.3°C 35% 4.0 mph NW6.4 kmh NW 10.0 mph16.1 kmh 29.34 in993.6 mb 0.00 in0.0 mm 0.00 in0.0 mm 0.00 in0.0 mm
04:44 AM 60.4°F15.8°C 32.6°F0.3°C 35% 7.0 mph NW11.3 kmh NW 10.0 mph16.1 kmh 29.34 in993.6 mb 0.00 in0.0 mm 0.00 in0.0 mm 0.00 in0.0 mm
04:45 AM 60.5°F15.8°C 32.7°F0.4°C 35% 5.0 mph WNW8.0 kmh WNW 9.0 mph14.5 kmh 29.34 in993.6 mb 0.00 in0.0 mm 0.00 in0.0 mm 0.00 in0.0 mm
04:46 AM 60.5°F15.8°C 32.7°F0.4°C 35% 6.0 mph NW9.7 kmh NW 9.0 mph14.5 kmh 29.34 in993.6 mb 0.00 in0.0 mm 0.00 in0.0 mm 0.00 in0.0 mm
04:47 AM 60.5°F15.8°C 32.7°F0.4°C 35% 5.0 mph NW8.0 kmh NW 9.0 mph14.5 kmh 29.34 in993.6 mb 0.00 in0.0 mm 0.00 in0.0 mm 0.00 in0.0 mm
04:48 AM 60.5°F15.8°C 32.7°F0.4°C 35% 6.0 mph WNW9.7 kmh WNW 9.0 mph14.5 kmh 29.34 in993.6 mb 0.00 in0.0 mm 0.00 in0.0 mm 0.00 in0.0 mm
04:49 AM 60.4°F15.8°C 33.3°F0.7°C 36% 7.0 mph NW11.3 kmh NW 9.0 mph14.5 kmh 29.34 in993.6 mb 0.00 in0.0 mm 0.00 in0.0 mm 0.00 in0.0 mm
04:50 AM 60.4°F15.8°C 33.3°F0.7°C 36% 5.0 mph NW8.0 kmh NW 9.0 mph14.5 kmh 29.34 in993.6 mb 0.00 in0.0 mm 0.00 in0.0 mm 0.00 in0.0 mm
04:51 AM 60.4°F15.8°C 33.3°F0.7°C 36% 6.0 mph NW9.7 kmh NW 9.0 mph14.5 kmh 29.34 in993.6 mb 0.00 in0.0 mm 0.00 in0.0 mm 0.00 in0.0 mm
04:52 AM 60.3°F15.7°C 33.2°F0.7°C 36% 5.0 mph NW8.0 kmh NW 9.0 mph14.5 kmh 29.33 in993.2 mb 0.00 in0.0 mm 0.00 in0.0 mm 0.00 in0.0 mm
04:53 AM 60.3°F15.7°C 33.2°F0.7°C 36% 5.0 mph NW8.0 kmh NW 9.0 mph14.5 kmh 29.34 in993.6 mb 0.00 in0.0 mm 0.00 in0.0 mm 0.00 in0.0 mm
04:54 AM 60.2°F15.7°C 33.1°F0.6°C 36% 8.0 mph WNW12.9 kmh WNW 9.0 mph14.5 kmh 29.34 in993.6 mb 0.00 in0.0 mm 0.00 in0.0 mm 0.00 in0.0 mm
04:55 AM 60.2°F15.7°C 33.1°F0.6°C 36% 7.0 mph NW11.3 kmh NW 9.0 mph14.5 kmh 29.34 in993.6 mb 0.00 in0.0 mm 0.00 in0.0 mm 0.00 in0.0 mm
04:56 AM 60.1°F15.6°C 33.1°F0.6°C 36% 7.0 mph NW11.3 kmh NW 9.0 mph14.5 kmh 29.34 in993.6 mb 0.00 in0.0 mm 0.00 in0.0 mm 0.00 in0.0 mm
04:57 AM 60.1°F15.6°C 33.7°F0.9°C 37% 5.0 mph NW8.0 kmh NW 8.0 mph12.9 kmh 29.34 in993.6 mb 0.00 in0.0 mm 0.00 in0.0 mm 0.00 in0.0 mm
04:58 AM 60.0°F15.6°C 33.7°F0.9°C 37% 6.0 mph NW9.7 kmh NW 8.0 mph12.9 kmh 29.34 in993.6 mb 0.00 in0.0 mm 0.00 in0.0 mm 0.00 in0.0 mm
04:59 AM 59.9°F15.5°C 33.6°F0.9°C 37% 5.0 mph NW8.0 kmh NW 8.0 mph12.9 kmh 29.34 in993.6 mb 0.00 in0.0 mm 0.00 in0.0 mm 0.00 in0.0 mm
05:00 AM 59.8°F15.4°C 34.1°F1.2°C 38% 5.0 mph NW8.0 kmh NW 8.0 mph12.9 kmh 29.34 in993.6 mb 0.00 in0.0 mm 0.00 in0.0 mm 0.00 in0.0 mm
05:01 AM 59.7°F15.4°C 34.1°F1.2°C 38% 6.0 mph NW9.7 kmh NW 8.0 mph12.9 kmh 29.34 in993.6 mb 0.00 in0.0 mm 0.00 in0.0 mm 0.00 in0.0 mm
05:02 AM 59.6°F15.3°C 34.0°F1.1°C 38% 5.0 mph WNW8.0 kmh WNW 8.0 mph12.9 kmh 29.34 in993.6 mb 0.00 in0.0 mm 0.00 in0.0 mm 0.00 in0.0 mm
05:03 AM 59.6°F15.3°C 34.0°F1.1°C 38% 5.0 mph NW8.0 kmh NW 8.0 mph12.9 kmh 29.34 in993.6 mb 0.00 in0.0 mm 0.00 in0.0 mm 0.00 in0.0 mm
05:04 AM 59.5°F15.3°C 33.9°F1.1°C 38% 6.0 mph NW9.7 kmh NW 8.0 mph12.9 kmh 29.34 in993.6 mb 0.00 in0.0 mm 0.00 in0.0 mm 0.00 in0.0 mm
05:05 AM 59.5°F15.3°C 33.9°F1.1°C 38% 5.0 mph NW8.0 kmh NW 8.0 mph12.9 kmh 29.34 in993.6 mb 0.00 in0.0 mm 0.00 in0.0 mm 0.00 in0.0 mm
05:06 AM 59.5°F15.3°C 33.9°F1.1°C 38% 4.0 mph WNW6.4 kmh WNW 8.0 mph12.9 kmh 29.34 in993.6 mb 0.00 in0.0 mm 0.00 in0.0 mm 0.00 in0.0 mm
05:07 AM 59.5°F15.3°C 33.9°F1.1°C 38% 5.0 mph NW8.0 kmh NW 8.0 mph12.9 kmh 29.34 in993.6 mb 0.00 in0.0 mm 0.00 in0.0 mm 0.00 in0.0 mm
05:08 AM 59.6°F15.3°C 33.3°F0.7°C 37% 5.0 mph NW8.0 kmh NW 8.0 mph12.9 kmh 29.34 in993.6 mb 0.00 in0.0 mm 0.00 in0.0 mm 0.00 in0.0 mm
05:09 AM 59.7°F15.4°C 33.4°F0.8°C 37% 6.0 mph NW9.7 kmh NW 8.0 mph12.9 kmh 29.34 in993.6 mb 0.00 in0.0 mm 0.00 in0.0 mm 0.00 in0.0 mm
05:10 AM 59.9°F15.5°C 33.6°F0.9°C 37% 7.0 mph NW11.3 kmh NW 11.0 mph17.7 kmh 29.34 in993.6 mb 0.00 in0.0 mm 0.00 in0.0 mm 0.00 in0.0 mm
05:11 AM 60.0°F15.6°C 33.7°F0.9°C 37% 5.0 mph NW8.0 kmh NW 11.0 mph17.7 kmh 29.34 in993.6 mb 0.00 in0.0 mm 0.00 in0.0 mm 0.00 in0.0 mm
05:12 AM 60.1°F15.6°C 33.7°F0.9°C 37% 5.0 mph NW8.0 kmh NW 11.0 mph17.7 kmh 29.34 in993.6 mb 0.00 in0.0 mm 0.00 in0.0 mm 0.00 in0.0 mm
05:13 AM 60.1°F15.6°C 33.7°F0.9°C 37% 4.0 mph WNW6.4 kmh WNW 11.0 mph17.7 kmh 29.34 in993.6 mb 0.00 in0.0 mm 0.00 in0.0 mm 0.00 in0.0 mm
05:14 AM 60.1°F15.6°C 33.7°F0.9°C 37% 4.0 mph NW6.4 kmh NW 11.0 mph17.7 kmh 29.34 in993.6 mb 0.00 in0.0 mm 0.00 in0.0 mm 0.00 in0.0 mm
05:15 AM 60.2°F15.7°C 33.8°F1.0°C 37% 5.0 mph NW8.0 kmh NW 11.0 mph17.7 kmh 29.34 in993.6 mb 0.00 in0.0 mm 0.00 in0.0 mm 0.00 in0.0 mm
05:16 AM 60.2°F15.7°C 33.8°F1.0°C 37% 4.0 mph NW6.4 kmh NW 11.0 mph17.7 kmh 29.34 in993.6 mb 0.00 in0.0 mm 0.00 in0.0 mm 0.00 in0.0 mm
05:17 AM 60.3°F15.7°C 33.9°F1.1°C 37% 6.0 mph NW9.7 kmh NW 11.0 mph17.7 kmh 29.34 in993.6 mb 0.00 in0.0 mm 0.00 in0.0 mm 0.00 in0.0 mm
05:18 AM 60.3°F15.7°C 33.9°F1.1°C 37% 6.0 mph NW9.7 kmh NW 11.0 mph17.7 kmh 29.34 in993.6 mb 0.00 in0.0 mm 0.00 in0.0 mm 0.00 in0.0 mm
05:19 AM 60.3°F15.7°C 33.9°F1.1°C 37% 4.0 mph NW6.4 kmh NW 7.0 mph11.3 kmh 29.34 in993.6 mb 0.00 in0.0 mm 0.00 in0.0 mm 0.00 in0.0 mm
05:20 AM 60.3°F15.7°C 33.9°F1.1°C 37% 4.0 mph WNW6.4 kmh WNW 8.0 mph12.9 kmh 29.34 in993.6 mb 0.00 in0.0 mm 0.00 in0.0 mm 0.00 in0.0 mm
05:21 AM 60.4°F15.8°C 34.0°F1.1°C 37% 8.0 mph NW12.9 kmh NW 8.0 mph12.9 kmh 29.34 in993.6 mb 0.00 in0.0 mm 0.00 in0.0 mm 0.00 in0.0 mm
05:22 AM 60.5°F15.8°C 34.1°F1.2°C 37% 5.0 mph NW8.0 kmh NW 8.0 mph12.9 kmh 29.33 in993.2 mb 0.00 in0.0 mm 0.00 in0.0 mm 0.00 in0.0 mm
05:23 AM 60.5°F15.8°C 34.1°F1.2°C 37% 6.0 mph WNW9.7 kmh WNW 8.0 mph12.9 kmh 29.33 in993.2 mb 0.00 in0.0 mm 0.00 in0.0 mm 0.00 in0.0 mm
05:24 AM 60.6°F15.9°C 34.2°F1.2°C 37% 5.0 mph NW8.0 kmh NW 8.0 mph12.9 kmh 29.33 in993.2 mb 0.00 in0.0 mm 0.00 in0.0 mm 0.00 in0.0 mm
05:25 AM 60.6°F15.9°C 34.2°F1.2°C 37% 6.0 mph NW9.7 kmh NW 8.0 mph12.9 kmh 29.33 in993.2 mb 0.00 in0.0 mm 0.00 in0.0 mm 0.00 in0.0 mm
05:26 AM 60.6°F15.9°C 34.2°F1.2°C 37% 7.0 mph NW11.3 kmh NW 8.0 mph12.9 kmh 29.33 in993.2 mb 0.00 in0.0 mm 0.00 in0.0 mm 0.00 in0.0 mm
05:27 AM 60.6°F15.9°C 34.2°F1.2°C 37% 5.0 mph NW8.0 kmh NW 8.0 mph12.9 kmh 29.33 in993.2 mb 0.00 in0.0 mm 0.00 in0.0 mm 0.00 in0.0 mm
05:28 AM 60.6°F15.9°C 34.2°F1.2°C 37% 6.0 mph NW9.7 kmh NW 8.0 mph12.9 kmh 29.33 in993.2 mb 0.00 in0.0 mm 0.00 in0.0 mm 0.00 in0.0 mm
05:29 AM 60.5°F15.8°C 34.1°F1.2°C 37% 6.0 mph NW9.7 kmh NW 8.0 mph12.9 kmh 29.33 in993.2 mb 0.00 in0.0 mm 0.00 in0.0 mm 0.00 in0.0 mm
05:30 AM 60.5°F15.8°C 34.1°F1.2°C 37% 6.0 mph NW9.7 kmh NW 8.0 mph12.9 kmh 29.33 in993.2 mb 0.00 in0.0 mm 0.00 in0.0 mm 0.00 in0.0 mm
05:31 AM 60.5°F15.8°C 34.8°F1.6°C 38% 5.0 mph WNW8.0 kmh WNW 8.0 mph12.9 kmh 29.34 in993.6 mb 0.00 in0.0 mm 0.00 in0.0 mm 0.00 in0.0 mm
05:32 AM 60.4°F15.8°C 34.7°F1.5°C 38% 2.0 mph WNW3.2 kmh WNW 8.0 mph12.9 kmh 29.34 in993.6 mb 0.00 in0.0 mm 0.00 in0.0 mm 0.00 in0.0 mm
05:33 AM 60.3°F15.7°C 34.6°F1.4°C 38% 3.0 mph WNW4.8 kmh WNW 8.0 mph12.9 kmh 29.34 in993.6 mb 0.00 in0.0 mm 0.00 in0.0 mm 0.00 in0.0 mm
05:34 AM 60.3°F15.7°C 34.6°F1.4°C 38% 2.0 mph NW3.2 kmh NW 8.0 mph12.9 kmh 29.34 in993.6 mb 0.00 in0.0 mm 0.00 in0.0 mm 0.00 in0.0 mm
05:35 AM 60.2°F15.7°C 34.5°F1.4°C 38% 3.0 mph NW4.8 kmh NW 8.0 mph12.9 kmh 29.34 in993.6 mb 0.00 in0.0 mm 0.00 in0.0 mm 0.00 in0.0 mm
05:36 AM 60.1°F15.6°C 34.4°F1.3°C 38% 4.0 mph NW6.4 kmh NW 8.0 mph12.9 kmh 29.34 in993.6 mb 0.00 in0.0 mm 0.00 in0.0 mm 0.00 in0.0 mm
05:37 AM 60.0°F15.6°C 34.3°F1.3°C 38% 3.0 mph NW4.8 kmh NW 8.0 mph12.9 kmh 29.34 in993.6 mb 0.00 in0.0 mm 0.00 in0.0 mm 0.00 in0.0 mm
05:38 AM 59.8°F15.4°C 34.8°F1.6°C 39% 3.0 mph WNW4.8 kmh WNW 8.0 mph12.9 kmh 29.34 in993.6 mb 0.00 in0.0 mm 0.00 in0.0 mm 0.00 in0.0 mm
05:39 AM 59.7°F15.4°C 34.7°F1.5°C 39% 3.0 mph W4.8 kmh W 7.0 mph11.3 kmh 29.34 in993.6 mb 0.00 in0.0 mm 0.00 in0.0 mm 0.00 in0.0 mm
05:40 AM 59.5°F15.3°C 34.5°F1.4°C 39% 3.0 mph W4.8 kmh W 6.0 mph9.7 kmh 29.34 in993.6 mb 0.00 in0.0 mm 0.00 in0.0 mm 0.00 in0.0 mm
05:41 AM 59.4°F15.2°C 34.4°F1.3°C 39% 5.0 mph W8.0 kmh W 6.0 mph9.7 kmh 29.34 in993.6 mb 0.00 in0.0 mm 0.00 in0.0 mm 0.00 in0.0 mm
05:42 AM 59.3°F15.2°C 34.3°F1.3°C 39% 4.0 mph WNW6.4 kmh WNW 6.0 mph9.7 kmh 29.34 in993.6 mb 0.00 in0.0 mm 0.00 in0.0 mm 0.00 in0.0 mm
05:43 AM 59.2°F15.1°C 34.3°F1.3°C 39% 4.0 mph WNW6.4 kmh WNW 6.0 mph9.7 kmh 29.34 in993.6 mb 0.00 in0.0 mm 0.00 in0.0 mm 0.00 in0.0 mm
05:44 AM 59.2°F15.1°C 34.9°F1.6°C 40% 4.0 mph W6.4 kmh W 6.0 mph9.7 kmh 29.34 in993.6 mb 0.00 in0.0 mm 0.00 in0.0 mm 0.00 in0.0 mm
05:45 AM 59.2°F15.1°C 34.9°F1.6°C 40% 5.0 mph WNW8.0 kmh WNW 6.0 mph9.7 kmh 29.34 in993.6 mb 0.00 in0.0 mm 0.00 in0.0 mm 0.00 in0.0 mm
05:46 AM 59.2°F15.1°C 34.9°F1.6°C 40% 5.0 mph W8.0 kmh W 6.0 mph9.7 kmh 29.34 in993.6 mb 0.00 in0.0 mm 0.00 in0.0 mm 0.00 in0.0 mm
05:47 AM 59.2°F15.1°C 34.9°F1.6°C 40% 3.0 mph WNW4.8 kmh WNW 6.0 mph9.7 kmh 29.34 in993.6 mb 0.00 in0.0 mm 0.00 in0.0 mm 0.00 in0.0 mm
05:48 AM 59.2°F15.1°C 34.9°F1.6°C 40% 3.0 mph NW4.8 kmh NW 6.0 mph9.7 kmh 29.34 in993.6 mb 0.00 in0.0 mm 0.00 in0.0 mm 0.00 in0.0 mm
05:49 AM 59.2°F15.1°C 34.9°F1.6°C 40% 5.0 mph WNW8.0 kmh WNW 6.0 mph9.7 kmh 29.34 in993.6 mb 0.00 in0.0 mm 0.00 in0.0 mm 0.00 in0.0 mm
05:50 AM 59.2°F15.1°C 34.9°F1.6°C 40% 4.0 mph WNW6.4 kmh WNW 6.0 mph9.7 kmh 29.35 in993.9 mb 0.00 in0.0 mm 0.00 in0.0 mm 0.00 in0.0 mm
05:51 AM 59.2°F15.1°C 34.9°F1.6°C 40% 4.0 mph WNW6.4 kmh WNW 6.0 mph9.7 kmh 29.34 in993.6 mb 0.00 in0.0 mm 0.00 in0.0 mm 0.00 in0.0 mm
05:52 AM 59.2°F15.1°C 34.9°F1.6°C 40% 6.0 mph NW9.7 kmh NW 6.0 mph9.7 kmh 29.34 in993.6 mb 0.00 in0.0 mm 0.00 in0.0 mm 0.00 in0.0 mm
05:53 AM 59.1°F15.1°C 34.8°F1.6°C 40% 4.0 mph WNW6.4 kmh WNW 6.0 mph9.7 kmh 29.34 in993.6 mb 0.00 in0.0 mm 0.00 in0.0 mm 0.00 in0.0 mm
05:54 AM 59.1°F15.1°C 34.8°F1.6°C 40% 5.0 mph NW8.0 kmh NW 7.0 mph11.3 kmh 29.34 in993.6 mb 0.00 in0.0 mm 0.00 in0.0 mm 0.00 in0.0 mm
05:55 AM 59.2°F15.1°C 34.9°F1.6°C 40% 5.0 mph WNW8.0 kmh WNW 7.0 mph11.3 kmh 29.34 in993.6 mb 0.00 in0.0 mm 0.00 in0.0 mm 0.00 in0.0 mm
05:56 AM 59.1°F15.1°C 34.8°F1.6°C 40% 5.0 mph WNW8.0 kmh WNW 7.0 mph11.3 kmh 29.35 in993.9 mb 0.00 in0.0 mm 0.00 in0.0 mm 0.00 in0.0 mm
05:57 AM 58.7°F14.8°C 33.8°F1.0°C 39% 6.0 mph NW9.7 kmh NW 7.0 mph11.3 kmh 29.35 in993.9 mb 0.00 in0.0 mm 0.00 in0.0 mm 0.00 in0.0 mm
05:58 AM 58.8°F14.9°C 33.9°F1.1°C 39% 7.0 mph NW11.3 kmh NW 7.0 mph11.3 kmh 29.35 in993.9 mb 0.00 in0.0 mm 0.00 in0.0 mm 0.00 in0.0 mm
05:59 AM 58.8°F14.9°C 33.9°F1.1°C 39% 7.0 mph NW11.3 kmh NW 7.0 mph11.3 kmh 29.35 in993.9 mb 0.00 in0.0 mm 0.00 in0.0 mm 0.00 in0.0 mm
06:00 AM 58.8°F14.9°C 33.9°F1.1°C 39% 7.0 mph NW11.3 kmh NW 7.0 mph11.3 kmh 29.35 in993.9 mb 0.00 in0.0 mm 0.00 in0.0 mm 0.00 in0.0 mm
06:01 AM 58.8°F14.9°C 33.9°F1.1°C 39% 7.0 mph NW11.3 kmh NW 7.0 mph11.3 kmh 29.35 in993.9 mb 0.00 in0.0 mm 0.00 in0.0 mm 0.00 in0.0 mm
06:02 AM 58.8°F14.9°C 33.9°F1.1°C 39% 7.0 mph NW11.3 kmh NW 7.0 mph11.3 kmh 29.35 in993.9 mb 0.00 in0.0 mm 0.00 in0.0 mm 0.00 in0.0 mm
06:03 AM 58.8°F14.9°C 33.9°F1.1°C 39% 7.0 mph NW11.3 kmh NW 7.0 mph11.3 kmh 29.35 in993.9 mb 0.00 in0.0 mm 0.00 in0.0 mm 0.00 in0.0 mm
06:04 AM 58.8°F14.9°C 33.9°F1.1°C 39% 7.0 mph NW11.3 kmh NW 7.0 mph11.3 kmh 29.35 in993.9 mb 0.00 in0.0 mm 0.00 in0.0 mm 0.00 in0.0 mm
06:05 AM 58.8°F14.9°C 33.9°F1.1°C 39% 7.0 mph NW11.3 kmh NW 7.0 mph11.3 kmh 29.35 in993.9 mb 0.00 in0.0 mm 0.00 in0.0 mm 0.00 in0.0 mm
06:06 AM 58.8°F14.9°C 33.9°F1.1°C 39% 7.0 mph NW11.3 kmh NW 7.0 mph11.3 kmh 29.35 in993.9 mb 0.00 in0.0 mm 0.00 in0.0 mm 0.00 in0.0 mm
06:07 AM 58.8°F14.9°C 33.9°F1.1°C 39% 7.0 mph NW11.3 kmh NW 7.0 mph11.3 kmh 29.35 in993.9 mb 0.00 in0.0 mm 0.00 in0.0 mm 0.00 in0.0 mm
06:08 AM 58.8°F14.9°C 33.9°F1.1°C 39% 7.0 mph NW11.3 kmh NW 7.0 mph11.3 kmh 29.35 in993.9 mb 0.00 in0.0 mm 0.00 in0.0 mm 0.00 in0.0 mm
06:09 AM 58.8°F14.9°C -- 39% 7.0 mph NW11.3 kmh NW 7.0 mph11.3 kmh 29.35 in993.9 mb 0.00 in0.0 mm 0.00 in0.0 mm 0.00 in0.0 mm
06:10 AM 58.8°F14.9°C -- 39% 7.0 mph NW11.3 kmh NW 7.0 mph11.3 kmh 29.35 in993.9 mb 0.00 in0.0 mm 0.00 in0.0 mm 0.00 in0.0 mm
06:11 AM 58.8°F14.9°C -- 39% 7.0 mph NW11.3 kmh NW 7.0 mph11.3 kmh 29.35 in993.9 mb 0.00 in0.0 mm 0.00 in0.0 mm 0.00 in0.0 mm
06:12 AM 58.8°F14.9°C -- 39% 7.0 mph NW11.3 kmh NW 7.0 mph11.3 kmh 29.35 in993.9 mb 0.00 in0.0 mm 0.00 in0.0 mm 0.00 in0.0 mm
06:13 AM 58.8°F14.9°C -- 39% 7.0 mph NW11.3 kmh NW 7.0 mph11.3 kmh 29.35 in993.9 mb 0.00 in0.0 mm 0.00 in0.0 mm 0.00 in0.0 mm
06:14 AM 58.8°F14.9°C -- 39% 7.0 mph NW11.3 kmh NW 7.0 mph11.3 kmh 29.35 in993.9 mb 0.00 in0.0 mm 0.00 in0.0 mm 0.00 in0.0 mm
06:15 AM 58.8°F14.9°C -- 39% 7.0 mph NW11.3 kmh NW 7.0 mph11.3 kmh 29.35 in993.9 mb 0.00 in0.0 mm 0.00 in0.0 mm 0.00 in0.0 mm
06:16 AM 58.8°F14.9°C -- 39% 7.0 mph NW11.3 kmh NW 7.0 mph11.3 kmh 29.35 in993.9 mb 0.00 in0.0 mm 0.00 in0.0 mm 0.00 in0.0 mm
06:17 AM 58.8°F14.9°C -- 39% 7.0 mph NW11.3 kmh NW 7.0 mph11.3 kmh 29.35 in993.9 mb 0.00 in0.0 mm 0.00 in0.0 mm 0.00 in0.0 mm
06:18 AM 58.8°F14.9°C -- 39% 7.0 mph NW11.3 kmh NW 7.0 mph11.3 kmh 29.35 in993.9 mb 0.00 in0.0 mm 0.00 in0.0 mm 0.00 in0.0 mm
06:19 AM 58.8°F14.9°C -- 39% 7.0 mph NW11.3 kmh NW 7.0 mph11.3 kmh 29.35 in993.9 mb 0.00 in0.0 mm 0.00 in0.0 mm 0.00 in0.0 mm
06:20 AM 58.8°F14.9°C -- 39% 7.0 mph NW11.3 kmh NW 7.0 mph11.3 kmh 29.35 in993.9 mb 0.00 in0.0 mm 0.00 in0.0 mm 0.00 in0.0 mm
06:21 AM 58.8°F14.9°C -- 39% 7.0 mph NW11.3 kmh NW 7.0 mph11.3 kmh 29.35 in993.9 mb 0.00 in0.0 mm 0.00 in0.0 mm 0.00 in0.0 mm
06:22 AM 58.8°F14.9°C -- 39% 7.0 mph NW11.3 kmh NW 7.0 mph11.3 kmh 29.35 in993.9 mb 0.00 in0.0 mm 0.00 in0.0 mm 0.00 in0.0 mm
06:23 AM 58.8°F14.9°C -- 39% 7.0 mph NW11.3 kmh NW 7.0 mph11.3 kmh 29.35 in993.9 mb 0.00 in0.0 mm 0.00 in0.0 mm 0.00 in0.0 mm
06:24 AM 58.8°F14.9°C -- 39% 7.0 mph NW11.3 kmh NW 7.0 mph11.3 kmh 29.35 in993.9 mb 0.00 in0.0 mm 0.00 in0.0 mm 0.00 in0.0 mm
06:25 AM 58.8°F14.9°C -- 39% 7.0 mph NW11.3 kmh NW 7.0 mph11.3 kmh 29.35 in993.9 mb 0.00 in0.0 mm 0.00 in0.0 mm 0.00 in0.0 mm
06:26 AM 58.8°F14.9°C -- 39% 7.0 mph NW11.3 kmh NW 7.0 mph11.3 kmh 29.35 in993.9 mb 0.00 in0.0 mm 0.00 in0.0 mm 0.00 in0.0 mm
06:27 AM 58.8°F14.9°C -- 39% 7.0 mph NW11.3 kmh NW 7.0 mph11.3 kmh 29.35 in993.9 mb 0.00 in0.0 mm 0.00 in0.0 mm 0.00 in0.0 mm
06:28 AM 58.8°F14.9°C -- 39% 7.0 mph NW11.3 kmh NW 7.0 mph11.3 kmh 29.35 in993.9 mb 0.00 in0.0 mm 0.00 in0.0 mm 0.00 in0.0 mm
06:29 AM 58.8°F14.9°C -- 39% 7.0 mph NW11.3 kmh NW 7.0 mph11.3 kmh 29.35 in993.9 mb 0.00 in0.0 mm 0.00 in0.0 mm 0.00 in0.0 mm
06:30 AM 58.8°F14.9°C -- 39% 7.0 mph NW11.3 kmh NW 7.0 mph11.3 kmh 29.35 in993.9 mb 0.00 in0.0 mm 0.00 in0.0 mm 0.00 in0.0 mm
06:31 AM 58.8°F14.9°C -- 39% 7.0 mph NW11.3 kmh NW 7.0 mph11.3 kmh 29.35 in993.9 mb 0.00 in0.0 mm 0.00 in0.0 mm 0.00 in0.0 mm
06:32 AM 58.8°F14.9°C -- 39% 7.0 mph NW11.3 kmh NW 7.0 mph11.3 kmh 29.35 in993.9 mb 0.00 in0.0 mm 0.00 in0.0 mm 0.00 in0.0 mm
06:33 AM 58.8°F14.9°C -- 39% 7.0 mph NW11.3 kmh NW 7.0 mph11.3 kmh 29.35 in993.9 mb 0.00 in0.0 mm 0.00 in0.0 mm 0.00 in0.0 mm
06:34 AM 58.8°F14.9°C -- 39% 7.0 mph NW11.3 kmh NW 7.0 mph11.3 kmh 29.35 in993.9 mb 0.00 in0.0 mm 0.00 in0.0 mm 0.00 in0.0 mm
06:35 AM 58.8°F14.9°C -- 39% 7.0 mph NW11.3 kmh NW 7.0 mph11.3 kmh 29.36 in994.2 mb 0.00 in0.0 mm 0.00 in0.0 mm 0.00 in0.0 mm
06:36 AM 58.8°F14.9°C -- 39% 7.0 mph NW11.3 kmh NW 7.0 mph11.3 kmh 29.36 in994.2 mb 0.00 in0.0 mm 0.00 in0.0 mm 0.00 in0.0 mm
06:37 AM 58.8°F14.9°C -- 39% 7.0 mph NW11.3 kmh NW 7.0 mph11.3 kmh 29.36 in994.2 mb 0.00 in0.0 mm 0.00 in0.0 mm 0.00 in0.0 mm
06:38 AM 58.8°F14.9°C -- 39% 7.0 mph NW11.3 kmh NW 7.0 mph11.3 kmh 29.36 in994.2 mb 0.00 in0.0 mm 0.00 in0.0 mm 0.00 in0.0 mm
06:39 AM 58.8°F14.9°C -- 39% 7.0 mph NW11.3 kmh NW 7.0 mph11.3 kmh 29.36 in994.2 mb 0.00 in0.0 mm 0.00 in0.0 mm 0.00 in0.0 mm
06:40 AM 58.8°F14.9°C -- 39% 7.0 mph NW11.3 kmh NW 7.0 mph11.3 kmh 29.36 in994.2 mb 0.00 in0.0 mm 0.00 in0.0 mm 0.00 in0.0 mm
06:41 AM 58.8°F14.9°C -- 39% 7.0 mph NW11.3 kmh NW 7.0 mph11.3 kmh 29.36 in994.2 mb 0.00 in0.0 mm 0.00 in0.0 mm 0.00 in0.0 mm
06:42 AM 58.8°F14.9°C -- 39% 7.0 mph NW11.3 kmh NW 7.0 mph11.3 kmh 29.36 in994.2 mb 0.00 in0.0 mm 0.00 in0.0 mm 0.00 in0.0 mm
06:43 AM 58.8°F14.9°C -- 39% 7.0 mph NW11.3 kmh NW 7.0 mph11.3 kmh 29.36 in994.2 mb 0.00 in0.0 mm 0.00 in0.0 mm 0.00 in0.0 mm
06:44 AM 58.8°F14.9°C -- 39% 7.0 mph NW11.3 kmh NW 7.0 mph11.3 kmh 29.36 in994.2 mb 0.00 in0.0 mm 0.00 in0.0 mm 0.00 in0.0 mm
06:45 AM 58.8°F14.9°C -- 39% 7.0 mph NW11.3 kmh NW 7.0 mph11.3 kmh 29.36 in994.2 mb 0.00 in0.0 mm 0.00 in0.0 mm 0.00 in0.0 mm
06:46 AM 58.8°F14.9°C -- 39% 7.0 mph NW11.3 kmh NW 7.0 mph11.3 kmh 29.36 in994.2 mb 0.00 in0.0 mm 0.00 in0.0 mm 0.00 in0.0 mm
06:47 AM 58.8°F14.9°C -- 39% 7.0 mph NW11.3 kmh NW 7.0 mph11.3 kmh 29.36 in994.2 mb 0.00 in0.0 mm 0.00 in0.0 mm 0.00 in0.0 mm
06:48 AM 58.8°F14.9°C -- 39% 7.0 mph NW11.3 kmh NW 7.0 mph11.3 kmh 29.36 in994.2 mb 0.00 in0.0 mm 0.00 in0.0 mm 0.00 in0.0 mm
06:49 AM 58.8°F14.9°C -- 39% 7.0 mph NW11.3 kmh NW 7.0 mph11.3 kmh 29.36 in994.2 mb 0.00 in0.0 mm 0.00 in0.0 mm 0.00 in0.0 mm
06:50 AM 58.8°F14.9°C -- 39% 7.0 mph NW11.3 kmh NW 7.0 mph11.3 kmh 29.36 in994.2 mb 0.00 in0.0 mm 0.00 in0.0 mm 0.00 in0.0 mm
06:51 AM 58.8°F14.9°C -- 39% 7.0 mph NW11.3 kmh NW 7.0 mph11.3 kmh 29.36 in994.2 mb 0.00 in0.0 mm 0.00 in0.0 mm 0.00 in0.0 mm
06:52 AM 58.8°F14.9°C -- 39% 7.0 mph NW11.3 kmh NW 7.0 mph11.3 kmh 29.36 in994.2 mb 0.00 in0.0 mm 0.00 in0.0 mm 0.00 in0.0 mm
06:53 AM 58.8°F14.9°C -- 39% 7.0 mph NW11.3 kmh NW 7.0 mph11.3 kmh 29.36 in994.2 mb 0.00 in0.0 mm 0.00 in0.0 mm 0.00 in0.0 mm
06:54 AM 58.8°F14.9°C -- 39% 7.0 mph NW11.3 kmh NW 7.0 mph11.3 kmh 29.36 in994.2 mb 0.00 in0.0 mm 0.00 in0.0 mm 0.00 in0.0 mm
06:55 AM 58.8°F14.9°C -- 39% 7.0 mph NW11.3 kmh NW 7.0 mph11.3 kmh 29.36 in994.2 mb 0.00 in0.0 mm 0.00 in0.0 mm 0.00 in0.0 mm
06:56 AM 58.8°F14.9°C -- 39% 7.0 mph NW11.3 kmh NW 7.0 mph11.3 kmh 29.36 in994.2 mb 0.00 in0.0 mm 0.00 in0.0 mm 0.00 in0.0 mm
06:57 AM 58.8°F14.9°C -- 39% 7.0 mph NW11.3 kmh NW 7.0 mph11.3 kmh 29.36 in994.2 mb 0.00 in0.0 mm 0.00 in0.0 mm 0.00 in0.0 mm
06:58 AM 58.8°F14.9°C -- 39% 7.0 mph NW11.3 kmh NW 7.0 mph11.3 kmh 29.36 in994.2 mb 0.00 in0.0 mm 0.00 in0.0 mm 0.00 in0.0 mm
06:59 AM 58.8°F14.9°C -- 39% 7.0 mph NW11.3 kmh NW 7.0 mph11.3 kmh 29.36 in994.2 mb 0.00 in0.0 mm 0.00 in0.0 mm 0.00 in0.0 mm
07:00 AM 58.8°F14.9°C -- 39% 7.0 mph NW11.3 kmh NW 7.0 mph11.3 kmh 29.36 in994.2 mb 0.00 in0.0 mm 0.00 in0.0 mm 0.00 in0.0 mm
07:01 AM 58.8°F14.9°C -- 39% 7.0 mph NW11.3 kmh NW 7.0 mph11.3 kmh 29.36 in994.2 mb 0.00 in0.0 mm 0.00 in0.0 mm 0.00 in0.0 mm
07:02 AM 58.8°F14.9°C -- 39% 7.0 mph NW11.3 kmh NW 7.0 mph11.3 kmh 29.36 in994.2 mb 0.00 in0.0 mm 0.00 in0.0 mm 0.00 in0.0 mm
07:03 AM 58.8°F14.9°C -- 39% 7.0 mph NW11.3 kmh NW 7.0 mph11.3 kmh 29.36 in994.2 mb 0.00 in0.0 mm 0.00 in0.0 mm 0.00 in0.0 mm
07:04 AM 58.8°F14.9°C -- 39% 7.0 mph NW11.3 kmh NW 7.0 mph11.3 kmh 29.36 in994.2 mb 0.00 in0.0 mm 0.00 in0.0 mm 0.00 in0.0 mm
07:05 AM 58.8°F14.9°C -- 39% 7.0 mph NW11.3 kmh NW 7.0 mph11.3 kmh 29.36 in994.2 mb 0.00 in0.0 mm 0.00 in0.0 mm 0.00 in0.0 mm
07:06 AM 58.8°F14.9°C -- 39% 7.0 mph NW11.3 kmh NW 7.0 mph11.3 kmh 29.36 in994.2 mb 0.00 in0.0 mm 0.00 in0.0 mm 0.00 in0.0 mm
07:07 AM 58.8°F14.9°C -- 39% 7.0 mph NW11.3 kmh NW 7.0 mph11.3 kmh 29.36 in994.2 mb 0.00 in0.0 mm 0.00 in0.0 mm 0.00 in0.0 mm
07:08 AM 58.8°F14.9°C -- 39% 7.0 mph NW11.3 kmh NW 7.0 mph11.3 kmh 29.36 in994.2 mb 0.00 in0.0 mm 0.00 in0.0 mm 0.00 in0.0 mm
07:09 AM 58.8°F14.9°C -- 39% 7.0 mph NW11.3 kmh NW 7.0 mph11.3 kmh 29.36 in994.2 mb 0.00 in0.0 mm 0.00 in0.0 mm 0.00 in0.0 mm
07:10 AM 58.8°F14.9°C -- 39% 7.0 mph NW11.3 kmh NW 7.0 mph11.3 kmh 29.36 in994.2 mb 0.00 in0.0 mm 0.00 in0.0 mm 0.00 in0.0 mm
07:11 AM 58.8°F14.9°C -- 39% 7.0 mph NW11.3 kmh NW 7.0 mph11.3 kmh 29.36 in994.2 mb 0.00 in0.0 mm 0.00 in0.0 mm 0.00 in0.0 mm
07:12 AM 58.8°F14.9°C -- 39% 7.0 mph NW11.3 kmh NW 7.0 mph11.3 kmh 29.36 in994.2 mb 0.00 in0.0 mm 0.00 in0.0 mm 0.00 in0.0 mm
07:13 AM 58.8°F14.9°C -- 39% 7.0 mph NW11.3 kmh NW 7.0 mph11.3 kmh 29.36 in994.2 mb 0.00 in0.0 mm 0.00 in0.0 mm 0.00 in0.0 mm
07:14 AM 58.8°F14.9°C -- 39% 2.0 mph NW3.2 kmh NW 7.0 mph11.3 kmh 29.36 in994.2 mb 0.00 in0.0 mm 0.00 in0.0 mm 0.00 in0.0 mm
07:15 AM 64.0°F17.8°C 37.2°F2.9°C 37% 5.0 mph NW8.0 kmh NW 7.0 mph11.3 kmh 29.36 in994.2 mb 0.00 in0.0 mm 0.00 in0.0 mm 0.00 in0.0 mm
07:16 AM 64.1°F17.8°C 37.3°F2.9°C 37% 6.0 mph NW9.7 kmh NW 7.0 mph11.3 kmh 29.36 in994.2 mb 0.00 in0.0 mm 0.00 in0.0 mm 0.00 in0.0 mm
07:17 AM 64.1°F17.8°C 37.3°F2.9°C 37% 7.0 mph WNW11.3 kmh WNW 7.0 mph11.3 kmh 29.36 in994.2 mb 0.00 in0.0 mm 0.00 in0.0 mm 0.00 in0.0 mm
07:18 AM 64.2°F17.9°C 37.4°F3.0°C 37% 4.0 mph NW6.4 kmh NW 8.0 mph12.9 kmh 29.36 in994.2 mb 0.00 in0.0 mm 0.00 in0.0 mm 0.00 in0.0 mm
07:19 AM 64.3°F17.9°C 37.5°F3.1°C 37% 2.0 mph NW3.2 kmh NW 8.0 mph12.9 kmh 29.36 in994.2 mb 0.00 in0.0 mm 0.00 in0.0 mm 0.00 in0.0 mm
07:20 AM 64.3°F17.9°C 37.5°F3.1°C 37% 6.0 mph NW9.7 kmh NW 8.0 mph12.9 kmh 29.36 in994.2 mb 0.00 in0.0 mm 0.00 in0.0 mm 0.00 in0.0 mm
07:21 AM 64.4°F18.0°C 37.6°F3.1°C 37% 3.0 mph NW4.8 kmh NW 8.0 mph12.9 kmh 29.36 in994.2 mb 0.00 in0.0 mm 0.00 in0.0 mm 0.00 in0.0 mm
07:22 AM 64.4°F18.0°C 37.6°F3.1°C 37% 3.0 mph WNW4.8 kmh WNW 8.0 mph12.9 kmh 29.36 in994.2 mb 0.00 in0.0 mm 0.00 in0.0 mm 0.00 in0.0 mm
07:23 AM 64.5°F18.1°C 38.3°F3.5°C 38% 4.0 mph NNW6.4 kmh NNW 8.0 mph12.9 kmh 29.36 in994.2 mb 0.00 in0.0 mm 0.00 in0.0 mm 0.00 in0.0 mm
07:24 AM 64.6°F18.1°C 38.4°F3.6°C 38% 1.0 mph NW1.6 kmh NW 8.0 mph12.9 kmh 29.36 in994.2 mb 0.00 in0.0 mm 0.00 in0.0 mm 0.00 in0.0 mm
07:25 AM 64.6°F18.1°C 38.4°F3.6°C 38% 2.0 mph NW3.2 kmh NW 8.0 mph12.9 kmh 29.36 in994.2 mb 0.00 in0.0 mm 0.00 in0.0 mm 0.00 in0.0 mm
07:26 AM 64.7°F18.2°C 38.5°F3.6°C 38% 3.0 mph NW4.8 kmh NW 7.0 mph11.3 kmh 29.36 in994.2 mb 0.00 in0.0 mm 0.00 in0.0 mm 0.00 in0.0 mm
07:27 AM 64.8°F18.2°C 38.6°F3.7°C 38% 5.0 mph NW8.0 kmh NW 6.0 mph9.7 kmh 29.36 in994.2 mb 0.00 in0.0 mm 0.00 in0.0 mm 0.00 in0.0 mm
07:28 AM 64.8°F18.2°C 38.6°F3.7°C 38% 6.0 mph NW9.7 kmh NW 6.0 mph9.7 kmh 29.36 in994.2 mb 0.00 in0.0 mm 0.00 in0.0 mm 0.00 in0.0 mm
07:29 AM 64.9°F18.3°C 38.7°F3.7°C 38% 3.0 mph NW4.8 kmh NW 6.0 mph9.7 kmh 29.36 in994.2 mb 0.00 in0.0 mm 0.00 in0.0 mm 0.00 in0.0 mm
07:30 AM 65.0°F18.3°C 38.8°F3.8°C 38% 4.0 mph NW6.4 kmh NW 7.0 mph11.3 kmh 29.37 in994.6 mb 0.00 in0.0 mm 0.00 in0.0 mm 0.00 in0.0 mm
07:31 AM 65.1°F18.4°C 38.9°F3.8°C 38% 4.0 mph NW6.4 kmh NW 7.0 mph11.3 kmh 29.37 in994.6 mb 0.00 in0.0 mm 0.00 in0.0 mm 0.00 in0.0 mm
07:32 AM 65.3°F18.5°C 39.0°F3.9°C 38% 5.0 mph NW8.0 kmh NW 7.0 mph11.3 kmh 29.37 in994.6 mb 0.00 in0.0 mm 0.00 in0.0 mm 0.00 in0.0 mm
07:33 AM 65.4°F18.6°C 39.1°F3.9°C 38% 6.0 mph NW9.7 kmh NW 7.0 mph11.3 kmh 29.37 in994.6 mb 0.00 in0.0 mm 0.00 in0.0 mm 0.00 in0.0 mm
07:34 AM 65.4°F18.6°C 39.1°F3.9°C 38% 6.0 mph NW9.7 kmh NW 9.0 mph14.5 kmh 29.37 in994.6 mb 0.00 in0.0 mm 0.00 in0.0 mm 0.00 in0.0 mm
07:35 AM 65.5°F18.6°C 39.2°F4.0°C 38% 5.0 mph NW8.0 kmh NW 9.0 mph14.5 kmh 29.37 in994.6 mb 0.00 in0.0 mm 0.00 in0.0 mm 0.00 in0.0 mm
07:36 AM 65.6°F18.7°C 39.3°F4.1°C 38% 5.0 mph NW8.0 kmh NW 9.0 mph14.5 kmh 29.37 in994.6 mb 0.00 in0.0 mm 0.00 in0.0 mm 0.00 in0.0 mm
07:37 AM 65.7°F18.7°C 40.1°F4.5°C 39% 3.0 mph NW4.8 kmh NW 9.0 mph14.5 kmh 29.37 in994.6 mb 0.00 in0.0 mm 0.00 in0.0 mm 0.00 in0.0 mm
07:38 AM 65.8°F18.8°C 40.2°F4.6°C 39% 4.0 mph NW6.4 kmh NW 9.0 mph14.5 kmh 29.37 in994.6 mb 0.00 in0.0 mm 0.00 in0.0 mm 0.00 in0.0 mm
07:39 AM 65.9°F18.8°C 40.2°F4.6°C 39% 4.0 mph NW6.4 kmh NW 9.0 mph14.5 kmh 29.37 in994.6 mb 0.00 in0.0 mm 0.00 in0.0 mm 0.00 in0.0 mm
07:40 AM 66.0°F18.9°C 40.3°F4.6°C 39% 4.0 mph NW6.4 kmh NW 9.0 mph14.5 kmh 29.37 in994.6 mb 0.00 in0.0 mm 0.00 in0.0 mm 0.00 in0.0 mm
07:41 AM 66.1°F18.9°C 40.4°F4.7°C 39% 4.0 mph NW6.4 kmh NW 9.0 mph14.5 kmh 29.37 in994.6 mb 0.00 in0.0 mm 0.00 in0.0 mm 0.00 in0.0 mm
07:42 AM 66.2°F19.0°C 40.5°F4.7°C 39% 4.0 mph NW6.4 kmh NW 9.0 mph14.5 kmh 29.37 in994.6 mb 0.00 in0.0 mm 0.00 in0.0 mm 0.00 in0.0 mm
07:43 AM 66.3°F19.1°C 40.6°F4.8°C 39% 6.0 mph NW9.7 kmh NW 8.0 mph12.9 kmh 29.37 in994.6 mb 0.00 in0.0 mm 0.00 in0.0 mm 0.00 in0.0 mm
07:44 AM 66.4°F19.1°C 40.0°F4.4°C 38% 4.0 mph NW6.4 kmh NW 7.0 mph11.3 kmh 29.37 in994.6 mb 0.00 in0.0 mm 0.00 in0.0 mm 0.00 in0.0 mm
07:45 AM 66.5°F19.2°C 40.8°F4.9°C 39% 2.0 mph NW3.2 kmh NW 7.0 mph11.3 kmh 29.37 in994.6 mb 0.00 in0.0 mm 0.00 in0.0 mm 0.00 in0.0 mm
07:46 AM 66.7°F19.3°C 41.0°F5.0°C 39% 2.0 mph NW3.2 kmh NW 7.0 mph11.3 kmh 29.37 in994.6 mb 0.00 in0.0 mm 0.00 in0.0 mm 0.00 in0.0 mm
07:47 AM 66.9°F19.4°C 40.5°F4.7°C 38% 4.0 mph NW6.4 kmh NW 7.0 mph11.3 kmh 29.37 in994.6 mb 0.00 in0.0 mm 0.00 in0.0 mm 0.00 in0.0 mm
07:48 AM 67.1°F19.5°C 40.6°F4.8°C 38% 4.0 mph WNW6.4 kmh WNW 7.0 mph11.3 kmh 29.37 in994.6 mb 0.00 in0.0 mm 0.00 in0.0 mm 0.00 in0.0 mm
07:49 AM 67.2°F19.6°C 40.7°F4.8°C 38% 1.0 mph NW1.6 kmh NW 7.0 mph11.3 kmh 29.37 in994.6 mb 0.00 in0.0 mm 0.00 in0.0 mm 0.00 in0.0 mm
07:50 AM 67.4°F19.7°C 40.9°F4.9°C 38% 2.0 mph NW3.2 kmh NW 6.0 mph9.7 kmh 29.37 in994.6 mb 0.00 in0.0 mm 0.00 in0.0 mm 0.00 in0.0 mm
07:51 AM 67.6°F19.8°C 41.1°F5.1°C 38% 3.0 mph NW4.8 kmh NW 6.0 mph9.7 kmh 29.37 in994.6 mb 0.00 in0.0 mm 0.00 in0.0 mm 0.00 in0.0 mm
07:52 AM 67.7°F19.8°C 41.2°F5.1°C 38% 3.0 mph NW4.8 kmh NW 6.0 mph9.7 kmh 29.37 in994.6 mb 0.00 in0.0 mm 0.00 in0.0 mm 0.00 in0.0 mm
07:53 AM 67.9°F19.9°C 41.4°F5.2°C 38% 1.0 mph NW1.6 kmh NW 6.0 mph9.7 kmh 29.37 in994.6 mb 0.00 in0.0 mm 0.00 in0.0 mm 0.00 in0.0 mm
07:54 AM 68.1°F20.1°C 40.8°F4.9°C 37% 1.0 mph NW1.6 kmh NW 6.0 mph9.7 kmh 29.37 in994.6 mb 0.00 in0.0 mm 0.00 in0.0 mm 0.00 in0.0 mm
07:55 AM 68.3°F20.2°C 41.0°F5.0°C 37% 3.0 mph WNW4.8 kmh WNW 6.0 mph9.7 kmh 29.37 in994.6 mb 0.00 in0.0 mm 0.00 in0.0 mm 0.00 in0.0 mm
07:56 AM 68.5°F20.3°C 41.2°F5.1°C 37% 2.0 mph NW3.2 kmh NW 6.0 mph9.7 kmh 29.37 in994.6 mb 0.00 in0.0 mm 0.00 in0.0 mm 0.00 in0.0 mm
07:57 AM 68.7°F20.4°C 41.4°F5.2°C 37% 4.0 mph WNW6.4 kmh WNW 6.0 mph9.7 kmh 29.37 in994.6 mb 0.00 in0.0 mm 0.00 in0.0 mm 0.00 in0.0 mm
07:58 AM 68.9°F20.5°C 41.5°F5.3°C 37% 2.0 mph W3.2 kmh W 6.0 mph9.7 kmh 29.37 in994.6 mb 0.00 in0.0 mm 0.00 in0.0 mm 0.00 in0.0 mm
07:59 AM 69.1°F20.6°C 41.7°F5.4°C 37% 3.0 mph WNW4.8 kmh WNW 6.0 mph9.7 kmh 29.37 in994.6 mb 0.00 in0.0 mm 0.00 in0.0 mm 0.00 in0.0 mm
08:00 AM 69.4°F20.8°C 42.0°F5.6°C 37% 3.0 mph W4.8 kmh W 6.0 mph9.7 kmh 29.37 in994.6 mb 0.00 in0.0 mm 0.00 in0.0 mm 0.00 in0.0 mm
08:01 AM 69.6°F20.9°C 42.2°F5.7°C 37% Calm Calm 5.0 mph8.0 kmh 29.37 in994.6 mb 0.00 in0.0 mm 0.00 in0.0 mm 0.00 in0.0 mm
08:02 AM 69.8°F21.0°C 41.6°F5.3°C 36% Calm Calm 5.0 mph8.0 kmh 29.37 in994.6 mb 0.00 in0.0 mm 0.00 in0.0 mm 0.00 in0.0 mm
08:03 AM 70.1°F21.2°C 41.9°F5.5°C 36% Calm Calm 5.0 mph8.0 kmh 29.37 in994.6 mb 0.00 in0.0 mm 0.00 in0.0 mm 0.00 in0.0 mm
08:04 AM 70.3°F21.3°C 42.1°F5.6°C 36% Calm Calm 5.0 mph8.0 kmh 29.37 in994.6 mb 0.00 in0.0 mm 0.00 in0.0 mm 0.00 in0.0 mm
08:05 AM 70.6°F21.4°C 42.3°F5.7°C 36% 1.0 mph NW1.6 kmh NW 5.0 mph8.0 kmh 29.37 in994.6 mb 0.00 in0.0 mm 0.00 in0.0 mm 0.00 in0.0 mm
08:06 AM 70.8°F21.6°C 41.8°F5.4°C 35% 3.0 mph NW4.8 kmh NW 5.0 mph8.0 kmh 29.37 in994.6 mb 0.00 in0.0 mm 0.00 in0.0 mm 0.00 in0.0 mm
08:07 AM 71.0°F21.7°C 42.7°F5.9°C 36% Calm Calm 5.0 mph8.0 kmh 29.37 in994.6 mb 0.00 in0.0 mm 0.00 in0.0 mm 0.00 in0.0 mm
08:08 AM 71.2°F21.8°C 42.9°F6.1°C 36% Calm Calm 4.0 mph6.4 kmh 29.37 in994.6 mb 0.00 in0.0 mm 0.00 in0.0 mm 0.00 in0.0 mm
08:09 AM 71.6°F22.0°C 42.5°F5.8°C 35% Calm Calm 4.0 mph6.4 kmh 29.37 in994.6 mb 0.00 in0.0 mm 0.00 in0.0 mm 0.00 in0.0 mm
08:10 AM 71.9°F22.2°C 42.8°F6.0°C 35% Calm Calm 4.0 mph6.4 kmh 29.37 in994.6 mb 0.00 in0.0 mm 0.00 in0.0 mm 0.00 in0.0 mm
08:11 AM 72.3°F22.4°C 43.1°F6.2°C 35% 5.0 mph NE8.0 kmh NE 5.0 mph8.0 kmh 29.37 in994.6 mb 0.00 in0.0 mm 0.00 in0.0 mm 0.00 in0.0 mm
08:12 AM 72.9°F22.7°C 42.9°F6.1°C 34% Calm Calm 5.0 mph8.0 kmh 29.37 in994.6 mb 0.00 in0.0 mm 0.00 in0.0 mm 0.00 in0.0 mm
08:13 AM 73.5°F23.1°C 42.6°F5.9°C 33% 3.0 mph E4.8 kmh E 5.0 mph8.0 kmh 29.37 in994.6 mb 0.00 in0.0 mm 0.00 in0.0 mm 0.00 in0.0 mm
08:14 AM 74.2°F23.4°C 42.4°F5.8°C 32% 2.0 mph NE3.2 kmh NE 5.0 mph8.0 kmh 29.37 in994.6 mb 0.00 in0.0 mm 0.00 in0.0 mm 0.00 in0.0 mm
08:15 AM 74.7°F23.7°C 42.9°F6.1°C 32% 1.0 mph NE1.6 kmh NE 5.0 mph8.0 kmh 29.37 in994.6 mb 0.00 in0.0 mm 0.00 in0.0 mm 0.00 in0.0 mm
08:16 AM 75.2°F24.0°C 42.5°F5.8°C 31% 2.0 mph E3.2 kmh E 8.0 mph12.9 kmh 29.37 in994.6 mb 0.00 in0.0 mm 0.00 in0.0 mm 0.00 in0.0 mm
08:17 AM 75.6°F24.2°C 42.8°F6.0°C 31% Calm Calm 8.0 mph12.9 kmh 29.37 in994.6 mb 0.00 in0.0 mm 0.00 in0.0 mm 0.00 in0.0 mm
08:18 AM 76.0°F24.4°C 42.3°F5.7°C 30% Calm Calm 8.0 mph12.9 kmh 29.37 in994.6 mb 0.00 in0.0 mm 0.00 in0.0 mm 0.00 in0.0 mm
08:19 AM 76.3°F24.6°C 41.7°F5.4°C 29% Calm Calm 8.0 mph12.9 kmh 29.37 in994.6 mb 0.00 in0.0 mm 0.00 in0.0 mm 0.00 in0.0 mm
08:20 AM 76.6°F24.8°C 41.9°F5.5°C 29% 2.0 mph NNE3.2 kmh NNE 8.0 mph12.9 kmh 29.37 in994.6 mb 0.00 in0.0 mm 0.00 in0.0 mm 0.00 in0.0 mm
08:21 AM 76.8°F24.9°C 42.1°F5.6°C 29% 1.0 mph NE1.6 kmh NE 8.0 mph12.9 kmh 29.37 in994.6 mb 0.00 in0.0 mm 0.00 in0.0 mm 0.00 in0.0 mm
08:22 AM 77.1°F25.1°C 42.4°F5.8°C 29% 4.0 mph NE6.4 kmh NE 8.0 mph12.9 kmh 29.37 in994.6 mb 0.00 in0.0 mm 0.00 in0.0 mm 0.00 in0.0 mm
08:23 AM 77.3°F25.2°C 43.4°F6.3°C 30% 6.0 mph NE9.7 kmh NE 8.0 mph12.9 kmh 29.37 in994.6 mb 0.00 in0.0 mm 0.00 in0.0 mm 0.00 in0.0 mm
08:24 AM 77.5°F25.3°C 41.8°F5.4°C 28% 6.0 mph E9.7 kmh E 8.0 mph12.9 kmh 29.37 in994.6 mb 0.00 in0.0 mm 0.00 in0.0 mm 0.00 in0.0 mm
08:25 AM 77.7°F25.4°C 42.0°F5.6°C 28% 4.0 mph E6.4 kmh E 9.0 mph14.5 kmh 29.37 in994.6 mb 0.00 in0.0 mm 0.00 in0.0 mm 0.00 in0.0 mm
08:26 AM 77.8°F25.4°C 42.1°F5.6°C 28% 4.0 mph ENE6.4 kmh ENE 9.0 mph14.5 kmh 29.37 in994.6 mb 0.00 in0.0 mm 0.00 in0.0 mm 0.00 in0.0 mm
08:27 AM 78.0°F25.6°C 42.2°F5.7°C 28% 3.0 mph ENE4.8 kmh ENE 9.0 mph14.5 kmh 29.37 in994.6 mb 0.00 in0.0 mm 0.00 in0.0 mm 0.00 in0.0 mm
08:28 AM 78.1°F25.6°C 43.2°F6.2°C 29% 3.0 mph NE4.8 kmh NE 9.0 mph14.5 kmh 29.37 in994.6 mb 0.00 in0.0 mm 0.00 in0.0 mm 0.00 in0.0 mm
08:29 AM 78.3°F25.7°C 43.4°F6.3°C 29% Calm Calm 9.0 mph14.5 kmh 29.37 in994.6 mb 0.00 in0.0 mm 0.00 in0.0 mm 0.00 in0.0 mm
08:30 AM 78.4°F25.8°C 43.5°F6.4°C 29% 1.0 mph NE1.6 kmh NE 9.0 mph14.5 kmh 29.37 in994.6 mb 0.00 in0.0 mm 0.00 in0.0 mm 0.00 in0.0 mm
08:31 AM 78.6°F25.9°C 42.8°F6.0°C 28% 3.0 mph ENE4.8 kmh ENE 9.0 mph14.5 kmh 29.37 in994.6 mb 0.00 in0.0 mm 0.00 in0.0 mm 0.00 in0.0 mm
08:32 AM 78.8°F26.0°C 43.8°F6.6°C 29% 5.0 mph E8.0 kmh E 9.0 mph14.5 kmh 29.37 in994.6 mb 0.00 in0.0 mm 0.00 in0.0 mm 0.00 in0.0 mm
08:33 AM 78.9°F26.1°C 43.0°F6.1°C 28% 6.0 mph ENE9.7 kmh ENE 9.0 mph14.5 kmh 29.37 in994.6 mb 0.00 in0.0 mm 0.00 in0.0 mm 0.00 in0.0 mm
08:34 AM 79.0°F26.1°C 42.1°F5.6°C 27% 9.0 mph E14.5 kmh E 9.0 mph14.5 kmh 29.37 in994.6 mb 0.00 in0.0 mm 0.00 in0.0 mm 0.00 in0.0 mm
08:35 AM 79.1°F26.2°C 43.2°F6.2°C 28% 3.0 mph NE4.8 kmh NE 9.0 mph14.5 kmh 29.37 in994.6 mb 0.00 in0.0 mm 0.00 in0.0 mm 0.00 in0.0 mm
08:36 AM 79.1°F26.2°C 43.2°F6.2°C 28% 3.0 mph NNE4.8 kmh NNE 9.0 mph14.5 kmh 29.37 in994.6 mb 0.00 in0.0 mm 0.00 in0.0 mm 0.00 in0.0 mm
08:37 AM 79.2°F26.2°C 43.3°F6.3°C 28% 2.0 mph ENE3.2 kmh ENE 9.0 mph14.5 kmh 29.37 in994.6 mb 0.00 in0.0 mm 0.00 in0.0 mm 0.00 in0.0 mm
08:38 AM 79.3°F26.3°C 42.4°F5.8°C 27% 4.0 mph E6.4 kmh E 9.0 mph14.5 kmh 29.37 in994.6 mb 0.00 in0.0 mm 0.00 in0.0 mm 0.00 in0.0 mm
08:39 AM 79.4°F26.3°C 42.5°F5.8°C 27% 4.0 mph E6.4 kmh E 9.0 mph14.5 kmh 29.37 in994.6 mb 0.00 in0.0 mm 0.00 in0.0 mm 0.00 in0.0 mm
08:40 AM 79.4°F26.3°C 42.5°F5.8°C 27% 3.0 mph NW4.8 kmh NW 9.0 mph14.5 kmh 29.37 in994.6 mb 0.00 in0.0 mm 0.00 in0.0 mm 0.00 in0.0 mm
08:41 AM 79.5°F26.4°C 43.5°F6.4°C 28% 4.0 mph NE6.4 kmh NE 11.0 mph17.7 kmh 29.36 in994.2 mb 0.00 in0.0 mm 0.00 in0.0 mm 0.00 in0.0 mm
08:42 AM 79.6°F26.4°C 42.7°F5.9°C 27% 1.0 mph ENE1.6 kmh ENE 11.0 mph17.7 kmh 29.37 in994.6 mb 0.00 in0.0 mm 0.00 in0.0 mm 0.00 in0.0 mm
08:43 AM 79.7°F26.5°C 42.7°F5.9°C 27% 4.0 mph ESE6.4 kmh ESE 11.0 mph17.7 kmh 29.37 in994.6 mb 0.00 in0.0 mm 0.00 in0.0 mm 0.00 in0.0 mm
08:44 AM 79.8°F26.6°C 42.8°F6.0°C 27% 5.0 mph E8.0 kmh E 11.0 mph17.7 kmh 29.37 in994.6 mb 0.00 in0.0 mm 0.00 in0.0 mm 0.00 in0.0 mm
08:45 AM 79.9°F26.6°C 42.9°F6.1°C 27% Calm Calm 11.0 mph17.7 kmh 29.37 in994.6 mb 0.00 in0.0 mm 0.00 in0.0 mm 0.00 in0.0 mm
08:46 AM 80.1°F26.7°C 43.1°F6.2°C 27% Calm Calm 11.0 mph17.7 kmh 29.36 in994.2 mb 0.00 in0.0 mm 0.00 in0.0 mm 0.00 in0.0 mm
08:47 AM 80.2°F26.8°C 43.2°F6.2°C 27% 4.0 mph ENE6.4 kmh ENE 11.0 mph17.7 kmh 29.37 in994.6 mb 0.00 in0.0 mm 0.00 in0.0 mm 0.00 in0.0 mm
08:48 AM 80.3°F26.8°C 43.3°F6.3°C 27% 4.0 mph E6.4 kmh E 11.0 mph17.7 kmh 29.37 in994.6 mb 0.00 in0.0 mm 0.00 in0.0 mm 0.00 in0.0 mm
08:49 AM 80.4°F26.9°C 43.3°F6.3°C 27% 9.0 mph ENE14.5 kmh ENE 11.0 mph17.7 kmh 29.36 in994.2 mb 0.00 in0.0 mm 0.00 in0.0 mm 0.00 in0.0 mm
08:50 AM 80.5°F26.9°C 43.4°F6.3°C 27% 7.0 mph ENE11.3 kmh ENE 10.0 mph16.1 kmh 29.36 in994.2 mb 0.00 in0.0 mm 0.00 in0.0 mm 0.00 in0.0 mm
08:51 AM 80.4°F26.9°C 43.3°F6.3°C 27% 9.0 mph E14.5 kmh E 14.0 mph22.5 kmh 29.37 in994.6 mb 0.00 in0.0 mm 0.00 in0.0 mm 0.00 in0.0 mm
08:52 AM 80.4°F26.9°C 43.3°F6.3°C 27% 6.0 mph ENE9.7 kmh ENE 14.0 mph22.5 kmh 29.37 in994.6 mb 0.00 in0.0 mm 0.00 in0.0 mm 0.00 in0.0 mm
08:53 AM 80.5°F26.9°C 43.4°F6.3°C 27% 3.0 mph E4.8 kmh E 14.0 mph22.5 kmh 29.37 in994.6 mb 0.00 in0.0 mm 0.00 in0.0 mm 0.00 in0.0 mm
08:54 AM 80.6°F27.0°C 43.5°F6.4°C 27% 4.0 mph E6.4 kmh E 14.0 mph22.5 kmh 29.37 in994.6 mb 0.00 in0.0 mm 0.00 in0.0 mm 0.00 in0.0 mm
08:55 AM 80.6°F27.0°C 42.5°F5.8°C 26% 10.0 mph ENE16.1 kmh ENE 14.0 mph22.5 kmh 29.37 in994.6 mb 0.00 in0.0 mm 0.00 in0.0 mm 0.00 in0.0 mm
08:56 AM 80.5°F26.9°C 42.4°F5.8°C 26% 2.0 mph E3.2 kmh E 14.0 mph22.5 kmh 29.37 in994.6 mb 0.00 in0.0 mm 0.00 in0.0 mm 0.00 in0.0 mm
08:57 AM 80.5°F26.9°C 43.4°F6.3°C 27% 5.0 mph E8.0 kmh E 14.0 mph22.5 kmh 29.36 in994.2 mb 0.00 in0.0 mm 0.00 in0.0 mm 0.00 in0.0 mm
08:58 AM 80.6°F27.0°C 43.5°F6.4°C 27% 2.0 mph E3.2 kmh E 14.0 mph22.5 kmh 29.37 in994.6 mb 0.00 in0.0 mm 0.00 in0.0 mm 0.00 in0.0 mm
08:59 AM 80.7°F27.1°C 43.6°F6.4°C 27% 1.0 mph NW1.6 kmh NW 14.0 mph22.5 kmh 29.36 in994.2 mb 0.00 in0.0 mm 0.00 in0.0 mm 0.00 in0.0 mm
09:00 AM 80.8°F27.1°C 43.7°F6.5°C 27% 7.0 mph E11.3 kmh E 12.0 mph19.3 kmh 29.36 in994.2 mb 0.00 in0.0 mm 0.00 in0.0 mm 0.00 in0.0 mm
09:01 AM 80.8°F27.1°C 43.7°F6.5°C 27% 3.0 mph E4.8 kmh E 12.0 mph19.3 kmh 29.36 in994.2 mb 0.00 in0.0 mm 0.00 in0.0 mm 0.00 in0.0 mm
09:02 AM 80.8°F27.1°C 43.7°F6.5°C 27% 3.0 mph E4.8 kmh E 12.0 mph19.3 kmh 29.37 in994.6 mb 0.00 in0.0 mm 0.00 in0.0 mm 0.00 in0.0 mm
09:03 AM 80.8°F27.1°C 43.7°F6.5°C 27% 4.0 mph ENE6.4 kmh ENE 12.0 mph19.3 kmh 29.36 in994.2 mb 0.00 in0.0 mm 0.00 in0.0 mm 0.00 in0.0 mm
09:04 AM 80.8°F27.1°C 43.7°F6.5°C 27% 11.0 mph E17.7 kmh E 12.0 mph19.3 kmh 29.36 in994.2 mb 0.00 in0.0 mm 0.00 in0.0 mm 0.00 in0.0 mm
09:05 AM 80.8°F27.1°C 42.7°F5.9°C 26% 8.0 mph E12.9 kmh E 12.0 mph19.3 kmh 29.36 in994.2 mb 0.00 in0.0 mm 0.00 in0.0 mm 0.00 in0.0 mm
09:06 AM 80.9°F27.2°C 43.8°F6.6°C 27% 6.0 mph E9.7 kmh E 12.0 mph19.3 kmh 29.36 in994.2 mb 0.00 in0.0 mm 0.00 in0.0 mm 0.00 in0.0 mm
09:07 AM 80.9°F27.2°C 42.8°F6.0°C 26% Calm Calm 12.0 mph19.3 kmh 29.36 in994.2 mb 0.00 in0.0 mm 0.00 in0.0 mm 0.00 in0.0 mm
09:08 AM 81.0°F27.2°C 43.8°F6.6°C 27% 5.0 mph NE8.0 kmh NE 12.0 mph19.3 kmh 29.36 in994.2 mb 0.00 in0.0 mm 0.00 in0.0 mm 0.00 in0.0 mm
09:09 AM 81.0°F27.2°C 43.8°F6.6°C 27% 3.0 mph SE4.8 kmh SE 12.0 mph19.3 kmh 29.36 in994.2 mb 0.00 in0.0 mm 0.00 in0.0 mm 0.00 in0.0 mm
09:10 AM 81.0°F27.2°C 43.8°F6.6°C 27% 11.0 mph NE17.7 kmh NE 14.0 mph22.5 kmh 29.36 in994.2 mb 0.00 in0.0 mm 0.00 in0.0 mm 0.00 in0.0 mm
09:11 AM 81.0°F27.2°C 42.9°F6.1°C 26% 6.0 mph ENE9.7 kmh ENE 14.0 mph22.5 kmh 29.36 in994.2 mb 0.00 in0.0 mm 0.00 in0.0 mm 0.00 in0.0 mm
09:12 AM 81.0°F27.2°C 42.9°F6.1°C 26% Calm Calm 14.0 mph22.5 kmh 29.36 in994.2 mb 0.00 in0.0 mm 0.00 in0.0 mm 0.00 in0.0 mm
09:13 AM 81.0°F27.2°C 43.8°F6.6°C 27% 7.0 mph E11.3 kmh E 14.0 mph22.5 kmh 29.36 in994.2 mb 0.00 in0.0 mm 0.00 in0.0 mm 0.00 in0.0 mm
09:14 AM 81.1°F27.3°C 42.9°F6.1°C 26% 8.0 mph ENE12.9 kmh ENE 14.0 mph22.5 kmh 29.36 in994.2 mb 0.00 in0.0 mm 0.00 in0.0 mm 0.00 in0.0 mm
09:15 AM 81.1°F27.3°C 42.9°F6.1°C 26% 9.0 mph ENE14.5 kmh ENE 14.0 mph22.5 kmh 29.36 in994.2 mb 0.00 in0.0 mm 0.00 in0.0 mm 0.00 in0.0 mm
09:16 AM 81.2°F27.3°C 43.0°F6.1°C 26% 5.0 mph E8.0 kmh E 14.0 mph22.5 kmh 29.36 in994.2 mb 0.00 in0.0 mm 0.00 in0.0 mm 0.00 in0.0 mm
09:17 AM 81.2°F27.3°C 43.0°F6.1°C 26% 8.0 mph NE12.9 kmh NE 14.0 mph22.5 kmh 29.36 in994.2 mb 0.00 in0.0 mm 0.00 in0.0 mm 0.00 in0.0 mm
09:18 AM 81.3°F27.4°C 43.1°F6.2°C 26% 6.0 mph E9.7 kmh E 14.0 mph22.5 kmh 29.36 in994.2 mb 0.00 in0.0 mm 0.00 in0.0 mm 0.00 in0.0 mm
09:19 AM 81.3°F27.4°C 43.1°F6.2°C 26% 3.0 mph E4.8 kmh E 11.0 mph17.7 kmh 29.36 in994.2 mb 0.00 in0.0 mm 0.00 in0.0 mm 0.00 in0.0 mm
09:20 AM 81.4°F27.4°C 43.2°F6.2°C 26% 6.0 mph SE9.7 kmh SE 11.0 mph17.7 kmh 29.36 in994.2 mb 0.00 in0.0 mm 0.00 in0.0 mm 0.00 in0.0 mm
09:21 AM 81.5°F27.5°C 43.3°F6.3°C 26% 10.0 mph E16.1 kmh E 11.0 mph17.7 kmh 29.36 in994.2 mb 0.00 in0.0 mm 0.00 in0.0 mm 0.00 in0.0 mm
09:22 AM 81.5°F27.5°C 43.3°F6.3°C 26% 7.0 mph ENE11.3 kmh ENE 12.0 mph19.3 kmh 29.36 in994.2 mb 0.00 in0.0 mm 0.00 in0.0 mm 0.00 in0.0 mm
09:23 AM 81.6°F27.6°C 43.4°F6.3°C 26% 6.0 mph ENE9.7 kmh ENE 12.0 mph19.3 kmh 29.36 in994.2 mb 0.00 in0.0 mm 0.00 in0.0 mm 0.00 in0.0 mm
09:24 AM 81.6°F27.6°C 43.4°F6.3°C 26% 3.0 mph E4.8 kmh E 12.0 mph19.3 kmh 29.36 in994.2 mb 0.00 in0.0 mm 0.00 in0.0 mm 0.00 in0.0 mm
09:25 AM 81.7°F27.6°C 43.5°F6.4°C 26% 1.0 mph ENE1.6 kmh ENE 12.0 mph19.3 kmh 29.36 in994.2 mb 0.00 in0.0 mm 0.00 in0.0 mm 0.00 in0.0 mm
09:26 AM 81.7°F27.6°C 43.5°F6.4°C 26% 1.0 mph ENE1.6 kmh ENE 12.0 mph19.3 kmh 29.36 in994.2 mb 0.00 in0.0 mm 0.00 in0.0 mm 0.00 in0.0 mm
09:27 AM 81.8°F27.7°C 43.5°F6.4°C 26% 8.0 mph E12.9 kmh E 14.0 mph22.5 kmh 29.36 in994.2 mb 0.00 in0.0 mm 0.00 in0.0 mm 0.00 in0.0 mm
09:28 AM 81.9°F27.7°C 43.6°F6.4°C 26% 5.0 mph E8.0 kmh E 14.0 mph22.5 kmh 29.36 in994.2 mb 0.00 in0.0 mm 0.00 in0.0 mm 0.00 in0.0 mm
09:29 AM 82.0°F27.8°C 43.7°F6.5°C 26% 8.0 mph ESE12.9 kmh ESE 15.0 mph24.1 kmh 29.36 in994.2 mb 0.00 in0.0 mm 0.00 in0.0 mm 0.00 in0.0 mm
09:30 AM 82.0°F27.8°C 43.7°F6.5°C 26% 3.0 mph E4.8 kmh E 15.0 mph24.1 kmh 29.36 in994.2 mb 0.00 in0.0 mm 0.00 in0.0 mm 0.00 in0.0 mm
09:31 AM 82.1°F27.8°C 43.8°F6.6°C 26% 12.0 mph E19.3 kmh E 15.0 mph24.1 kmh 29.36 in994.2 mb 0.00 in0.0 mm 0.00 in0.0 mm 0.00 in0.0 mm
09:32 AM 82.1°F27.8°C 43.8°F6.6°C 26% 4.0 mph E6.4 kmh E 15.0 mph24.1 kmh 29.36 in994.2 mb 0.00 in0.0 mm 0.00 in0.0 mm 0.00 in0.0 mm
09:33 AM 82.2°F27.9°C 44.9°F7.2°C 27% 8.0 mph E12.9 kmh E 15.0 mph24.1 kmh 29.36 in994.2 mb 0.00 in0.0 mm 0.00 in0.0 mm 0.00 in0.0 mm
09:34 AM 82.3°F27.9°C 44.0°F6.7°C 26% 6.0 mph E9.7 kmh E 15.0 mph24.1 kmh 29.36 in994.2 mb 0.00 in0.0 mm 0.00 in0.0 mm 0.00 in0.0 mm
09:35 AM 82.4°F28.0°C 44.0°F6.7°C 26% 7.0 mph E11.3 kmh E 15.0 mph24.1 kmh 29.36 in994.2 mb 0.00 in0.0 mm 0.00 in0.0 mm 0.00 in0.0 mm
09:36 AM 82.4°F28.0°C 44.0°F6.7°C 26% 9.0 mph E14.5 kmh E 15.0 mph24.1 kmh 29.36 in994.2 mb 0.00 in0.0 mm 0.00 in0.0 mm 0.00 in0.0 mm
09:37 AM 82.5°F28.1°C 44.1°F6.7°C 26% 6.0 mph ENE9.7 kmh ENE 15.0 mph24.1 kmh 29.36 in994.2 mb 0.00 in0.0 mm 0.00 in0.0 mm 0.00 in0.0 mm
09:38 AM 82.3°F27.9°C 44.0°F6.7°C 26% 3.0 mph E4.8 kmh E 14.0 mph22.5 kmh 29.36 in994.2 mb 0.00 in0.0 mm 0.00 in0.0 mm 0.00 in0.0 mm
09:39 AM 82.3°F27.9°C 44.0°F6.7°C 26% 5.0 mph E8.0 kmh E 12.0 mph19.3 kmh 29.36 in994.2 mb 0.00 in0.0 mm 0.00 in0.0 mm 0.00 in0.0 mm
09:40 AM 82.2°F27.9°C 43.9°F6.6°C 26% 6.0 mph ENE9.7 kmh ENE 12.0 mph19.3 kmh 29.36 in994.2 mb 0.00 in0.0 mm 0.00 in0.0 mm 0.00 in0.0 mm
09:41 AM 82.3°F27.9°C 45.0°F7.2°C 27% 4.0 mph NE6.4 kmh NE 12.0 mph19.3 kmh 29.36 in994.2 mb 0.00 in0.0 mm 0.00 in0.0 mm 0.00 in0.0 mm
09:42 AM 82.4°F28.0°C 45.0°F7.2°C 27% 6.0 mph NE9.7 kmh NE 12.0 mph19.3 kmh 29.36 in994.2 mb 0.00 in0.0 mm 0.00 in0.0 mm 0.00 in0.0 mm
09:43 AM 82.5°F28.1°C 45.1°F7.3°C 27% 4.0 mph SE6.4 kmh SE 12.0 mph19.3 kmh 29.36 in994.2 mb 0.00 in0.0 mm 0.00 in0.0 mm 0.00 in0.0 mm
09:44 AM 82.7°F28.2°C 45.3°F7.4°C 27% 11.0 mph E17.7 kmh E 12.0 mph19.3 kmh 29.36 in994.2 mb 0.00 in0.0 mm 0.00 in0.0 mm 0.00 in0.0 mm
09:45 AM 82.8°F28.2°C 44.4°F6.9°C 26% 10.0 mph E16.1 kmh E 14.0 mph22.5 kmh 29.36 in994.2 mb 0.00 in0.0 mm 0.00 in0.0 mm 0.00 in0.0 mm
09:46 AM 82.7°F28.2°C 44.3°F6.8°C 26% 4.0 mph ENE6.4 kmh ENE 14.0 mph22.5 kmh 29.36 in994.2 mb 0.00 in0.0 mm 0.00 in0.0 mm 0.00 in0.0 mm
09:47 AM 82.7°F28.2°C 44.3°F6.8°C 26% 4.0 mph SE6.4 kmh SE 14.0 mph22.5 kmh 29.36 in994.2 mb 0.00 in0.0 mm 0.00 in0.0 mm 0.00 in0.0 mm
09:48 AM 82.8°F28.2°C 44.4°F6.9°C 26% 13.0 mph E20.9 kmh E 14.0 mph22.5 kmh 29.36 in994.2 mb 0.00 in0.0 mm 0.00 in0.0 mm 0.00 in0.0 mm
09:49 AM 82.8°F28.2°C 44.4°F6.9°C 26% 7.0 mph ESE11.3 kmh ESE 14.0 mph22.5 kmh 29.36 in994.2 mb 0.00 in0.0 mm 0.00 in0.0 mm 0.00 in0.0 mm
09:50 AM 82.8°F28.2°C 44.4°F6.9°C 26% 6.0 mph E9.7 kmh E 14.0 mph22.5 kmh 29.36 in994.2 mb 0.00 in0.0 mm 0.00 in0.0 mm 0.00 in0.0 mm
09:51 AM 82.8°F28.2°C 44.4°F6.9°C 26% 11.0 mph E17.7 kmh E 14.0 mph22.5 kmh 29.36 in994.2 mb 0.00 in0.0 mm 0.00 in0.0 mm 0.00 in0.0 mm
09:52 AM 82.7°F28.2°C 44.3°F6.8°C 26% 3.0 mph S4.8 kmh S 14.0 mph22.5 kmh 29.36 in994.2 mb 0.00 in0.0 mm 0.00 in0.0 mm 0.00 in0.0 mm
09:53 AM 82.7°F28.2°C 44.3°F6.8°C 26% 4.0 mph E6.4 kmh E 14.0 mph22.5 kmh 29.36 in994.2 mb 0.00 in0.0 mm 0.00 in0.0 mm 0.00 in0.0 mm
09:54 AM 82.7°F28.2°C 45.3°F7.4°C 27% 7.0 mph NE11.3 kmh NE 14.0 mph22.5 kmh 29.36 in994.2 mb 0.00 in0.0 mm 0.00 in0.0 mm 0.00 in0.0 mm
09:55 AM 82.8°F28.2°C 44.4°F6.9°C 26% 5.0 mph E8.0 kmh E 14.0 mph22.5 kmh 29.36 in994.2 mb 0.00 in0.0 mm 0.00 in0.0 mm 0.00 in0.0 mm
09:56 AM 82.9°F28.3°C 45.5°F7.5°C 27% 6.0 mph ENE9.7 kmh ENE 14.0 mph22.5 kmh 29.36 in994.2 mb 0.00 in0.0 mm 0.00 in0.0 mm 0.00 in0.0 mm
09:57 AM 83.1°F28.4°C 44.6°F7.0°C 26% Calm Calm 14.0 mph22.5 kmh 29.36 in994.2 mb 0.00 in0.0 mm 0.00 in0.0 mm 0.00 in0.0 mm
09:58 AM 83.3°F28.5°C 44.8°F7.1°C 26% 7.0 mph ENE11.3 kmh ENE 12.0 mph19.3 kmh 29.35 in993.9 mb 0.00 in0.0 mm 0.00 in0.0 mm 0.00 in0.0 mm
09:59 AM 83.4°F28.6°C 44.9°F7.2°C 26% 6.0 mph E9.7 kmh E 12.0 mph19.3 kmh 29.35 in993.9 mb 0.00 in0.0 mm 0.00 in0.0 mm 0.00 in0.0 mm
10:00 AM 83.4°F28.6°C 44.9°F7.2°C 26% 5.0 mph NE8.0 kmh NE 12.0 mph19.3 kmh 29.35 in993.9 mb 0.00 in0.0 mm 0.00 in0.0 mm 0.00 in0.0 mm
10:01 AM 83.4°F28.6°C 44.9°F7.2°C 26% 9.0 mph ENE14.5 kmh ENE 12.0 mph19.3 kmh 29.35 in993.9 mb 0.00 in0.0 mm 0.00 in0.0 mm 0.00 in0.0 mm
10:02 AM 83.4°F28.6°C 43.9°F6.6°C 25% 7.0 mph ENE11.3 kmh ENE 12.0 mph19.3 kmh 29.35 in993.9 mb 0.00 in0.0 mm 0.00 in0.0 mm 0.00 in0.0 mm
10:03 AM 83.5°F28.6°C 45.0°F7.2°C 26% 2.0 mph ENE3.2 kmh ENE 12.0 mph19.3 kmh 29.35 in993.9 mb 0.00 in0.0 mm 0.00 in0.0 mm 0.00 in0.0 mm
10:04 AM 83.6°F28.7°C 45.1°F7.3°C 26% 5.0 mph E8.0 kmh E 12.0 mph19.3 kmh 29.35 in993.9 mb 0.00 in0.0 mm 0.00 in0.0 mm 0.00 in0.0 mm
10:05 AM 83.9°F28.8°C 45.3°F7.4°C 26% 5.0 mph ESE8.0 kmh ESE 12.0 mph19.3 kmh 29.35 in993.9 mb 0.00 in0.0 mm 0.00 in0.0 mm 0.00 in0.0 mm
10:06 AM 84.1°F28.9°C 45.5°F7.5°C 26% 6.0 mph E9.7 kmh E 12.0 mph19.3 kmh 29.35 in993.9 mb 0.00 in0.0 mm 0.00 in0.0 mm 0.00 in0.0 mm
10:07 AM 84.3°F29.1°C 45.7°F7.6°C 26% 4.0 mph ESE6.4 kmh ESE 12.0 mph19.3 kmh 29.35 in993.9 mb 0.00 in0.0 mm 0.00 in0.0 mm 0.00 in0.0 mm
10:08 AM 84.3°F29.1°C 44.6°F7.0°C 25% 3.0 mph E4.8 kmh E 11.0 mph17.7 kmh 29.35 in993.9 mb 0.00 in0.0 mm 0.00 in0.0 mm 0.00 in0.0 mm
10:09 AM 84.2°F29.0°C 44.5°F6.9°C 25% 2.0 mph ENE3.2 kmh ENE 11.0 mph17.7 kmh 29.35 in993.9 mb 0.00 in0.0 mm 0.00 in0.0 mm 0.00 in0.0 mm
10:10 AM 84.1°F28.9°C 45.5°F7.5°C 26% 7.0 mph ESE11.3 kmh ESE 11.0 mph17.7 kmh 29.35 in993.9 mb 0.00 in0.0 mm 0.00 in0.0 mm 0.00 in0.0 mm
10:11 AM 84.1°F28.9°C 44.5°F6.9°C 25% 8.0 mph ESE12.9 kmh ESE 11.0 mph17.7 kmh 29.35 in993.9 mb 0.00 in0.0 mm 0.00 in0.0 mm 0.00 in0.0 mm
10:12 AM 84.1°F28.9°C 44.5°F6.9°C 25% 11.0 mph SE17.7 kmh SE 14.0 mph22.5 kmh 29.35 in993.9 mb 0.00 in0.0 mm 0.00 in0.0 mm 0.00 in0.0 mm
10:13 AM 83.9°F28.8°C 44.3°F6.8°C 25% 6.0 mph ESE9.7 kmh ESE 14.0 mph22.5 kmh 29.35 in993.9 mb 0.00 in0.0 mm 0.00 in0.0 mm 0.00 in0.0 mm
10:14 AM 84.0°F28.9°C 45.4°F7.4°C 26% 7.0 mph E11.3 kmh E 14.0 mph22.5 kmh 29.35 in993.9 mb 0.00 in0.0 mm 0.00 in0.0 mm 0.00 in0.0 mm
10:15 AM 83.9°F28.8°C 44.3°F6.8°C 25% 7.0 mph ENE11.3 kmh ENE 14.0 mph22.5 kmh 29.35 in993.9 mb 0.00 in0.0 mm 0.00 in0.0 mm 0.00 in0.0 mm
10:16 AM 83.9°F28.8°C 44.3°F6.8°C 25% 6.0 mph ENE9.7 kmh ENE 14.0 mph22.5 kmh 29.35 in993.9 mb 0.00 in0.0 mm 0.00 in0.0 mm 0.00 in0.0 mm
10:17 AM 83.8°F28.8°C 44.2°F6.8°C 25% 4.0 mph E6.4 kmh E 14.0 mph22.5 kmh 29.35 in993.9 mb 0.00 in0.0 mm 0.00 in0.0 mm 0.00 in0.0 mm
10:18 AM 83.8°F28.8°C 45.2°F7.3°C 26% 5.0 mph E8.0 kmh E 14.0 mph22.5 kmh 29.35 in993.9 mb 0.00 in0.0 mm 0.00 in0.0 mm 0.00 in0.0 mm
10:19 AM 83.8°F28.8°C 44.2°F6.8°C 25% 5.0 mph E8.0 kmh E 14.0 mph22.5 kmh 29.35 in993.9 mb 0.00 in0.0 mm 0.00 in0.0 mm 0.00 in0.0 mm
10:20 AM 83.9°F28.8°C 44.3°F6.8°C 25% 2.0 mph SE3.2 kmh SE 14.0 mph22.5 kmh 29.35 in993.9 mb 0.00 in0.0 mm 0.00 in0.0 mm 0.00 in0.0 mm
10:21 AM 84.1°F28.9°C 45.5°F7.5°C 26% 4.0 mph E6.4 kmh E 14.0 mph22.5 kmh 29.35 in993.9 mb 0.00 in0.0 mm 0.00 in0.0 mm 0.00 in0.0 mm
10:22 AM 84.3°F29.1°C 45.7°F7.6°C 26% 4.0 mph SE6.4 kmh SE 14.0 mph22.5 kmh 29.35 in993.9 mb 0.00 in0.0 mm 0.00 in0.0 mm 0.00 in0.0 mm
10:23 AM 84.5°F29.2°C 44.8°F7.1°C 25% 5.0 mph SE8.0 kmh SE 14.0 mph22.5 kmh 29.35 in993.9 mb 0.00 in0.0 mm 0.00 in0.0 mm 0.00 in0.0 mm
10:24 AM 84.6°F29.2°C 44.9°F7.2°C 25% 6.0 mph ESE9.7 kmh ESE 11.0 mph17.7 kmh 29.35 in993.9 mb 0.00 in0.0 mm 0.00 in0.0 mm 0.00 in0.0 mm
10:25 AM 84.6°F29.2°C 44.9°F7.2°C 25% 5.0 mph ESE8.0 kmh ESE 11.0 mph17.7 kmh 29.35 in993.9 mb 0.00 in0.0 mm 0.00 in0.0 mm 0.00 in0.0 mm
10:26 AM 84.6°F29.2°C 44.9°F7.2°C 25% 5.0 mph SE8.0 kmh SE 11.0 mph17.7 kmh 29.35 in993.9 mb 0.00 in0.0 mm 0.00 in0.0 mm 0.00 in0.0 mm
10:27 AM 84.6°F29.2°C 44.9°F7.2°C 25% 4.0 mph SE6.4 kmh SE 11.0 mph17.7 kmh 29.35 in993.9 mb 0.00 in0.0 mm 0.00 in0.0 mm 0.00 in0.0 mm
10:28 AM 84.7°F29.3°C 45.0°F7.2°C 25% 8.0 mph E12.9 kmh E 11.0 mph17.7 kmh 29.35 in993.9 mb 0.00 in0.0 mm 0.00 in0.0 mm 0.00 in0.0 mm
10:29 AM 84.6°F29.2°C 44.9°F7.2°C 25% 6.0 mph SE9.7 kmh SE 11.0 mph17.7 kmh 29.35 in993.9 mb 0.00 in0.0 mm 0.00 in0.0 mm 0.00 in0.0 mm
10:30 AM 84.6°F29.2°C 44.9°F7.2°C 25% 4.0 mph ESE6.4 kmh ESE 11.0 mph17.7 kmh 29.35 in993.9 mb 0.00 in0.0 mm 0.00 in0.0 mm 0.00 in0.0 mm
10:31 AM 84.6°F29.2°C 44.9°F7.2°C 25% 4.0 mph ESE6.4 kmh ESE 11.0 mph17.7 kmh 29.35 in993.9 mb 0.00 in0.0 mm 0.00 in0.0 mm 0.00 in0.0 mm
10:32 AM 84.7°F29.3°C 45.0°F7.2°C 25% 7.0 mph SE11.3 kmh SE 8.0 mph12.9 kmh 29.35 in993.9 mb 0.00 in0.0 mm 0.00 in0.0 mm 0.00 in0.0 mm
10:33 AM 84.8°F29.3°C 45.0°F7.2°C 25% 11.0 mph E17.7 kmh E 13.0 mph20.9 kmh 29.35 in993.9 mb 0.00 in0.0 mm 0.00 in0.0 mm 0.00 in0.0 mm
10:34 AM 84.8°F29.3°C 44.0°F6.7°C 24% 8.0 mph ESE12.9 kmh ESE 13.0 mph20.9 kmh 29.35 in993.9 mb 0.00 in0.0 mm 0.00 in0.0 mm 0.00 in0.0 mm
10:35 AM 84.8°F29.3°C 45.0°F7.2°C 25% 3.0 mph E4.8 kmh E 13.0 mph20.9 kmh 29.35 in993.9 mb 0.00 in0.0 mm 0.00 in0.0 mm 0.00 in0.0 mm
10:36 AM 84.9°F29.4°C 45.1°F7.3°C 25% 4.0 mph E6.4 kmh E 13.0 mph20.9 kmh 29.35 in993.9 mb 0.00 in0.0 mm 0.00 in0.0 mm 0.00 in0.0 mm
10:37 AM 85.0°F29.4°C 45.2°F7.3°C 25% 5.0 mph ENE8.0 kmh ENE 13.0 mph20.9 kmh 29.35 in993.9 mb 0.00 in0.0 mm 0.00 in0.0 mm 0.00 in0.0 mm
10:38 AM 85.0°F29.4°C 45.2°F7.3°C 25% 7.0 mph E11.3 kmh E 13.0 mph20.9 kmh 29.35 in993.9 mb 0.00 in0.0 mm 0.00 in0.0 mm 0.00 in0.0 mm
10:39 AM 85.1°F29.5°C 44.2°F6.8°C 24% 3.0 mph E4.8 kmh E 13.0 mph20.9 kmh 29.35 in993.9 mb 0.00 in0.0 mm 0.00 in0.0 mm 0.00 in0.0 mm
10:40 AM 85.1°F29.5°C 45.3°F7.4°C 25% Calm Calm 13.0 mph20.9 kmh 29.35 in993.9 mb 0.00 in0.0 mm 0.00 in0.0 mm 0.00 in0.0 mm
10:41 AM 85.1°F29.5°C 45.3°F7.4°C 25% 5.0 mph ESE8.0 kmh ESE 13.0 mph20.9 kmh 29.35 in993.9 mb 0.00 in0.0 mm 0.00 in0.0 mm 0.00 in0.0 mm
10:42 AM 85.2°F29.6°C 45.4°F7.4°C 25% 4.0 mph E6.4 kmh E 13.0 mph20.9 kmh 29.35 in993.9 mb 0.00 in0.0 mm 0.00 in0.0 mm 0.00 in0.0 mm
10:43 AM 85.4°F29.7°C 44.5°F6.9°C 24% 2.0 mph SE3.2 kmh SE 9.0 mph14.5 kmh 29.35 in993.9 mb 0.00 in0.0 mm 0.00 in0.0 mm 0.00 in0.0 mm
10:44 AM 85.5°F29.7°C 44.6°F7.0°C 24% 4.0 mph E6.4 kmh E 9.0 mph14.5 kmh 29.35 in993.9 mb 0.00 in0.0 mm 0.00 in0.0 mm 0.00 in0.0 mm
10:45 AM 85.6°F29.8°C 44.6°F7.0°C 24% 2.0 mph E3.2 kmh E 9.0 mph14.5 kmh 29.35 in993.9 mb 0.00 in0.0 mm 0.00 in0.0 mm 0.00 in0.0 mm
10:46 AM 85.7°F29.8°C 44.7°F7.1°C 24% 4.0 mph E6.4 kmh E 9.0 mph14.5 kmh 29.35 in993.9 mb 0.00 in0.0 mm 0.00 in0.0 mm 0.00 in0.0 mm
10:47 AM 85.6°F29.8°C 44.6°F7.0°C 24% 4.0 mph ESE6.4 kmh ESE 9.0 mph14.5 kmh 29.34 in993.6 mb 0.00 in0.0 mm 0.00 in0.0 mm 0.00 in0.0 mm
10:48 AM 85.6°F29.8°C 44.6°F7.0°C 24% 5.0 mph SE8.0 kmh SE 7.0 mph11.3 kmh 29.34 in993.6 mb 0.00 in0.0 mm 0.00 in0.0 mm 0.00 in0.0 mm
10:49 AM 85.6°F29.8°C 44.6°F7.0°C 24% 5.0 mph SSE8.0 kmh SSE 8.0 mph12.9 kmh 29.34 in993.6 mb 0.00 in0.0 mm 0.00 in0.0 mm 0.00 in0.0 mm
10:50 AM 85.7°F29.8°C 44.7°F7.1°C 24% 3.0 mph S4.8 kmh S 8.0 mph12.9 kmh 29.34 in993.6 mb 0.00 in0.0 mm 0.00 in0.0 mm 0.00 in0.0 mm
10:51 AM 85.8°F29.9°C 44.8°F7.1°C 24% 5.0 mph SSE8.0 kmh SSE 8.0 mph12.9 kmh 29.34 in993.6 mb 0.00 in0.0 mm 0.00 in0.0 mm 0.00 in0.0 mm
10:52 AM 85.9°F29.9°C 44.9°F7.2°C 24% 7.0 mph SE11.3 kmh SE 8.0 mph12.9 kmh 29.34 in993.6 mb 0.00 in0.0 mm 0.00 in0.0 mm 0.00 in0.0 mm
10:53 AM 86.0°F30.0°C 45.0°F7.2°C 24% 4.0 mph SSE6.4 kmh SSE 8.0 mph12.9 kmh 29.34 in993.6 mb 0.00 in0.0 mm 0.00 in0.0 mm 0.00 in0.0 mm
10:54 AM 86.1°F30.1°C 45.1°F7.3°C 24% 7.0 mph E11.3 kmh E 8.0 mph12.9 kmh 29.34 in993.6 mb 0.00 in0.0 mm 0.00 in0.0 mm 0.00 in0.0 mm
10:55 AM 86.3°F30.2°C 45.2°F7.3°C 24% 10.0 mph SE16.1 kmh SE 13.0 mph20.9 kmh 29.34 in993.6 mb 0.00 in0.0 mm 0.00 in0.0 mm 0.00 in0.0 mm
10:56 AM 86.3°F30.2°C 45.2°F7.3°C 24% 9.0 mph ESE14.5 kmh ESE 13.0 mph20.9 kmh 29.34 in993.6 mb 0.00 in0.0 mm 0.00 in0.0 mm 0.00 in0.0 mm
10:57 AM 86.1°F30.1°C 43.9°F6.6°C 23% 5.0 mph ESE8.0 kmh ESE 13.0 mph20.9 kmh 29.34 in993.6 mb 0.00 in0.0 mm 0.00 in0.0 mm 0.00 in0.0 mm
10:58 AM 86.0°F30.0°C 43.9°F6.6°C 23% 6.0 mph SE9.7 kmh SE 13.0 mph20.9 kmh 29.34 in993.6 mb 0.00 in0.0 mm 0.00 in0.0 mm 0.00 in0.0 mm
10:59 AM 86.1°F30.1°C 43.9°F6.6°C 23% 4.0 mph SE6.4 kmh SE 13.0 mph20.9 kmh 29.34 in993.6 mb 0.00 in0.0 mm 0.00 in0.0 mm 0.00 in0.0 mm
11:00 AM 86.2°F30.1°C 45.1°F7.3°C 24% 5.0 mph ESE8.0 kmh ESE 13.0 mph20.9 kmh 29.34 in993.6 mb 0.00 in0.0 mm 0.00 in0.0 mm 0.00 in0.0 mm
11:01 AM 86.3°F30.2°C 45.2°F7.3°C 24% 4.0 mph SSE6.4 kmh SSE 13.0 mph20.9 kmh 29.34 in993.6 mb 0.00 in0.0 mm 0.00 in0.0 mm 0.00 in0.0 mm
11:02 AM 86.4°F30.2°C 44.2°F6.8°C 23% 11.0 mph E17.7 kmh E 13.0 mph20.9 kmh 29.34 in993.6 mb 0.00 in0.0 mm 0.00 in0.0 mm 0.00 in0.0 mm
11:03 AM 86.4°F30.2°C 44.2°F6.8°C 23% 5.0 mph ESE8.0 kmh ESE 13.0 mph20.9 kmh 29.34 in993.6 mb 0.00 in0.0 mm 0.00 in0.0 mm 0.00 in0.0 mm
11:04 AM 86.3°F30.2°C 45.2°F7.3°C 24% 6.0 mph ESE9.7 kmh ESE 13.0 mph20.9 kmh 29.34 in993.6 mb 0.00 in0.0 mm 0.00 in0.0 mm 0.00 in0.0 mm
11:05 AM 86.1°F30.1°C 43.9°F6.6°C 23% Calm Calm 13.0 mph20.9 kmh 29.34 in993.6 mb 0.00 in0.0 mm 0.00 in0.0 mm 0.00 in0.0 mm
11:06 AM 86.1°F30.1°C 45.1°F7.3°C 24% 9.0 mph ESE14.5 kmh ESE 13.0 mph20.9 kmh 29.34 in993.6 mb 0.00 in0.0 mm 0.00 in0.0 mm 0.00 in0.0 mm
11:07 AM 86.3°F30.2°C 45.2°F7.3°C 24% 9.0 mph SE14.5 kmh SE 13.0 mph20.9 kmh 29.34 in993.6 mb 0.00 in0.0 mm 0.00 in0.0 mm 0.00 in0.0 mm
11:08 AM 86.3°F30.2°C 44.1°F6.7°C 23% 7.0 mph E11.3 kmh E 13.0 mph20.9 kmh 29.34 in993.6 mb 0.00 in0.0 mm 0.00 in0.0 mm 0.00 in0.0 mm
11:09 AM 86.3°F30.2°C 44.1°F6.7°C 23% 4.0 mph E6.4 kmh E 13.0 mph20.9 kmh 29.34 in993.6 mb 0.00 in0.0 mm 0.00 in0.0 mm 0.00 in0.0 mm
11:10 AM 86.2°F30.1°C 45.1°F7.3°C 24% 5.0 mph E8.0 kmh E 13.0 mph20.9 kmh 29.34 in993.6 mb 0.00 in0.0 mm 0.00 in0.0 mm 0.00 in0.0 mm
11:11 AM 86.3°F30.2°C 44.1°F6.7°C 23% 4.0 mph E6.4 kmh E 12.0 mph19.3 kmh 29.34 in993.6 mb 0.00 in0.0 mm 0.00 in0.0 mm 0.00 in0.0 mm
11:12 AM 86.2°F30.1°C 44.0°F6.7°C 23% 1.0 mph E1.6 kmh E 12.0 mph19.3 kmh 29.34 in993.6 mb 0.00 in0.0 mm 0.00 in0.0 mm 0.00 in0.0 mm
11:13 AM 86.3°F30.2°C 45.2°F7.3°C 24% 1.0 mph E1.6 kmh E 12.0 mph19.3 kmh 29.34 in993.6 mb 0.00 in0.0 mm 0.00 in0.0 mm 0.00 in0.0 mm
11:14 AM 86.5°F30.3°C 44.3°F6.8°C 23% 5.0 mph ENE8.0 kmh ENE 12.0 mph19.3 kmh 29.34 in993.6 mb 0.00 in0.0 mm 0.00 in0.0 mm 0.00 in0.0 mm
11:15 AM 86.7°F30.4°C 44.4°F6.9°C 23% 6.0 mph NE9.7 kmh NE 12.0 mph19.3 kmh 29.34 in993.6 mb 0.00 in0.0 mm 0.00 in0.0 mm 0.00 in0.0 mm
11:16 AM 86.9°F30.5°C 44.6°F7.0°C 23% 6.0 mph E9.7 kmh E 13.0 mph20.9 kmh 29.34 in993.6 mb 0.00 in0.0 mm 0.00 in0.0 mm 0.00 in0.0 mm
11:17 AM 87.0°F30.6°C 44.7°F7.1°C 23% 5.0 mph ESE8.0 kmh ESE 13.0 mph20.9 kmh 29.34 in993.6 mb 0.00 in0.0 mm 0.00 in0.0 mm 0.00 in0.0 mm
11:18 AM 87.0°F30.6°C 44.7°F7.1°C 23% 5.0 mph E8.0 kmh E 13.0 mph20.9 kmh 29.34 in993.6 mb 0.00 in0.0 mm 0.00 in0.0 mm 0.00 in0.0 mm
11:19 AM 86.9°F30.5°C 44.6°F7.0°C 23% 2.0 mph ESE3.2 kmh ESE 13.0 mph20.9 kmh 29.34 in993.6 mb 0.00 in0.0 mm 0.00 in0.0 mm 0.00 in0.0 mm
11:20 AM 86.9°F30.5°C 44.6°F7.0°C 23% 2.0 mph E3.2 kmh E 13.0 mph20.9 kmh 29.34 in993.6 mb 0.00 in0.0 mm 0.00 in0.0 mm 0.00 in0.0 mm
11:21 AM 86.9°F30.5°C 44.6°F7.0°C 23% 10.0 mph ESE16.1 kmh ESE 14.0 mph22.5 kmh 29.34 in993.6 mb 0.00 in0.0 mm 0.00 in0.0 mm 0.00 in0.0 mm
11:22 AM 87.0°F30.6°C 44.7°F7.1°C 23% 8.0 mph SE12.9 kmh SE 14.0 mph22.5 kmh 29.33 in993.2 mb 0.00 in0.0 mm 0.00 in0.0 mm 0.00 in0.0 mm
11:23 AM 87.1°F30.6°C 43.6°F6.4°C 22% 6.0 mph SSE9.7 kmh SSE 14.0 mph22.5 kmh 29.33 in993.2 mb 0.00 in0.0 mm 0.00 in0.0 mm 0.00 in0.0 mm
11:24 AM 87.2°F30.7°C 43.7°F6.5°C 22% 1.0 mph S1.6 kmh S 14.0 mph22.5 kmh 29.33 in993.2 mb 0.00 in0.0 mm 0.00 in0.0 mm 0.00 in0.0 mm
11:25 AM 87.3°F30.7°C 43.8°F6.6°C 22% 3.0 mph SE4.8 kmh SE 14.0 mph22.5 kmh 29.33 in993.2 mb 0.00 in0.0 mm 0.00 in0.0 mm 0.00 in0.0 mm
11:26 AM 87.2°F30.7°C 43.7°F6.5°C 22% 3.0 mph E4.8 kmh E 14.0 mph22.5 kmh 29.33 in993.2 mb 0.00 in0.0 mm 0.00 in0.0 mm 0.00 in0.0 mm
11:27 AM 87.3°F30.7°C 44.9°F7.2°C 23% 4.0 mph E6.4 kmh E 14.0 mph22.5 kmh 29.33 in993.2 mb 0.00 in0.0 mm 0.00 in0.0 mm 0.00 in0.0 mm
11:28 AM 87.4°F30.8°C 43.9°F6.6°C 22% 3.0 mph NE4.8 kmh NE 14.0 mph22.5 kmh 29.33 in993.2 mb 0.00 in0.0 mm 0.00 in0.0 mm 0.00 in0.0 mm
11:29 AM 87.4°F30.8°C 43.9°F6.6°C 22% 4.0 mph E6.4 kmh E 14.0 mph22.5 kmh 29.33 in993.2 mb 0.00 in0.0 mm 0.00 in0.0 mm 0.00 in0.0 mm
11:30 AM 87.4°F30.8°C 43.9°F6.6°C 22% 4.0 mph E6.4 kmh E 11.0 mph17.7 kmh 29.33 in993.2 mb 0.00 in0.0 mm 0.00 in0.0 mm 0.00 in0.0 mm
11:31 AM 87.4°F30.8°C 43.9°F6.6°C 22% 3.0 mph ENE4.8 kmh ENE 10.0 mph16.1 kmh 29.33 in993.2 mb 0.00 in0.0 mm 0.00 in0.0 mm 0.00 in0.0 mm
11:32 AM 87.4°F30.8°C 45.0°F7.2°C 23% 2.0 mph ENE3.2 kmh ENE 10.0 mph16.1 kmh 29.33 in993.2 mb 0.00 in0.0 mm 0.00 in0.0 mm 0.00 in0.0 mm
11:33 AM 87.4°F30.8°C 45.0°F7.2°C 23% 2.0 mph SE3.2 kmh SE 10.0 mph16.1 kmh 29.33 in993.2 mb 0.00 in0.0 mm 0.00 in0.0 mm 0.00 in0.0 mm
11:34 AM 87.7°F30.9°C 46.4°F8.0°C 24% 2.0 mph SE3.2 kmh SE 10.0 mph16.1 kmh 29.33 in993.2 mb 0.00 in0.0 mm 0.00 in0.0 mm 0.00 in0.0 mm
11:35 AM 88.1°F31.2°C 45.6°F7.6°C 23% 7.0 mph ESE11.3 kmh ESE 10.0 mph16.1 kmh 29.33 in993.2 mb 0.00 in0.0 mm 0.00 in0.0 mm 0.00 in0.0 mm
11:36 AM 88.3°F31.3°C 44.6°F7.0°C 22% 11.0 mph SE17.7 kmh SE 12.0 mph19.3 kmh 29.33 in993.2 mb 0.00 in0.0 mm 0.00 in0.0 mm 0.00 in0.0 mm
11:37 AM 88.3°F31.3°C 44.6°F7.0°C 22% 8.0 mph SE12.9 kmh SE 13.0 mph20.9 kmh 29.33 in993.2 mb 0.00 in0.0 mm 0.00 in0.0 mm 0.00 in0.0 mm
11:38 AM 88.2°F31.2°C 44.5°F6.9°C 22% 10.0 mph E16.1 kmh E 13.0 mph20.9 kmh 29.33 in993.2 mb 0.00 in0.0 mm 0.00 in0.0 mm 0.00 in0.0 mm
11:39 AM 88.0°F31.1°C 44.4°F6.9°C 22% 7.0 mph ESE11.3 kmh ESE 13.0 mph20.9 kmh 29.33 in993.2 mb 0.00 in0.0 mm 0.00 in0.0 mm 0.00 in0.0 mm
11:40 AM 87.7°F30.9°C 44.1°F6.7°C 22% 3.0 mph NE4.8 kmh NE 13.0 mph20.9 kmh 29.33 in993.2 mb 0.00 in0.0 mm 0.00 in0.0 mm 0.00 in0.0 mm
11:41 AM 87.6°F30.9°C 44.0°F6.7°C 22% 4.0 mph ESE6.4 kmh ESE 13.0 mph20.9 kmh 29.33 in993.2 mb 0.00 in0.0 mm 0.00 in0.0 mm 0.00 in0.0 mm
11:42 AM 87.7°F30.9°C 44.1°F6.7°C 22% 7.0 mph SE11.3 kmh SE 13.0 mph20.9 kmh 29.33 in993.2 mb 0.00 in0.0 mm 0.00 in0.0 mm 0.00 in0.0 mm
11:43 AM 87.7°F30.9°C 44.1°F6.7°C 22% 4.0 mph S6.4 kmh S 13.0 mph20.9 kmh 29.33 in993.2 mb 0.00 in0.0 mm 0.00 in0.0 mm 0.00 in0.0 mm
11:44 AM 87.7°F30.9°C 44.1°F6.7°C 22% 4.0 mph SE6.4 kmh SE 13.0 mph20.9 kmh 29.33 in993.2 mb 0.00 in0.0 mm 0.00 in0.0 mm 0.00 in0.0 mm
11:45 AM 87.7°F30.9°C 44.1°F6.7°C 22% 3.0 mph SSE4.8 kmh SSE 13.0 mph20.9 kmh 29.33 in993.2 mb 0.00 in0.0 mm 0.00 in0.0 mm 0.00 in0.0 mm
11:46 AM 87.8°F31.0°C 44.2°F6.8°C 22% 6.0 mph SE9.7 kmh SE 11.0 mph17.7 kmh 29.33 in993.2 mb 0.00 in0.0 mm 0.00 in0.0 mm 0.00 in0.0 mm
11:47 AM 87.8°F31.0°C 44.2°F6.8°C 22% 3.0 mph E4.8 kmh E 11.0 mph17.7 kmh 29.33 in993.2 mb 0.00 in0.0 mm 0.00 in0.0 mm 0.00 in0.0 mm
11:48 AM 87.9°F31.1°C 44.3°F6.8°C 22% 1.0 mph E1.6 kmh E 11.0 mph17.7 kmh 29.33 in993.2 mb 0.00 in0.0 mm 0.00 in0.0 mm 0.00 in0.0 mm
11:49 AM 88.0°F31.1°C 43.1°F6.2°C 21% 1.0 mph E1.6 kmh E 11.0 mph17.7 kmh 29.32 in992.9 mb 0.00 in0.0 mm 0.00 in0.0 mm 0.00 in0.0 mm
11:50 AM 88.1°F31.2°C 44.4°F6.9°C 22% 4.0 mph ESE6.4 kmh ESE 11.0 mph17.7 kmh 29.33 in993.2 mb 0.00 in0.0 mm 0.00 in0.0 mm 0.00 in0.0 mm
11:51 AM 88.3°F31.3°C 44.6°F7.0°C 22% Calm Calm 11.0 mph17.7 kmh 29.32 in992.9 mb 0.00 in0.0 mm 0.00 in0.0 mm 0.00 in0.0 mm
11:52 AM 88.6°F31.4°C 44.9°F7.2°C 22% 7.0 mph ENE11.3 kmh ENE 11.0 mph17.7 kmh 29.32 in992.9 mb 0.00 in0.0 mm 0.00 in0.0 mm 0.00 in0.0 mm
11:53 AM 88.7°F31.5°C 43.7°F6.5°C 21% 4.0 mph SE6.4 kmh SE 11.0 mph17.7 kmh 29.33 in993.2 mb 0.00 in0.0 mm 0.00 in0.0 mm 0.00 in0.0 mm
11:54 AM 88.8°F31.6°C 45.0°F7.2°C 22% 8.0 mph E12.9 kmh E 10.0 mph16.1 kmh 29.32 in992.9 mb 0.00 in0.0 mm 0.00 in0.0 mm 0.00 in0.0 mm
11:55 AM 88.8°F31.6°C 43.8°F6.6°C 21% 5.0 mph SE8.0 kmh SE 10.0 mph16.1 kmh 29.32 in992.9 mb 0.00 in0.0 mm 0.00 in0.0 mm 0.00 in0.0 mm
11:56 AM 88.8°F31.6°C 43.8°F6.6°C 21% 7.0 mph ESE11.3 kmh ESE 10.0 mph16.1 kmh 29.32 in992.9 mb 0.00 in0.0 mm 0.00 in0.0 mm 0.00 in0.0 mm
11:57 AM 88.8°F31.6°C 43.8°F6.6°C 21% 3.0 mph SE4.8 kmh SE 10.0 mph16.1 kmh 29.32 in992.9 mb 0.00 in0.0 mm 0.00 in0.0 mm 0.00 in0.0 mm
11:58 AM 88.7°F31.5°C 43.7°F6.5°C 21% 5.0 mph S8.0 kmh S 10.0 mph16.1 kmh 29.32 in992.9 mb 0.00 in0.0 mm 0.00 in0.0 mm 0.00 in0.0 mm
11:59 AM 88.7°F31.5°C 43.7°F6.5°C 21% 3.0 mph S4.8 kmh S 10.0 mph16.1 kmh 29.32 in992.9 mb 0.00 in0.0 mm 0.00 in0.0 mm 0.00 in0.0 mm
12:00 PM 88.9°F31.6°C 43.9°F6.6°C 21% 2.0 mph S3.2 kmh S 10.0 mph16.1 kmh 29.32 in992.9 mb 0.00 in0.0 mm 0.00 in0.0 mm 0.00 in0.0 mm
12:01 PM 89.0°F31.7°C 44.0°F6.7°C 21% 3.0 mph SW4.8 kmh SW 10.0 mph16.1 kmh 29.32 in992.9 mb 0.00 in0.0 mm 0.00 in0.0 mm 0.00 in0.0 mm
12:02 PM 89.1°F31.7°C 44.0°F6.7°C 21% 3.0 mph SSW4.8 kmh SSW 10.0 mph16.1 kmh 29.32 in992.9 mb 0.00 in0.0 mm 0.00 in0.0 mm 0.00 in0.0 mm
12:03 PM 89.1°F31.7°C 44.0°F6.7°C 21% 2.0 mph W3.2 kmh W 10.0 mph16.1 kmh 29.32 in992.9 mb 0.00 in0.0 mm 0.00 in0.0 mm 0.00 in0.0 mm
12:04 PM 89.1°F31.7°C 44.0°F6.7°C 21% 3.0 mph N4.8 kmh N 8.0 mph12.9 kmh 29.32 in992.9 mb 0.00 in0.0 mm 0.00 in0.0 mm 0.00 in0.0 mm
12:05 PM 89.1°F31.7°C 45.3°F7.4°C 22% 4.0 mph ESE6.4 kmh ESE 7.0 mph11.3 kmh 29.32 in992.9 mb 0.00 in0.0 mm 0.00 in0.0 mm 0.00 in0.0 mm
12:06 PM 89.3°F31.8°C 45.4°F7.4°C 22% Calm Calm 6.0 mph9.7 kmh 29.32 in992.9 mb 0.00 in0.0 mm 0.00 in0.0 mm 0.00 in0.0 mm
12:07 PM 89.6°F32.0°C 44.5°F6.9°C 21% 2.0 mph E3.2 kmh E 6.0 mph9.7 kmh 29.32 in992.9 mb 0.00 in0.0 mm 0.00 in0.0 mm 0.00 in0.0 mm
12:08 PM 89.9°F32.2°C 44.7°F7.1°C 21% 1.0 mph ESE1.6 kmh ESE 6.0 mph9.7 kmh 29.32 in992.9 mb 0.00 in0.0 mm 0.00 in0.0 mm 0.00 in0.0 mm
12:09 PM 90.1°F32.3°C 44.9°F7.2°C 21% Calm Calm 5.0 mph8.0 kmh 29.32 in992.9 mb 0.00 in0.0 mm 0.00 in0.0 mm 0.00 in0.0 mm
12:10 PM 90.2°F32.3°C 44.9°F7.2°C 21% 2.0 mph N3.2 kmh N 5.0 mph8.0 kmh 29.32 in992.9 mb 0.00 in0.0 mm 0.00 in0.0 mm 0.00 in0.0 mm
12:11 PM 90.4°F32.4°C 43.8°F6.6°C 20% Calm Calm 5.0 mph8.0 kmh 29.32 in992.9 mb 0.00 in0.0 mm 0.00 in0.0 mm 0.00 in0.0 mm
12:12 PM 90.5°F32.5°C 43.9°F6.6°C 20% Calm Calm 5.0 mph8.0 kmh 29.32 in992.9 mb 0.00 in0.0 mm 0.00 in0.0 mm 0.00 in0.0 mm
12:13 PM 90.6°F32.6°C 44.0°F6.7°C 20% 4.0 mph SE6.4 kmh SE 5.0 mph8.0 kmh 29.32 in992.9 mb 0.00 in0.0 mm 0.00 in0.0 mm 0.00 in0.0 mm
12:14 PM 90.8°F32.7°C 44.2°F6.8°C 20% 1.0 mph E1.6 kmh E 5.0 mph8.0 kmh 29.32 in992.9 mb 0.00 in0.0 mm 0.00 in0.0 mm 0.00 in0.0 mm
12:15 PM 90.9°F32.7°C 44.2°F6.8°C 20% 3.0 mph ENE4.8 kmh ENE 6.0 mph9.7 kmh 29.32 in992.9 mb 0.00 in0.0 mm 0.00 in0.0 mm 0.00 in0.0 mm
12:16 PM 91.0°F32.8°C 44.3°F6.8°C 20% Calm Calm 6.0 mph9.7 kmh 29.32 in992.9 mb 0.00 in0.0 mm 0.00 in0.0 mm 0.00 in0.0 mm
12:17 PM 91.1°F32.8°C 44.4°F6.9°C 20% Calm Calm 6.0 mph9.7 kmh 29.32 in992.9 mb 0.00 in0.0 mm 0.00 in0.0 mm 0.00 in0.0 mm
12:18 PM 91.1°F32.8°C 44.4°F6.9°C 20% Calm Calm 6.0 mph9.7 kmh 29.32 in992.9 mb 0.00 in0.0 mm 0.00 in0.0 mm 0.00 in0.0 mm
12:19 PM 91.2°F32.9°C 44.5°F6.9°C 20% 7.0 mph SE11.3 kmh SE 8.0 mph12.9 kmh 29.32 in992.9 mb 0.00 in0.0 mm 0.00 in0.0 mm 0.00 in0.0 mm
12:20 PM 91.1°F32.8°C 44.4°F6.9°C 20% 4.0 mph ENE6.4 kmh ENE 8.0 mph12.9 kmh 29.32 in992.9 mb 0.00 in0.0 mm 0.00 in0.0 mm 0.00 in0.0 mm
12:21 PM 91.1°F32.8°C 44.4°F6.9°C 20% 12.0 mph ESE19.3 kmh ESE 13.0 mph20.9 kmh 29.31 in992.6 mb 0.00 in0.0 mm 0.00 in0.0 mm 0.00 in0.0 mm
12:22 PM 90.9°F32.7°C 44.2°F6.8°C 20% 3.0 mph SE4.8 kmh SE 13.0 mph20.9 kmh 29.31 in992.6 mb 0.00 in0.0 mm 0.00 in0.0 mm 0.00 in0.0 mm
12:23 PM 90.8°F32.7°C 44.2°F6.8°C 20% 6.0 mph E9.7 kmh E 13.0 mph20.9 kmh 29.32 in992.9 mb 0.00 in0.0 mm 0.00 in0.0 mm 0.00 in0.0 mm
12:24 PM 90.8°F32.7°C 44.2°F6.8°C 20% 6.0 mph ESE9.7 kmh ESE 13.0 mph20.9 kmh 29.32 in992.9 mb 0.00 in0.0 mm 0.00 in0.0 mm 0.00 in0.0 mm
12:25 PM 90.5°F32.5°C 43.9°F6.6°C 20% 1.0 mph SSE1.6 kmh SSE 13.0 mph20.9 kmh 29.32 in992.9 mb 0.00 in0.0 mm 0.00 in0.0 mm 0.00 in0.0 mm
12:26 PM 90.4°F32.4°C 43.8°F6.6°C 20% 1.0 mph ESE1.6 kmh ESE 13.0 mph20.9 kmh 29.31 in992.6 mb 0.00 in0.0 mm 0.00 in0.0 mm 0.00 in0.0 mm
12:27 PM 90.4°F32.4°C 43.8°F6.6°C 20% 1.0 mph WSW1.6 kmh WSW 13.0 mph20.9 kmh 29.31 in992.6 mb 0.00 in0.0 mm 0.00 in0.0 mm 0.00 in0.0 mm
12:28 PM 90.3°F32.4°C 43.8°F6.6°C 20% 1.0 mph SW1.6 kmh SW 13.0 mph20.9 kmh 29.31 in992.6 mb 0.00 in0.0 mm 0.00 in0.0 mm 0.00 in0.0 mm
12:29 PM 90.3°F32.4°C 43.8°F6.6°C 20% 2.0 mph SW3.2 kmh SW 13.0 mph20.9 kmh 29.31 in992.6 mb 0.00 in0.0 mm 0.00 in0.0 mm 0.00 in0.0 mm
12:30 PM 90.4°F32.4°C 42.5°F5.8°C 19% Calm Calm 8.0 mph12.9 kmh 29.31 in992.6 mb 0.00 in0.0 mm 0.00 in0.0 mm 0.00 in0.0 mm
12:31 PM 90.6°F32.6°C 44.0°F6.7°C 20% 3.0 mph E4.8 kmh E 8.0 mph12.9 kmh 29.31 in992.6 mb 0.00 in0.0 mm 0.00 in0.0 mm 0.00 in0.0 mm
12:32 PM 90.8°F32.7°C 44.2°F6.8°C 20% 3.0 mph ESE4.8 kmh ESE 8.0 mph12.9 kmh 29.31 in992.6 mb 0.00 in0.0 mm 0.00 in0.0 mm 0.00 in0.0 mm
12:33 PM 91.1°F32.8°C 44.4°F6.9°C 20% 3.0 mph SE4.8 kmh SE 9.0 mph14.5 kmh 29.31 in992.6 mb 0.00 in0.0 mm 0.00 in0.0 mm 0.00 in0.0 mm
12:34 PM 91.2°F32.9°C 43.1°F6.2°C 19% 2.0 mph SE3.2 kmh SE 9.0 mph14.5 kmh 29.31 in992.6 mb 0.00 in0.0 mm 0.00 in0.0 mm 0.00 in0.0 mm
12:35 PM 91.2°F32.9°C 44.5°F6.9°C 20% 3.0 mph SE4.8 kmh SE 9.0 mph14.5 kmh 29.31 in992.6 mb 0.00 in0.0 mm 0.00 in0.0 mm 0.00 in0.0 mm
12:36 PM 91.3°F32.9°C 44.6°F7.0°C 20% 3.0 mph SE4.8 kmh SE 9.0 mph14.5 kmh 29.31 in992.6 mb 0.00 in0.0 mm 0.00 in0.0 mm 0.00 in0.0 mm
12:37 PM 91.3°F32.9°C 44.6°F7.0°C 20% 6.0 mph ESE9.7 kmh ESE 9.0 mph14.5 kmh 29.31 in992.6 mb 0.00 in0.0 mm 0.00 in0.0 mm 0.00 in0.0 mm
12:38 PM 91.2°F32.9°C 43.1°F6.2°C 19% 2.0 mph SE3.2 kmh SE 9.0 mph14.5 kmh 29.31 in992.6 mb 0.00 in0.0 mm 0.00 in0.0 mm 0.00 in0.0 mm
12:39 PM 91.2°F32.9°C 43.1°F6.2°C 19% Calm Calm 9.0 mph14.5 kmh 29.31 in992.6 mb 0.00 in0.0 mm 0.00 in0.0 mm 0.00 in0.0 mm
12:40 PM 91.1°F32.8°C 43.1°F6.2°C 19% 1.0 mph SE1.6 kmh SE 9.0 mph14.5 kmh 29.31 in992.6 mb 0.00 in0.0 mm 0.00 in0.0 mm 0.00 in0.0 mm
12:41 PM 91.3°F32.9°C 43.2°F6.2°C 19% Calm Calm 9.0 mph14.5 kmh 29.30 in992.2 mb 0.00 in0.0 mm 0.00 in0.0 mm 0.00 in0.0 mm
12:42 PM 91.5°F33.1°C 43.4°F6.3°C 19% Calm Calm 6.0 mph9.7 kmh 29.30 in992.2 mb 0.00 in0.0 mm 0.00 in0.0 mm 0.00 in0.0 mm
12:43 PM 91.8°F33.2°C 43.6°F6.4°C 19% 5.0 mph SE8.0 kmh SE 12.0 mph19.3 kmh 29.30 in992.2 mb 0.00 in0.0 mm 0.00 in0.0 mm 0.00 in0.0 mm
12:44 PM 92.2°F33.4°C 44.0°F6.7°C 19% 4.0 mph SE6.4 kmh SE 12.0 mph19.3 kmh 29.30 in992.2 mb 0.00 in0.0 mm 0.00 in0.0 mm 0.00 in0.0 mm
12:45 PM 92.3°F33.5°C 44.0°F6.7°C 19% 3.0 mph E4.8 kmh E 12.0 mph19.3 kmh 29.30 in992.2 mb 0.00 in0.0 mm 0.00 in0.0 mm 0.00 in0.0 mm
12:46 PM 92.3°F33.5°C 44.0°F6.7°C 19% 4.0 mph NE6.4 kmh NE 12.0 mph19.3 kmh 29.30 in992.2 mb 0.00 in0.0 mm 0.00 in0.0 mm 0.00 in0.0 mm
12:47 PM 92.3°F33.5°C 44.0°F6.7°C 19% Calm Calm 12.0 mph19.3 kmh 29.30 in992.2 mb 0.00 in0.0 mm 0.00 in0.0 mm 0.00 in0.0 mm
12:48 PM 92.3°F33.5°C 44.0°F6.7°C 19% 3.0 mph ESE4.8 kmh ESE 12.0 mph19.3 kmh 29.30 in992.2 mb 0.00 in0.0 mm 0.00 in0.0 mm 0.00 in0.0 mm
12:49 PM 92.5°F33.6°C 44.2°F6.8°C 19% 7.0 mph E11.3 kmh E 12.0 mph19.3 kmh 29.30 in992.2 mb 0.00 in0.0 mm 0.00 in0.0 mm 0.00 in0.0 mm
12:50 PM 92.5°F33.6°C 44.2°F6.8°C 19% 7.0 mph ENE11.3 kmh ENE 12.0 mph19.3 kmh 29.30 in992.2 mb 0.00 in0.0 mm 0.00 in0.0 mm 0.00 in0.0 mm
12:51 PM 92.6°F33.7°C 44.3°F6.8°C 19% 8.0 mph E12.9 kmh E 12.0 mph19.3 kmh 29.30 in992.2 mb 0.00 in0.0 mm 0.00 in0.0 mm 0.00 in0.0 mm
12:52 PM 92.5°F33.6°C 42.8°F6.0°C 18% 7.0 mph ESE11.3 kmh ESE 10.0 mph16.1 kmh 29.30 in992.2 mb 0.00 in0.0 mm 0.00 in0.0 mm 0.00 in0.0 mm
12:53 PM 92.3°F33.5°C 42.6°F5.9°C 18% 7.0 mph SE11.3 kmh SE 10.0 mph16.1 kmh 29.30 in992.2 mb 0.00 in0.0 mm 0.00 in0.0 mm 0.00 in0.0 mm
12:54 PM 92.2°F33.4°C 42.5°F5.8°C 18% Calm Calm 10.0 mph16.1 kmh 29.30 in992.2 mb 0.00 in0.0 mm 0.00 in0.0 mm 0.00 in0.0 mm
12:55 PM 92.0°F33.3°C 43.8°F6.6°C 19% 2.0 mph N3.2 kmh N 10.0 mph16.1 kmh 29.30 in992.2 mb 0.00 in0.0 mm 0.00 in0.0 mm 0.00 in0.0 mm
12:56 PM 92.0°F33.3°C 43.8°F6.6°C 19% 6.0 mph SE9.7 kmh SE 10.0 mph16.1 kmh 29.30 in992.2 mb 0.00 in0.0 mm 0.00 in0.0 mm 0.00 in0.0 mm
12:57 PM 91.9°F33.3°C 42.3°F5.7°C 18% 4.0 mph SE6.4 kmh SE 10.0 mph16.1 kmh 29.30 in992.2 mb 0.00 in0.0 mm 0.00 in0.0 mm 0.00 in0.0 mm
12:58 PM 91.9°F33.3°C 42.3°F5.7°C 18% 6.0 mph ESE9.7 kmh ESE 10.0 mph16.1 kmh 29.30 in992.2 mb 0.00 in0.0 mm 0.00 in0.0 mm 0.00 in0.0 mm
12:59 PM 92.1°F33.4°C 43.9°F6.6°C 19% 6.0 mph ENE9.7 kmh ENE 10.0 mph16.1 kmh 29.30 in992.2 mb 0.00 in0.0 mm 0.00 in0.0 mm 0.00 in0.0 mm
01:00 PM 92.5°F33.6°C 44.2°F6.8°C 19% Calm Calm 10.0 mph16.1 kmh 29.30 in992.2 mb 0.00 in0.0 mm 0.00 in0.0 mm 0.00 in0.0 mm
01:01 PM 93.0°F33.9°C 44.6°F7.0°C 19% 8.0 mph NE12.9 kmh NE 10.0 mph16.1 kmh 29.30 in992.2 mb 0.00 in0.0 mm 0.00 in0.0 mm 0.00 in0.0 mm
01:02 PM 93.1°F33.9°C 41.8°F5.4°C 17% 3.0 mph ESE4.8 kmh ESE 10.0 mph16.1 kmh 29.30 in992.2 mb 0.00 in0.0 mm 0.00 in0.0 mm 0.00 in0.0 mm
01:03 PM 93.1°F33.9°C 41.8°F5.4°C 17% 5.0 mph E8.0 kmh E 10.0 mph16.1 kmh 29.30 in992.2 mb 0.00 in0.0 mm 0.00 in0.0 mm 0.00 in0.0 mm
01:04 PM 93.0°F33.9°C 41.7°F5.4°C 17% 2.0 mph SE3.2 kmh SE 10.0 mph16.1 kmh 29.29 in991.9 mb 0.00 in0.0 mm 0.00 in0.0 mm 0.00 in0.0 mm
01:05 PM 92.9°F33.8°C 43.1°F6.2°C 18% Calm Calm 10.0 mph16.1 kmh 29.29 in991.9 mb 0.00 in0.0 mm 0.00 in0.0 mm 0.00 in0.0 mm
01:06 PM 92.8°F33.8°C 43.0°F6.1°C 18% 4.0 mph N6.4 kmh N 10.0 mph16.1 kmh 29.29 in991.9 mb 0.00 in0.0 mm 0.00 in0.0 mm 0.00 in0.0 mm
01:07 PM 92.9°F33.8°C 41.6°F5.3°C 17% 4.0 mph NE6.4 kmh NE 10.0 mph16.1 kmh 29.29 in991.9 mb 0.00 in0.0 mm 0.00 in0.0 mm 0.00 in0.0 mm
01:08 PM 93.0°F33.9°C 41.7°F5.4°C 17% 1.0 mph NE1.6 kmh NE 10.0 mph16.1 kmh 29.29 in991.9 mb 0.00 in0.0 mm 0.00 in0.0 mm 0.00 in0.0 mm
01:09 PM 93.1°F33.9°C 43.3°F6.3°C 18% 2.0 mph N3.2 kmh N 8.0 mph12.9 kmh 29.29 in991.9 mb 0.00 in0.0 mm 0.00 in0.0 mm 0.00 in0.0 mm
01:10 PM 93.2°F34.0°C 43.4°F6.3°C 18% 3.0 mph E4.8 kmh E 7.0 mph11.3 kmh 29.29 in991.9 mb 0.00 in0.0 mm 0.00 in0.0 mm 0.00 in0.0 mm
01:11 PM 93.3°F34.1°C 43.4°F6.3°C 18% 4.0 mph NE6.4 kmh NE 7.0 mph11.3 kmh 29.29 in991.9 mb 0.00 in0.0 mm 0.00 in0.0 mm 0.00 in0.0 mm
01:12 PM 93.4°F34.1°C 43.5°F6.4°C 18% Calm Calm 7.0 mph11.3 kmh 29.29 in991.9 mb 0.00 in0.0 mm 0.00 in0.0 mm 0.00 in0.0 mm
01:13 PM 93.6°F34.2°C 43.7°F6.5°C 18% Calm Calm 7.0 mph11.3 kmh 29.29 in991.9 mb 0.00 in0.0 mm 0.00 in0.0 mm 0.00 in0.0 mm
01:14 PM 93.7°F34.3°C 43.8°F6.6°C 18% 3.0 mph E4.8 kmh E 7.0 mph11.3 kmh 29.29 in991.9 mb 0.00 in0.0 mm 0.00 in0.0 mm 0.00 in0.0 mm
01:15 PM 93.8°F34.3°C 43.8°F6.6°C 18% 3.0 mph NE4.8 kmh NE 7.0 mph11.3 kmh 29.29 in991.9 mb 0.00 in0.0 mm 0.00 in0.0 mm 0.00 in0.0 mm
01:16 PM 93.8°F34.3°C 43.8°F6.6°C 18% Calm Calm 7.0 mph11.3 kmh 29.29 in991.9 mb 0.00 in0.0 mm 0.00 in0.0 mm 0.00 in0.0 mm
01:17 PM 93.8°F34.3°C 43.8°F6.6°C 18% 1.0 mph ENE1.6 kmh ENE 8.0 mph12.9 kmh 29.28 in991.5 mb 0.00 in0.0 mm 0.00 in0.0 mm 0.00 in0.0 mm
01:18 PM 93.8°F34.3°C 43.8°F6.6°C 18% 1.0 mph NE1.6 kmh NE 8.0 mph12.9 kmh 29.28 in991.5 mb 0.00 in0.0 mm 0.00 in0.0 mm 0.00 in0.0 mm
01:19 PM 93.8°F34.3°C 43.8°F6.6°C 18% 4.0 mph ENE6.4 kmh ENE 8.0 mph12.9 kmh 29.28 in991.5 mb 0.00 in0.0 mm 0.00 in0.0 mm 0.00 in0.0 mm
01:20 PM 93.8°F34.3°C 42.3°F5.7°C 17% 1.0 mph E1.6 kmh E 8.0 mph12.9 kmh 29.28 in991.5 mb 0.00 in0.0 mm 0.00 in0.0 mm 0.00 in0.0 mm
01:21 PM 93.8°F34.3°C 43.8°F6.6°C 18% 1.0 mph NE1.6 kmh NE 8.0 mph12.9 kmh 29.28 in991.5 mb 0.00 in0.0 mm 0.00 in0.0 mm 0.00 in0.0 mm
01:22 PM 93.9°F34.4°C 43.9°F6.6°C 18% Calm Calm 8.0 mph12.9 kmh 29.28 in991.5 mb 0.00 in0.0 mm 0.00 in0.0 mm 0.00 in0.0 mm
01:23 PM 93.9°F34.4°C 43.9°F6.6°C 18% 6.0 mph ENE9.7 kmh ENE 8.0 mph12.9 kmh 29.28 in991.5 mb 0.00 in0.0 mm 0.00 in0.0 mm 0.00 in0.0 mm
01:24 PM 93.9°F34.4°C 43.9°F6.6°C 18% 5.0 mph ENE8.0 kmh ENE 8.0 mph12.9 kmh 29.28 in991.5 mb 0.00 in0.0 mm 0.00 in0.0 mm 0.00 in0.0 mm
01:25 PM 93.7°F34.3°C 43.8°F6.6°C 18% 5.0 mph ENE8.0 kmh ENE 8.0 mph12.9 kmh 29.28 in991.5 mb 0.00 in0.0 mm 0.00 in0.0 mm 0.00 in0.0 mm
01:26 PM 93.5°F34.2°C 43.6°F6.4°C 18% Calm Calm 7.0 mph11.3 kmh 29.28 in991.5 mb 0.00 in0.0 mm 0.00 in0.0 mm 0.00 in0.0 mm
01:27 PM 93.3°F34.1°C 43.4°F6.3°C 18% 1.0 mph SSW1.6 kmh SSW 7.0 mph11.3 kmh 29.28 in991.5 mb 0.00 in0.0 mm 0.00 in0.0 mm 0.00 in0.0 mm
01:28 PM 93.4°F34.1°C 44.9°F7.2°C 19% 3.0 mph E4.8 kmh E 7.0 mph11.3 kmh 29.28 in991.5 mb 0.00 in0.0 mm 0.00 in0.0 mm 0.00 in0.0 mm
01:29 PM 93.4°F34.1°C 44.9°F7.2°C 19% 2.0 mph NE3.2 kmh NE 7.0 mph11.3 kmh 29.28 in991.5 mb 0.00 in0.0 mm 0.00 in0.0 mm 0.00 in0.0 mm
01:30 PM 93.4°F34.1°C 44.9°F7.2°C 19% 1.0 mph ENE1.6 kmh ENE 7.0 mph11.3 kmh 29.28 in991.5 mb 0.00 in0.0 mm 0.00 in0.0 mm 0.00 in0.0 mm
01:31 PM 93.6°F34.2°C 43.7°F6.5°C 18% Calm Calm 7.0 mph11.3 kmh 29.28 in991.5 mb 0.00 in0.0 mm 0.00 in0.0 mm 0.00 in0.0 mm
01:32 PM 93.6°F34.2°C 43.7°F6.5°C 18% 1.0 mph NW1.6 kmh NW 7.0 mph11.3 kmh 29.28 in991.5 mb 0.00 in0.0 mm 0.00 in0.0 mm 0.00 in0.0 mm
01:33 PM 93.6°F34.2°C 43.7°F6.5°C 18% 1.0 mph NNW1.6 kmh NNW 6.0 mph9.7 kmh 29.28 in991.5 mb 0.00 in0.0 mm 0.00 in0.0 mm 0.00 in0.0 mm
01:34 PM 93.4°F34.1°C 43.5°F6.4°C 18% 3.0 mph NW4.8 kmh NW 5.0 mph8.0 kmh 29.27 in991.2 mb 0.00 in0.0 mm 0.00 in0.0 mm 0.00 in0.0 mm
01:35 PM 93.5°F34.2°C 43.6°F6.4°C 18% 1.0 mph WSW1.6 kmh WSW 5.0 mph8.0 kmh 29.28 in991.5 mb 0.00 in0.0 mm 0.00 in0.0 mm 0.00 in0.0 mm
01:36 PM 93.6°F34.2°C 43.7°F6.5°C 18% Calm Calm 5.0 mph8.0 kmh 29.28 in991.5 mb 0.00 in0.0 mm 0.00 in0.0 mm 0.00 in0.0 mm
01:37 PM 93.9°F34.4°C 43.9°F6.6°C 18% Calm Calm 5.0 mph8.0 kmh 29.28 in991.5 mb 0.00 in0.0 mm 0.00 in0.0 mm 0.00 in0.0 mm
01:38 PM 94.2°F34.6°C 42.7°F5.9°C 17% Calm Calm 5.0 mph8.0 kmh 29.28 in991.5 mb 0.00 in0.0 mm 0.00 in0.0 mm 0.00 in0.0 mm
01:39 PM 94.5°F34.7°C 42.9°F6.1°C 17% 3.0 mph ESE4.8 kmh ESE 5.0 mph8.0 kmh 29.27 in991.2 mb 0.00 in0.0 mm 0.00 in0.0 mm 0.00 in0.0 mm
01:40 PM 94.5°F34.7°C 42.9°F6.1°C 17% 5.0 mph NE8.0 kmh NE 5.0 mph8.0 kmh 29.27 in991.2 mb 0.00 in0.0 mm 0.00 in0.0 mm 0.00 in0.0 mm
01:41 PM 94.5°F34.7°C 42.9°F6.1°C 17% 3.0 mph E4.8 kmh E 5.0 mph8.0 kmh 29.27 in991.2 mb 0.00 in0.0 mm 0.00 in0.0 mm 0.00 in0.0 mm
01:42 PM 94.5°F34.7°C 44.4°F6.9°C 18% 4.0 mph NE6.4 kmh NE 5.0 mph8.0 kmh 29.27 in991.2 mb 0.00 in0.0 mm 0.00 in0.0 mm 0.00 in0.0 mm
01:43 PM 94.5°F34.7°C 42.9°F6.1°C 17% Calm Calm 5.0 mph8.0 kmh 29.27 in991.2 mb 0.00 in0.0 mm 0.00 in0.0 mm 0.00 in0.0 mm
01:44 PM 94.5°F34.7°C 42.9°F6.1°C 17% Calm Calm 5.0 mph8.0 kmh 29.27 in991.2 mb 0.00 in0.0 mm 0.00 in0.0 mm 0.00 in0.0 mm
01:45 PM 94.5°F34.7°C 44.4°F6.9°C 18% 3.0 mph N4.8 kmh N 6.0 mph9.7 kmh 29.27 in991.2 mb 0.00 in0.0 mm 0.00 in0.0 mm 0.00 in0.0 mm
01:46 PM 94.5°F34.7°C 44.4°F6.9°C 18% 3.0 mph ENE4.8 kmh ENE 6.0 mph9.7 kmh 29.27 in991.2 mb 0.00 in0.0 mm 0.00 in0.0 mm 0.00 in0.0 mm
01:47 PM 94.6°F34.8°C 43.0°F6.1°C 17% Calm Calm 6.0 mph9.7 kmh 29.27 in991.2 mb 0.00 in0.0 mm 0.00 in0.0 mm 0.00 in0.0 mm
01:48 PM 94.7°F34.8°C 44.6°F7.0°C 18% 2.0 mph NE3.2 kmh NE 6.0 mph9.7 kmh 29.27 in991.2 mb 0.00 in0.0 mm 0.00 in0.0 mm 0.00 in0.0 mm
01:49 PM 94.7°F34.8°C 44.6°F7.0°C 18% 2.0 mph ENE3.2 kmh ENE 6.0 mph9.7 kmh 29.27 in991.2 mb 0.00 in0.0 mm 0.00 in0.0 mm 0.00 in0.0 mm
01:50 PM 94.7°F34.8°C 43.1°F6.2°C 17% 3.0 mph E4.8 kmh E 6.0 mph9.7 kmh 29.27 in991.2 mb 0.00 in0.0 mm 0.00 in0.0 mm 0.00 in0.0 mm
01:51 PM 94.7°F34.8°C 43.1°F6.2°C 17% 7.0 mph SE11.3 kmh SE 8.0 mph12.9 kmh 29.27 in991.2 mb 0.00 in0.0 mm 0.00 in0.0 mm 0.00 in0.0 mm
01:52 PM 94.6°F34.8°C 43.0°F6.1°C 17% 3.0 mph SE4.8 kmh SE 8.0 mph12.9 kmh 29.27 in991.2 mb 0.00 in0.0 mm 0.00 in0.0 mm 0.00 in0.0 mm
01:53 PM 94.6°F34.8°C 43.0°F6.1°C 17% 3.0 mph SE4.8 kmh SE 8.0 mph12.9 kmh 29.27 in991.2 mb 0.00 in0.0 mm 0.00 in0.0 mm 0.00 in0.0 mm
01:54 PM 94.5°F34.7°C 42.9°F6.1°C 17% 4.0 mph E6.4 kmh E 8.0 mph12.9 kmh 29.27 in991.2 mb 0.00 in0.0 mm 0.00 in0.0 mm 0.00 in0.0 mm
01:55 PM 94.3°F34.6°C 42.7°F5.9°C 17% 3.0 mph E4.8 kmh E 8.0 mph12.9 kmh 29.27 in991.2 mb 0.00 in0.0 mm 0.00 in0.0 mm 0.00 in0.0 mm
01:56 PM 94.2°F34.6°C 42.7°F5.9°C 17% 2.0 mph SE3.2 kmh SE 8.0 mph12.9 kmh 29.27 in991.2 mb 0.00 in0.0 mm 0.00 in0.0 mm 0.00 in0.0 mm
01:57 PM 94.1°F34.5°C 42.6°F5.9°C 17% Calm Calm 8.0 mph12.9 kmh 29.26 in990.9 mb 0.00 in0.0 mm 0.00 in0.0 mm 0.00 in0.0 mm
01:58 PM 94.0°F34.4°C 42.5°F5.8°C 17% Calm Calm 8.0 mph12.9 kmh 29.26 in990.9 mb 0.00 in0.0 mm 0.00 in0.0 mm 0.00 in0.0 mm
01:59 PM 93.9°F34.4°C 42.4°F5.8°C 17% 2.0 mph E3.2 kmh E 8.0 mph12.9 kmh 29.26 in990.9 mb 0.00 in0.0 mm 0.00 in0.0 mm 0.00 in0.0 mm
02:00 PM 94.0°F34.4°C 42.5°F5.8°C 17% 2.0 mph ESE3.2 kmh ESE 8.0 mph12.9 kmh 29.26 in990.9 mb 0.00 in0.0 mm 0.00 in0.0 mm 0.00 in0.0 mm
02:01 PM 94.0°F34.4°C 40.9°F4.9°C 16% 6.0 mph SE9.7 kmh SE 7.0 mph11.3 kmh 29.26 in990.9 mb 0.00 in0.0 mm 0.00 in0.0 mm 0.00 in0.0 mm
02:02 PM 94.0°F34.4°C 39.3°F4.1°C 15% 3.0 mph ESE4.8 kmh ESE 6.0 mph9.7 kmh 29.26 in990.9 mb 0.00 in0.0 mm 0.00 in0.0 mm 0.00 in0.0 mm
02:03 PM 94.0°F34.4°C 39.3°F4.1°C 15% 3.0 mph SSW4.8 kmh SSW 7.0 mph11.3 kmh 29.26 in990.9 mb 0.00 in0.0 mm 0.00 in0.0 mm 0.00 in0.0 mm
02:04 PM 94.1°F34.5°C 41.0°F5.0°C 16% 5.0 mph SE8.0 kmh SE 7.0 mph11.3 kmh 29.26 in990.9 mb 0.00 in0.0 mm 0.00 in0.0 mm 0.00 in0.0 mm
02:05 PM 94.2°F34.6°C 39.4°F4.1°C 15% 6.0 mph ESE9.7 kmh ESE 9.0 mph14.5 kmh 29.26 in990.9 mb 0.00 in0.0 mm 0.00 in0.0 mm 0.00 in0.0 mm
02:06 PM 94.2°F34.6°C 39.4°F4.1°C 15% 4.0 mph ESE6.4 kmh ESE 9.0 mph14.5 kmh 29.26 in990.9 mb 0.00 in0.0 mm 0.00 in0.0 mm 0.00 in0.0 mm
02:07 PM 94.0°F34.4°C 39.3°F4.1°C 15% 3.0 mph ESE4.8 kmh ESE 9.0 mph14.5 kmh 29.26 in990.9 mb 0.00 in0.0 mm 0.00 in0.0 mm 0.00 in0.0 mm
02:08 PM 94.1°F34.5°C 41.0°F5.0°C 16% 6.0 mph ESE9.7 kmh ESE 9.0 mph14.5 kmh 29.26 in990.9 mb 0.00 in0.0 mm 0.00 in0.0 mm 0.00 in0.0 mm
02:09 PM 94.0°F34.4°C 39.3°F4.1°C 15% 2.0 mph E3.2 kmh E 9.0 mph14.5 kmh 29.26 in990.9 mb 0.00 in0.0 mm 0.00 in0.0 mm 0.00 in0.0 mm
02:10 PM 94.0°F34.4°C 39.3°F4.1°C 15% 3.0 mph E4.8 kmh E 9.0 mph14.5 kmh 29.26 in990.9 mb 0.00 in0.0 mm 0.00 in0.0 mm 0.00 in0.0 mm
02:11 PM 94.0°F34.4°C 39.3°F4.1°C 15% 4.0 mph SE6.4 kmh SE 9.0 mph14.5 kmh 29.26 in990.9 mb 0.00 in0.0 mm 0.00 in0.0 mm 0.00 in0.0 mm
02:12 PM 94.0°F34.4°C 40.9°F4.9°C 16% Calm Calm 9.0 mph14.5 kmh 29.26 in990.9 mb 0.00 in0.0 mm 0.00 in0.0 mm 0.00 in0.0 mm
02:13 PM 94.0°F34.4°C 39.3°F4.1°C 15% 4.0 mph SE6.4 kmh SE 9.0 mph14.5 kmh 29.26 in990.9 mb 0.00 in0.0 mm 0.00 in0.0 mm 0.00 in0.0 mm
02:14 PM 94.1°F34.5°C 41.0°F5.0°C 16% 7.0 mph E11.3 kmh E 12.0 mph19.3 kmh 29.26 in990.9 mb 0.00 in0.0 mm 0.00 in0.0 mm 0.00 in0.0 mm
02:15 PM 94.0°F34.4°C 39.3°F4.1°C 15% 4.0 mph E6.4 kmh E 12.0 mph19.3 kmh 29.26 in990.9 mb 0.00 in0.0 mm 0.00 in0.0 mm 0.00 in0.0 mm
02:16 PM 94.1°F34.5°C 39.4°F4.1°C 15% 6.0 mph SE9.7 kmh SE 12.0 mph19.3 kmh 29.26 in990.9 mb 0.00 in0.0 mm 0.00 in0.0 mm 0.00 in0.0 mm
02:17 PM 94.0°F34.4°C 39.3°F4.1°C 15% 4.0 mph ESE6.4 kmh ESE 12.0 mph19.3 kmh 29.26 in990.9 mb 0.00 in0.0 mm 0.00 in0.0 mm 0.00 in0.0 mm
02:18 PM 93.9°F34.4°C 39.2°F4.0°C 15% 5.0 mph ESE8.0 kmh ESE 12.0 mph19.3 kmh 29.26 in990.9 mb 0.00 in0.0 mm 0.00 in0.0 mm 0.00 in0.0 mm
02:19 PM 93.8°F34.3°C 39.1°F3.9°C 15% 1.0 mph SE1.6 kmh SE 12.0 mph19.3 kmh 29.26 in990.9 mb 0.00 in0.0 mm 0.00 in0.0 mm 0.00 in0.0 mm
02:20 PM 93.6°F34.2°C 39.0°F3.9°C 15% Calm Calm 12.0 mph19.3 kmh 29.26 in990.9 mb 0.00 in0.0 mm 0.00 in0.0 mm 0.00 in0.0 mm
02:21 PM 93.6°F34.2°C 39.0°F3.9°C 15% 1.0 mph SE1.6 kmh SE 12.0 mph19.3 kmh 29.26 in990.9 mb 0.00 in0.0 mm 0.00 in0.0 mm 0.00 in0.0 mm
02:22 PM 93.6°F34.2°C 39.0°F3.9°C 15% 1.0 mph SE1.6 kmh SE 12.0 mph19.3 kmh 29.25 in990.5 mb 0.00 in0.0 mm 0.00 in0.0 mm 0.00 in0.0 mm
02:23 PM 93.7°F34.3°C 39.0°F3.9°C 15% 4.0 mph SE6.4 kmh SE 10.0 mph16.1 kmh 29.25 in990.5 mb 0.00 in0.0 mm 0.00 in0.0 mm 0.00 in0.0 mm
02:24 PM 93.7°F34.3°C 40.7°F4.8°C 16% 3.0 mph E4.8 kmh E 10.0 mph16.1 kmh 29.25 in990.5 mb 0.00 in0.0 mm 0.00 in0.0 mm 0.00 in0.0 mm
02:25 PM 93.7°F34.3°C 39.0°F3.9°C 15% Calm Calm 10.0 mph16.1 kmh 29.25 in990.5 mb 0.00 in0.0 mm 0.00 in0.0 mm 0.00 in0.0 mm
02:26 PM 93.7°F34.3°C 39.0°F3.9°C 15% 2.0 mph E3.2 kmh E 8.0 mph12.9 kmh 29.25 in990.5 mb 0.00 in0.0 mm 0.00 in0.0 mm 0.00 in0.0 mm
02:27 PM 93.7°F34.3°C 39.0°F3.9°C 15% 6.0 mph ESE9.7 kmh ESE 7.0 mph11.3 kmh 29.25 in990.5 mb 0.00 in0.0 mm 0.00 in0.0 mm 0.00 in0.0 mm
02:28 PM 93.6°F34.2°C 39.0°F3.9°C 15% 1.0 mph ESE1.6 kmh ESE 7.0 mph11.3 kmh 29.25 in990.5 mb 0.00 in0.0 mm 0.00 in0.0 mm 0.00 in0.0 mm
02:29 PM 93.5°F34.2°C 38.9°F3.8°C 15% Calm Calm 7.0 mph11.3 kmh 29.25 in990.5 mb 0.00 in0.0 mm 0.00 in0.0 mm 0.00 in0.0 mm
02:30 PM 93.5°F34.2°C 40.5°F4.7°C 16% 2.0 mph NE3.2 kmh NE 7.0 mph11.3 kmh 29.25 in990.5 mb 0.00 in0.0 mm 0.00 in0.0 mm 0.00 in0.0 mm
02:31 PM 93.5°F34.2°C 38.9°F3.8°C 15% Calm Calm 7.0 mph11.3 kmh 29.25 in990.5 mb 0.00 in0.0 mm 0.00 in0.0 mm 0.00 in0.0 mm
02:32 PM 93.7°F34.3°C 40.7°F4.8°C 16% Calm Calm 7.0 mph11.3 kmh 29.25 in990.5 mb 0.00 in0.0 mm 0.00 in0.0 mm 0.00 in0.0 mm
02:33 PM 93.9°F34.4°C 40.9°F4.9°C 16% Calm Calm 7.0 mph11.3 kmh 29.25 in990.5 mb 0.00 in0.0 mm 0.00 in0.0 mm 0.00 in0.0 mm
02:34 PM 94.1°F34.5°C 39.4°F4.1°C 15% Calm Calm 7.0 mph11.3 kmh 29.25 in990.5 mb 0.00 in0.0 mm 0.00 in0.0 mm 0.00 in0.0 mm
02:35 PM 94.4°F34.7°C 41.3°F5.2°C 16% Calm Calm 7.0 mph11.3 kmh 29.25 in990.5 mb 0.00 in0.0 mm 0.00 in0.0 mm 0.00 in0.0 mm
02:36 PM 94.7°F34.8°C 39.8°F4.3°C 15% Calm Calm 6.0 mph9.7 kmh 29.25 in990.5 mb 0.00 in0.0 mm 0.00 in0.0 mm 0.00 in0.0 mm
02:37 PM 94.9°F34.9°C 40.0°F4.4°C 15% 2.0 mph ESE3.2 kmh ESE 3.0 mph4.8 kmh 29.25 in990.5 mb 0.00 in0.0 mm 0.00 in0.0 mm 0.00 in0.0 mm
02:38 PM 95.0°F35.0°C 40.1°F4.5°C 15% Calm Calm 3.0 mph4.8 kmh 29.25 in990.5 mb 0.00 in0.0 mm 0.00 in0.0 mm 0.00 in0.0 mm
02:39 PM 95.1°F35.1°C 40.1°F4.5°C 15% 2.0 mph SSE3.2 kmh SSE 3.0 mph4.8 kmh 29.25 in990.5 mb 0.00 in0.0 mm 0.00 in0.0 mm 0.00 in0.0 mm
02:40 PM 95.1°F35.1°C 40.1°F4.5°C 15% 4.0 mph SSE6.4 kmh SSE 5.0 mph8.0 kmh 29.25 in990.5 mb 0.00 in0.0 mm 0.00 in0.0 mm 0.00 in0.0 mm
02:41 PM 95.2°F35.1°C 40.2°F4.6°C 15% 4.0 mph SSE6.4 kmh SSE 9.0 mph14.5 kmh 29.25 in990.5 mb 0.00 in0.0 mm 0.00 in0.0 mm 0.00 in0.0 mm
02:42 PM 95.3°F35.2°C 38.5°F3.6°C 14% 8.0 mph SE12.9 kmh SE 9.0 mph14.5 kmh 29.25 in990.5 mb 0.00 in0.0 mm 0.00 in0.0 mm 0.00 in0.0 mm
02:43 PM 95.4°F35.2°C 38.6°F3.7°C 14% 6.0 mph S9.7 kmh S 9.0 mph14.5 kmh 29.25 in990.5 mb 0.00 in0.0 mm 0.00 in0.0 mm 0.00 in0.0 mm
02:44 PM 95.4°F35.2°C 38.6°F3.7°C 14% 3.0 mph SW4.8 kmh SW 9.0 mph14.5 kmh 29.25 in990.5 mb 0.00 in0.0 mm 0.00 in0.0 mm 0.00 in0.0 mm
02:45 PM 95.4°F35.2°C 38.6°F3.7°C 14% 2.0 mph SE3.2 kmh SE 9.0 mph14.5 kmh 29.25 in990.5 mb 0.00 in0.0 mm 0.00 in0.0 mm 0.00 in0.0 mm
02:46 PM 95.4°F35.2°C 38.6°F3.7°C 14% 4.0 mph SW6.4 kmh SW 9.0 mph14.5 kmh 29.25 in990.5 mb 0.00 in0.0 mm 0.00 in0.0 mm 0.00 in0.0 mm
02:47 PM 95.4°F35.2°C 38.6°F3.7°C 14% 6.0 mph SSW9.7 kmh SSW 9.0 mph14.5 kmh 29.25 in990.5 mb 0.00 in0.0 mm 0.00 in0.0 mm 0.00 in0.0 mm
02:48 PM 95.4°F35.2°C 38.6°F3.7°C 14% 5.0 mph S8.0 kmh S 9.0 mph14.5 kmh 29.25 in990.5 mb 0.00 in0.0 mm 0.00 in0.0 mm 0.00 in0.0 mm
02:49 PM 95.3°F35.2°C 38.5°F3.6°C 14% 2.0 mph S3.2 kmh S 9.0 mph14.5 kmh 29.25 in990.5 mb 0.00 in0.0 mm 0.00 in0.0 mm 0.00 in0.0 mm
02:50 PM 95.3°F35.2°C 36.6°F2.6°C 13% 3.0 mph S4.8 kmh S 8.0 mph12.9 kmh 29.25 in990.5 mb 0.00 in0.0 mm 0.00 in0.0 mm 0.00 in0.0 mm
02:51 PM 95.3°F35.2°C 38.5°F3.6°C 14% 4.0 mph S6.4 kmh S 8.0 mph12.9 kmh 29.25 in990.5 mb 0.00 in0.0 mm 0.00 in0.0 mm 0.00 in0.0 mm
02:52 PM 95.3°F35.2°C 38.5°F3.6°C 14% 3.0 mph SSE4.8 kmh SSE 8.0 mph12.9 kmh 29.25 in990.5 mb 0.00 in0.0 mm 0.00 in0.0 mm 0.00 in0.0 mm
02:53 PM 95.3°F35.2°C 38.5°F3.6°C 14% Calm Calm 8.0 mph12.9 kmh 29.25 in990.5 mb 0.00 in0.0 mm 0.00 in0.0 mm 0.00 in0.0 mm
02:54 PM 95.3°F35.2°C 38.5°F3.6°C 14% Calm Calm 8.0 mph12.9 kmh 29.25 in990.5 mb 0.00 in0.0 mm 0.00 in0.0 mm 0.00 in0.0 mm
02:55 PM 95.3°F35.2°C 38.5°F3.6°C 14% 1.0 mph E1.6 kmh E 7.0 mph11.3 kmh 29.25 in990.5 mb 0.00 in0.0 mm 0.00 in0.0 mm 0.00 in0.0 mm
02:56 PM 95.3°F35.2°C 38.5°F3.6°C 14% Calm Calm 6.0 mph9.7 kmh 29.25 in990.5 mb 0.00 in0.0 mm 0.00 in0.0 mm 0.00 in0.0 mm
02:57 PM 95.3°F35.2°C 38.5°F3.6°C 14% 1.0 mph SSW1.6 kmh SSW 6.0 mph9.7 kmh 29.25 in990.5 mb 0.00 in0.0 mm 0.00 in0.0 mm 0.00 in0.0 mm
02:58 PM 95.4°F35.2°C 40.4°F4.7°C 15% Calm Calm 5.0 mph8.0 kmh 29.25 in990.5 mb 0.00 in0.0 mm 0.00 in0.0 mm 0.00 in0.0 mm
02:59 PM 95.4°F35.2°C 38.6°F3.7°C 14% Calm Calm 5.0 mph8.0 kmh 29.25 in990.5 mb 0.00 in0.0 mm 0.00 in0.0 mm 0.00 in0.0 mm
03:00 PM 95.5°F35.3°C 40.5°F4.7°C 15% 1.0 mph WSW1.6 kmh WSW 5.0 mph8.0 kmh 29.25 in990.5 mb 0.00 in0.0 mm 0.00 in0.0 mm 0.00 in0.0 mm
03:01 PM 95.6°F35.3°C 38.8°F3.8°C 14% Calm Calm 3.0 mph4.8 kmh 29.24 in990.2 mb 0.00 in0.0 mm 0.00 in0.0 mm 0.00 in0.0 mm
03:02 PM 95.6°F35.3°C 38.8°F3.8°C 14% 2.0 mph NNW3.2 kmh NNW 3.0 mph4.8 kmh 29.24 in990.2 mb 0.00 in0.0 mm 0.00 in0.0 mm 0.00 in0.0 mm
03:03 PM 95.4°F35.2°C 38.6°F3.7°C 14% 2.0 mph NW3.2 kmh NW 3.0 mph4.8 kmh 29.24 in990.2 mb 0.00 in0.0 mm 0.00 in0.0 mm 0.00 in0.0 mm
03:04 PM 95.2°F35.1°C 36.6°F2.6°C 13% 1.0 mph WNW1.6 kmh WNW 3.0 mph4.8 kmh 29.24 in990.2 mb 0.00 in0.0 mm 0.00 in0.0 mm 0.00 in0.0 mm
03:05 PM 95.0°F35.0°C 38.3°F3.5°C 14% Calm Calm 3.0 mph4.8 kmh 29.24 in990.2 mb 0.00 in0.0 mm 0.00 in0.0 mm 0.00 in0.0 mm
03:06 PM 95.0°F35.0°C 40.1°F4.5°C 15% Calm Calm 3.0 mph4.8 kmh 29.24 in990.2 mb 0.00 in0.0 mm 0.00 in0.0 mm 0.00 in0.0 mm
03:07 PM 95.0°F35.0°C 38.3°F3.5°C 14% Calm Calm 3.0 mph4.8 kmh 29.24 in990.2 mb 0.00 in0.0 mm 0.00 in0.0 mm 0.00 in0.0 mm
03:08 PM 95.2°F35.1°C 38.5°F3.6°C 14% Calm Calm 3.0 mph4.8 kmh 29.24 in990.2 mb 0.00 in0.0 mm 0.00 in0.0 mm 0.00 in0.0 mm
03:09 PM 95.4°F35.2°C 38.6°F3.7°C 14% Calm Calm 3.0 mph4.8 kmh 29.24 in990.2 mb 0.00 in0.0 mm 0.00 in0.0 mm 0.00 in0.0 mm
03:10 PM 95.5°F35.3°C 38.7°F3.7°C 14% Calm Calm 3.0 mph4.8 kmh 29.24 in990.2 mb 0.00 in0.0 mm 0.00 in0.0 mm 0.00 in0.0 mm
03:11 PM 95.7°F35.4°C 38.8°F3.8°C 14% Calm Calm 3.0 mph4.8 kmh 29.24 in990.2 mb 0.00 in0.0 mm 0.00 in0.0 mm 0.00 in0.0 mm
03:12 PM 95.8°F35.4°C 38.9°F3.8°C 14% Calm Calm 3.0 mph4.8 kmh 29.24 in990.2 mb 0.00 in0.0 mm 0.00 in0.0 mm 0.00 in0.0 mm
03:13 PM 96.0°F35.6°C 39.1°F3.9°C 14% Calm Calm 1.0 mph1.6 kmh 29.24 in990.2 mb 0.00 in0.0 mm 0.00 in0.0 mm 0.00 in0.0 mm
03:14 PM 96.1°F35.6°C 37.3°F2.9°C 13% 1.0 mph WSW1.6 kmh WSW 5.0 mph8.0 kmh 29.24 in990.2 mb 0.00 in0.0 mm 0.00 in0.0 mm 0.00 in0.0 mm
03:15 PM 96.1°F35.6°C 37.3°F2.9°C 13% Calm Calm 5.0 mph8.0 kmh 29.24 in990.2 mb 0.00 in0.0 mm 0.00 in0.0 mm 0.00 in0.0 mm
03:16 PM 96.1°F35.6°C 39.2°F4.0°C 14% Calm Calm 5.0 mph8.0 kmh 29.24 in990.2 mb 0.00 in0.0 mm 0.00 in0.0 mm 0.00 in0.0 mm
03:17 PM 96.3°F35.7°C 39.3°F4.1°C 14% 3.0 mph SSW4.8 kmh SSW 7.0 mph11.3 kmh 29.24 in990.2 mb 0.00 in0.0 mm 0.00 in0.0 mm 0.00 in0.0 mm
03:18 PM 96.4°F35.8°C 39.4°F4.1°C 14% 3.0 mph S4.8 kmh S 7.0 mph11.3 kmh 29.24 in990.2 mb 0.00 in0.0 mm 0.00 in0.0 mm 0.00 in0.0 mm
03:19 PM 96.5°F35.8°C 39.5°F4.2°C 14% 3.0 mph SW4.8 kmh SW 7.0 mph11.3 kmh 29.24 in990.2 mb 0.00 in0.0 mm 0.00 in0.0 mm 0.00 in0.0 mm
03:20 PM 96.6°F35.9°C 39.5°F4.2°C 14% 5.0 mph SW8.0 kmh SW 7.0 mph11.3 kmh 29.24 in990.2 mb 0.00 in0.0 mm 0.00 in0.0 mm 0.00 in0.0 mm
03:21 PM 96.6°F35.9°C 39.5°F4.2°C 14% 5.0 mph WSW8.0 kmh WSW 7.0 mph11.3 kmh 29.24 in990.2 mb 0.00 in0.0 mm 0.00 in0.0 mm 0.00 in0.0 mm
03:22 PM 96.3°F35.7°C 39.3°F4.1°C 14% 5.0 mph SW8.0 kmh SW 7.0 mph11.3 kmh 29.24 in990.2 mb 0.00 in0.0 mm 0.00 in0.0 mm 0.00 in0.0 mm
03:23 PM 96.0°F35.6°C 39.1°F3.9°C 14% 2.0 mph S3.2 kmh S 7.0 mph11.3 kmh 29.24 in990.2 mb 0.00 in0.0 mm 0.00 in0.0 mm 0.00 in0.0 mm
03:24 PM 95.8°F35.4°C 38.9°F3.8°C 14% 3.0 mph SE4.8 kmh SE 7.0 mph11.3 kmh 29.24 in990.2 mb 0.00 in0.0 mm 0.00 in0.0 mm 0.00 in0.0 mm
03:25 PM 95.7°F35.4°C 38.8°F3.8°C 14% 3.0 mph SE4.8 kmh SE 7.0 mph11.3 kmh 29.24 in990.2 mb 0.00 in0.0 mm 0.00 in0.0 mm 0.00 in0.0 mm
03:26 PM 95.7°F35.4°C 38.8°F3.8°C 14% 3.0 mph S4.8 kmh S 7.0 mph11.3 kmh 29.23 in989.8 mb 0.00 in0.0 mm 0.00 in0.0 mm 0.00 in0.0 mm
03:27 PM 95.6°F35.3°C 38.8°F3.8°C 14% Calm Calm 7.0 mph11.3 kmh 29.23 in989.8 mb 0.00 in0.0 mm 0.00 in0.0 mm 0.00 in0.0 mm
03:28 PM 95.5°F35.3°C 38.7°F3.7°C 14% 1.0 mph E1.6 kmh E 6.0 mph9.7 kmh 29.23 in989.8 mb 0.00 in0.0 mm 0.00 in0.0 mm 0.00 in0.0 mm
03:29 PM 95.5°F35.3°C 38.7°F3.7°C 14% Calm Calm 6.0 mph9.7 kmh 29.23 in989.8 mb 0.00 in0.0 mm 0.00 in0.0 mm 0.00 in0.0 mm
03:30 PM 95.4°F35.2°C 38.6°F3.7°C 14% 1.0 mph ENE1.6 kmh ENE 6.0 mph9.7 kmh 29.23 in989.8 mb 0.00 in0.0 mm 0.00 in0.0 mm 0.00 in0.0 mm
03:31 PM 95.3°F35.2°C 38.5°F3.6°C 14% 3.0 mph E4.8 kmh E 6.0 mph9.7 kmh 29.23 in989.8 mb 0.00 in0.0 mm 0.00 in0.0 mm 0.00 in0.0 mm
03:32 PM 95.1°F35.1°C 40.1°F4.5°C 15% 4.0 mph SE6.4 kmh SE 6.0 mph9.7 kmh 29.23 in989.8 mb 0.00 in0.0 mm 0.00 in0.0 mm 0.00 in0.0 mm
03:33 PM 95.1°F35.1°C 38.4°F3.6°C 14% 6.0 mph SE9.7 kmh SE 6.0 mph9.7 kmh 29.23 in989.8 mb 0.00 in0.0 mm 0.00 in0.0 mm 0.00 in0.0 mm
03:34 PM 95.1°F35.1°C 36.5°F2.5°C 13% 4.0 mph SE6.4 kmh SE 6.0 mph9.7 kmh 29.23 in989.8 mb 0.00 in0.0 mm 0.00 in0.0 mm 0.00 in0.0 mm
03:35 PM 95.1°F35.1°C 36.5°F2.5°C 13% 6.0 mph ESE9.7 kmh ESE 8.0 mph12.9 kmh 29.23 in989.8 mb 0.00 in0.0 mm 0.00 in0.0 mm 0.00 in0.0 mm
03:36 PM 95.2°F35.1°C 38.5°F3.6°C 14% 6.0 mph ESE9.7 kmh ESE 8.0 mph12.9 kmh 29.23 in989.8 mb 0.00 in0.0 mm 0.00 in0.0 mm 0.00 in0.0 mm
03:37 PM 95.1°F35.1°C 38.4°F3.6°C 14% 1.0 mph SE1.6 kmh SE 8.0 mph12.9 kmh 29.23 in989.8 mb 0.00 in0.0 mm 0.00 in0.0 mm 0.00 in0.0 mm
03:38 PM 95.1°F35.1°C 38.4°F3.6°C 14% Calm Calm 8.0 mph12.9 kmh 29.23 in989.8 mb 0.00 in0.0 mm 0.00 in0.0 mm 0.00 in0.0 mm
03:39 PM 95.3°F35.2°C 38.5°F3.6°C 14% 1.0 mph S1.6 kmh S 8.0 mph12.9 kmh 29.23 in989.8 mb 0.00 in0.0 mm 0.00 in0.0 mm 0.00 in0.0 mm
03:40 PM 95.5°F35.3°C 38.7°F3.7°C 14% Calm Calm 8.0 mph12.9 kmh 29.23 in989.8 mb 0.00 in0.0 mm 0.00 in0.0 mm 0.00 in0.0 mm
03:41 PM 95.7°F35.4°C 38.8°F3.8°C 14% Calm Calm 8.0 mph12.9 kmh 29.22 in989.5 mb 0.00 in0.0 mm 0.00 in0.0 mm 0.00 in0.0 mm
03:42 PM 95.8°F35.4°C 38.9°F3.8°C 14% 1.0 mph NW1.6 kmh NW 8.0 mph12.9 kmh 29.22 in989.5 mb 0.00 in0.0 mm 0.00 in0.0 mm 0.00 in0.0 mm
03:43 PM 95.9°F35.5°C 39.0°F3.9°C 14% Calm Calm 8.0 mph12.9 kmh 29.22 in989.5 mb 0.00 in0.0 mm 0.00 in0.0 mm 0.00 in0.0 mm
03:44 PM 96.1°F35.6°C 37.3°F2.9°C 13% Calm Calm 6.0 mph9.7 kmh 29.22 in989.5 mb 0.00 in0.0 mm 0.00 in0.0 mm 0.00 in0.0 mm
03:45 PM 96.4°F35.8°C 37.5°F3.1°C 13% Calm Calm 6.0 mph9.7 kmh 29.22 in989.5 mb 0.00 in0.0 mm 0.00 in0.0 mm 0.00 in0.0 mm
03:46 PM 96.6°F35.9°C 39.5°F4.2°C 14% 1.0 mph SE1.6 kmh SE 2.0 mph3.2 kmh 29.22 in989.5 mb 0.00 in0.0 mm 0.00 in0.0 mm 0.00 in0.0 mm
03:47 PM 96.9°F36.1°C 39.8°F4.3°C 14% Calm Calm 3.0 mph4.8 kmh 29.22 in989.5 mb 0.00 in0.0 mm 0.00 in0.0 mm 0.00 in0.0 mm
03:48 PM 97.1°F36.2°C 38.0°F3.3°C 13% 2.0 mph S3.2 kmh S 3.0 mph4.8 kmh 29.22 in989.5 mb 0.00 in0.0 mm 0.00 in0.0 mm 0.00 in0.0 mm
03:49 PM 97.3°F36.3°C 40.1°F4.5°C 14% 12.0 mph ESE19.3 kmh ESE 13.0 mph20.9 kmh 29.22 in989.5 mb 0.00 in0.0 mm 0.00 in0.0 mm 0.00 in0.0 mm
03:50 PM 97.2°F36.2°C 38.1°F3.4°C 13% 3.0 mph E4.8 kmh E 13.0 mph20.9 kmh 29.22 in989.5 mb 0.00 in0.0 mm 0.00 in0.0 mm 0.00 in0.0 mm
03:51 PM 97.0°F36.1°C 38.0°F3.3°C 13% 1.0 mph ENE1.6 kmh ENE 13.0 mph20.9 kmh 29.22 in989.5 mb 0.00 in0.0 mm 0.00 in0.0 mm 0.00 in0.0 mm
03:52 PM 96.8°F36.0°C 39.7°F4.3°C 14% 5.0 mph E8.0 kmh E 13.0 mph20.9 kmh 29.22 in989.5 mb 0.00 in0.0 mm 0.00 in0.0 mm 0.00 in0.0 mm
03:53 PM 96.7°F35.9°C 37.7°F3.2°C 13% Calm Calm 13.0 mph20.9 kmh 29.22 in989.5 mb 0.00 in0.0 mm 0.00 in0.0 mm 0.00 in0.0 mm
03:54 PM 96.5°F35.8°C 39.5°F4.2°C 14% Calm Calm 13.0 mph20.9 kmh 29.22 in989.5 mb 0.00 in0.0 mm 0.00 in0.0 mm 0.00 in0.0 mm
03:55 PM 96.5°F35.8°C 39.5°F4.2°C 14% 5.0 mph E8.0 kmh E 13.0 mph20.9 kmh 29.22 in989.5 mb 0.00 in0.0 mm 0.00 in0.0 mm 0.00 in0.0 mm
03:56 PM 96.6°F35.9°C 39.5°F4.2°C 14% 3.0 mph ESE4.8 kmh ESE 13.0 mph20.9 kmh 29.22 in989.5 mb 0.00 in0.0 mm 0.00 in0.0 mm 0.00 in0.0 mm
03:57 PM 96.6°F35.9°C 39.5°F4.2°C 14% 4.0 mph SE6.4 kmh SE 13.0 mph20.9 kmh 29.22 in989.5 mb 0.00 in0.0 mm 0.00 in0.0 mm 0.00 in0.0 mm
03:58 PM 96.6°F35.9°C 39.5°F4.2°C 14% 4.0 mph SW6.4 kmh SW 13.0 mph20.9 kmh 29.22 in989.5 mb 0.00 in0.0 mm 0.00 in0.0 mm 0.00 in0.0 mm
03:59 PM 96.6°F35.9°C 37.7°F3.2°C 13% 5.0 mph SW8.0 kmh SW 12.0 mph19.3 kmh 29.22 in989.5 mb 0.00 in0.0 mm 0.00 in0.0 mm 0.00 in0.0 mm
04:00 PM 96.5°F35.8°C 37.6°F3.1°C 13% 1.0 mph SSW1.6 kmh SSW 12.0 mph19.3 kmh 29.22 in989.5 mb 0.00 in0.0 mm 0.00 in0.0 mm 0.00 in0.0 mm
04:01 PM 96.3°F35.7°C 35.4°F1.9°C 12% 5.0 mph SW8.0 kmh SW 12.0 mph19.3 kmh 29.22 in989.5 mb 0.00 in0.0 mm 0.00 in0.0 mm 0.00 in0.0 mm
04:02 PM 96.1°F35.6°C 35.2°F1.8°C 12% 4.0 mph S6.4 kmh S 12.0 mph19.3 kmh 29.22 in989.5 mb 0.00 in0.0 mm 0.00 in0.0 mm 0.00 in0.0 mm
04:03 PM 95.9°F35.5°C 35.1°F1.7°C 12% 2.0 mph SE3.2 kmh SE 12.0 mph19.3 kmh 29.22 in989.5 mb 0.00 in0.0 mm 0.00 in0.0 mm 0.00 in0.0 mm
04:04 PM 95.8°F35.4°C 37.0°F2.8°C 13% 4.0 mph SW6.4 kmh SW 12.0 mph19.3 kmh 29.22 in989.5 mb 0.00 in0.0 mm 0.00 in0.0 mm 0.00 in0.0 mm
04:05 PM 95.8°F35.4°C 37.0°F2.8°C 13% 4.0 mph SW6.4 kmh SW 12.0 mph19.3 kmh 29.22 in989.5 mb 0.00 in0.0 mm 0.00 in0.0 mm 0.00 in0.0 mm
04:06 PM 95.8°F35.4°C 37.0°F2.8°C 13% 3.0 mph S4.8 kmh S 12.0 mph19.3 kmh 29.22 in989.5 mb 0.00 in0.0 mm 0.00 in0.0 mm 0.00 in0.0 mm
04:07 PM 95.8°F35.4°C 37.0°F2.8°C 13% 2.0 mph SW3.2 kmh SW 12.0 mph19.3 kmh 29.22 in989.5 mb 0.00 in0.0 mm 0.00 in0.0 mm 0.00 in0.0 mm
04:08 PM 95.9°F35.5°C 35.1°F1.7°C 12% 8.0 mph WSW12.9 kmh WSW 10.0 mph16.1 kmh 29.22 in989.5 mb 0.00 in0.0 mm 0.00 in0.0 mm 0.00 in0.0 mm
04:09 PM 95.8°F35.4°C 37.0°F2.8°C 13% 7.0 mph S11.3 kmh S 10.0 mph16.1 kmh 29.22 in989.5 mb 0.00 in0.0 mm 0.00 in0.0 mm 0.00 in0.0 mm
04:10 PM 95.8°F35.4°C 37.0°F2.8°C 13% 4.0 mph SW6.4 kmh SW 10.0 mph16.1 kmh 29.22 in989.5 mb 0.00 in0.0 mm 0.00 in0.0 mm 0.00 in0.0 mm
04:11 PM 95.7°F35.4°C 37.0°F2.8°C 13% 6.0 mph SW9.7 kmh SW 10.0 mph16.1 kmh 29.22 in989.5 mb 0.00 in0.0 mm 0.00 in0.0 mm 0.00 in0.0 mm
04:12 PM 95.7°F35.4°C 37.0°F2.8°C 13% 6.0 mph S9.7 kmh S 10.0 mph16.1 kmh 29.22 in989.5 mb 0.00 in0.0 mm 0.00 in0.0 mm 0.00 in0.0 mm
04:13 PM 95.7°F35.4°C 37.0°F2.8°C 13% 10.0 mph S16.1 kmh S 11.0 mph17.7 kmh 29.22 in989.5 mb 0.00 in0.0 mm 0.00 in0.0 mm 0.00 in0.0 mm
04:14 PM 95.7°F35.4°C 34.9°F1.6°C 12% 7.0 mph SW11.3 kmh SW 14.0 mph22.5 kmh 29.22 in989.5 mb 0.00 in0.0 mm 0.00 in0.0 mm 0.00 in0.0 mm
04:15 PM 95.6°F35.3°C 36.9°F2.7°C 13% 7.0 mph SSW11.3 kmh SSW 14.0 mph22.5 kmh 29.22 in989.5 mb 0.00 in0.0 mm 0.00 in0.0 mm 0.00 in0.0 mm
04:16 PM 95.4°F35.2°C 34.7°F1.5°C 12% 2.0 mph E3.2 kmh E 14.0 mph22.5 kmh 29.22 in989.5 mb 0.00 in0.0 mm 0.00 in0.0 mm 0.00 in0.0 mm
04:17 PM 95.3°F35.2°C 36.6°F2.6°C 13% 3.0 mph SE4.8 kmh SE 14.0 mph22.5 kmh 29.22 in989.5 mb 0.00 in0.0 mm 0.00 in0.0 mm 0.00 in0.0 mm
04:18 PM 95.2°F35.1°C 36.6°F2.6°C 13% 2.0 mph S3.2 kmh S 14.0 mph22.5 kmh 29.22 in989.5 mb 0.00 in0.0 mm 0.00 in0.0 mm 0.00 in0.0 mm
04:19 PM 95.2°F35.1°C 36.6°F2.6°C 13% 7.0 mph SSW11.3 kmh SSW 14.0 mph22.5 kmh 29.22 in989.5 mb 0.00 in0.0 mm 0.00 in0.0 mm 0.00 in0.0 mm
04:20 PM 95.3°F35.2°C 36.6°F2.6°C 13% 10.0 mph SE16.1 kmh SE 14.0 mph22.5 kmh 29.22 in989.5 mb 0.00 in0.0 mm 0.00 in0.0 mm 0.00 in0.0 mm
04:21 PM 95.3°F35.2°C 34.6°F1.4°C 12% 3.0 mph S4.8 kmh S 14.0 mph22.5 kmh 29.22 in989.5 mb 0.00 in0.0 mm 0.00 in0.0 mm 0.00 in0.0 mm
04:22 PM 95.4°F35.2°C 36.7°F2.6°C 13% 7.0 mph SE11.3 kmh SE 14.0 mph22.5 kmh 29.22 in989.5 mb 0.00 in0.0 mm 0.00 in0.0 mm 0.00 in0.0 mm
04:23 PM 95.3°F35.2°C 36.6°F2.6°C 13% 4.0 mph SE6.4 kmh SE 10.0 mph16.1 kmh 29.22 in989.5 mb 0.00 in0.0 mm 0.00 in0.0 mm 0.00 in0.0 mm
04:24 PM 95.3°F35.2°C 36.6°F2.6°C 13% 4.0 mph S6.4 kmh S 10.0 mph16.1 kmh 29.22 in989.5 mb 0.00 in0.0 mm 0.00 in0.0 mm 0.00 in0.0 mm
04:25 PM 95.5°F35.3°C 36.8°F2.7°C 13% 7.0 mph SSW11.3 kmh SSW 12.0 mph19.3 kmh 29.22 in989.5 mb 0.00 in0.0 mm 0.00 in0.0 mm 0.00 in0.0 mm
04:26 PM 95.5°F35.3°C 36.8°F2.7°C 13% 8.0 mph SW12.9 kmh SW 12.0 mph19.3 kmh 29.22 in989.5 mb 0.00 in0.0 mm 0.00 in0.0 mm 0.00 in0.0 mm
04:27 PM 95.5°F35.3°C 36.8°F2.7°C 13% 3.0 mph S4.8 kmh S 12.0 mph19.3 kmh 29.22 in989.5 mb 0.00 in0.0 mm 0.00 in0.0 mm 0.00 in0.0 mm
04:28 PM 95.4°F35.2°C 36.7°F2.6°C 13% 7.0 mph SW11.3 kmh SW 12.0 mph19.3 kmh 29.22 in989.5 mb 0.00 in0.0 mm 0.00 in0.0 mm 0.00 in0.0 mm
04:29 PM 95.4°F35.2°C 36.7°F2.6°C 13% 4.0 mph S6.4 kmh S 12.0 mph19.3 kmh 29.22 in989.5 mb 0.00 in0.0 mm 0.00 in0.0 mm 0.00 in0.0 mm
04:30 PM 95.4°F35.2°C 36.7°F2.6°C 13% 8.0 mph SSE12.9 kmh SSE 20.0 mph32.2 kmh 29.22 in989.5 mb 0.00 in0.0 mm 0.00 in0.0 mm 0.00 in0.0 mm
04:31 PM 95.2°F35.1°C 36.6°F2.6°C 13% 10.0 mph S16.1 kmh S 20.0 mph32.2 kmh 29.22 in989.5 mb 0.00 in0.0 mm 0.00 in0.0 mm 0.00 in0.0 mm
04:32 PM 95.2°F35.1°C 38.5°F3.6°C 14% 13.0 mph SSE20.9 kmh SSE 20.0 mph32.2 kmh 29.22 in989.5 mb 0.00 in0.0 mm 0.00 in0.0 mm 0.00 in0.0 mm
04:33 PM 95.0°F35.0°C 36.4°F2.4°C 13% 16.0 mph SE25.7 kmh SE 20.0 mph32.2 kmh 29.22 in989.5 mb 0.00 in0.0 mm 0.00 in0.0 mm 0.00 in0.0 mm
04:34 PM 94.8°F34.9°C 38.1°F3.4°C 14% 16.0 mph SE25.7 kmh SE 20.0 mph32.2 kmh 29.22 in989.5 mb 0.00 in0.0 mm 0.00 in0.0 mm 0.00 in0.0 mm
04:35 PM 94.6°F34.8°C 38.0°F3.3°C 14% 11.0 mph SSE17.7 kmh SSE 20.0 mph32.2 kmh 29.22 in989.5 mb 0.00 in0.0 mm 0.00 in0.0 mm 0.00 in0.0 mm
04:36 PM 94.4°F34.7°C 37.8°F3.2°C 14% 12.0 mph ESE19.3 kmh ESE 20.0 mph32.2 kmh 29.22 in989.5 mb 0.00 in0.0 mm 0.00 in0.0 mm 0.00 in0.0 mm
04:37 PM 94.2°F34.6°C 37.7°F3.2°C 14% 14.0 mph SE22.5 kmh SE 22.0 mph35.4 kmh 29.22 in989.5 mb 0.00 in0.0 mm 0.00 in0.0 mm 0.00 in0.0 mm
04:38 PM 94.1°F34.5°C 39.4°F4.1°C 15% 16.0 mph E25.7 kmh E 22.0 mph35.4 kmh 29.22 in989.5 mb 0.00 in0.0 mm 0.00 in0.0 mm 0.00 in0.0 mm
04:39 PM 94.1°F34.5°C 37.6°F3.1°C 14% 10.0 mph SSE16.1 kmh SSE 22.0 mph35.4 kmh 29.22 in989.5 mb 0.00 in0.0 mm 0.00 in0.0 mm 0.00 in0.0 mm
04:40 PM 94.0°F34.4°C 39.3°F4.1°C 15% 21.0 mph SE33.8 kmh SE 24.0 mph38.6 kmh 29.22 in989.5 mb 0.00 in0.0 mm 0.00 in0.0 mm 0.00 in0.0 mm
04:41 PM 93.9°F34.4°C 35.6°F2.0°C 13% 12.0 mph SE19.3 kmh SE 24.0 mph38.6 kmh 29.22 in989.5 mb 0.00 in0.0 mm 0.00 in0.0 mm 0.00 in0.0 mm
04:42 PM 93.8°F34.3°C 37.4°F3.0°C 14% 16.0 mph SSE25.7 kmh SSE 24.0 mph38.6 kmh 29.22 in989.5 mb 0.00 in0.0 mm 0.00 in0.0 mm 0.00 in0.0 mm
04:43 PM 93.8°F34.3°C 35.5°F1.9°C 13% 11.0 mph SE17.7 kmh SE 24.0 mph38.6 kmh 29.22 in989.5 mb 0.00 in0.0 mm 0.00 in0.0 mm 0.00 in0.0 mm
04:44 PM 93.9°F34.4°C 35.6°F2.0°C 13% 14.0 mph SSE22.5 kmh SSE 24.0 mph38.6 kmh 29.22 in989.5 mb 0.00 in0.0 mm 0.00 in0.0 mm 0.00 in0.0 mm
04:45 PM 93.9°F34.4°C 35.6°F2.0°C 13% 14.0 mph SE22.5 kmh SE 24.0 mph38.6 kmh 29.22 in989.5 mb 0.00 in0.0 mm 0.00 in0.0 mm 0.00 in0.0 mm
04:46 PM 93.8°F34.3°C 37.4°F3.0°C 14% 10.0 mph SE16.1 kmh SE 24.0 mph38.6 kmh 29.22 in989.5 mb 0.00 in0.0 mm 0.00 in0.0 mm 0.00 in0.0 mm
04:47 PM 93.8°F34.3°C 37.4°F3.0°C 14% 19.0 mph SE30.6 kmh SE 24.0 mph38.6 kmh 29.22 in989.5 mb 0.00 in0.0 mm 0.00 in0.0 mm 0.00 in0.0 mm
04:48 PM 93.7°F34.3°C 35.4°F1.9°C 13% 15.0 mph SE24.1 kmh SE 24.0 mph38.6 kmh 29.21 in989.2 mb 0.00 in0.0 mm 0.00 in0.0 mm 0.00 in0.0 mm
04:49 PM 93.5°F34.2°C 37.1°F2.8°C 14% 13.0 mph SE20.9 kmh SE 24.0 mph38.6 kmh 29.22 in989.5 mb 0.00 in0.0 mm 0.00 in0.0 mm 0.00 in0.0 mm
04:50 PM 93.5°F34.2°C 37.1°F2.8°C 14% 14.0 mph S22.5 kmh S 24.0 mph38.6 kmh 29.22 in989.5 mb 0.00 in0.0 mm 0.00 in0.0 mm 0.00 in0.0 mm
04:51 PM 93.4°F34.1°C 37.0°F2.8°C 14% 17.0 mph SSE27.4 kmh SSE 24.0 mph38.6 kmh 29.22 in989.5 mb 0.00 in0.0 mm 0.00 in0.0 mm 0.00 in0.0 mm
04:52 PM 93.4°F34.1°C 37.0°F2.8°C 14% 24.0 mph SE38.6 kmh SE 24.0 mph38.6 kmh 29.22 in989.5 mb 0.00 in0.0 mm 0.00 in0.0 mm 0.00 in0.0 mm
04:53 PM 93.1°F33.9°C 36.8°F2.7°C 14% 22.0 mph SE35.4 kmh SE 25.0 mph40.2 kmh 29.22 in989.5 mb 0.00 in0.0 mm 0.00 in0.0 mm 0.00 in0.0 mm
04:54 PM 92.9°F33.8°C 38.4°F3.6°C 15% 21.0 mph SE33.8 kmh SE 25.0 mph40.2 kmh 29.22 in989.5 mb 0.00 in0.0 mm 0.00 in0.0 mm 0.00 in0.0 mm
04:55 PM 92.7°F33.7°C 38.3°F3.5°C 15% 18.0 mph ESE29.0 kmh ESE 25.0 mph40.2 kmh 29.22 in989.5 mb 0.00 in0.0 mm 0.00 in0.0 mm 0.00 in0.0 mm
04:56 PM 92.7°F33.7°C 38.3°F3.5°C 15% 10.0 mph SE16.1 kmh SE 25.0 mph40.2 kmh 29.22 in989.5 mb 0.00 in0.0 mm 0.00 in0.0 mm 0.00 in0.0 mm
04:57 PM 92.9°F33.8°C 38.4°F3.6°C 15% 21.0 mph SE33.8 kmh SE 25.0 mph40.2 kmh 29.22 in989.5 mb 0.00 in0.0 mm 0.00 in0.0 mm 0.00 in0.0 mm
04:58 PM 93.0°F33.9°C 36.7°F2.6°C 14% 14.0 mph SE22.5 kmh SE 25.0 mph40.2 kmh 29.22 in989.5 mb 0.00 in0.0 mm 0.00 in0.0 mm 0.00 in0.0 mm
04:59 PM 93.0°F33.9°C 38.5°F3.6°C 15% 11.0 mph ESE17.7 kmh ESE 25.0 mph40.2 kmh 29.22 in989.5 mb 0.00 in0.0 mm 0.00 in0.0 mm 0.00 in0.0 mm
05:00 PM 93.1°F33.9°C 38.6°F3.7°C 15% 13.0 mph SE20.9 kmh SE 25.0 mph40.2 kmh 29.22 in989.5 mb 0.00 in0.0 mm 0.00 in0.0 mm 0.00 in0.0 mm
05:01 PM 93.3°F34.1°C 38.7°F3.7°C 15% 20.0 mph SE32.2 kmh SE 25.0 mph40.2 kmh 29.22 in989.5 mb 0.00 in0.0 mm 0.00 in0.0 mm 0.00 in0.0 mm
05:02 PM 93.3°F34.1°C 38.7°F3.7°C 15% 14.0 mph S22.5 kmh S 23.0 mph37.0 kmh 29.22 in989.5 mb 0.00 in0.0 mm 0.00 in0.0 mm 0.00 in0.0 mm
05:03 PM 93.1°F33.9°C 38.6°F3.7°C 15% 19.0 mph SE30.6 kmh SE 25.0 mph40.2 kmh 29.22 in989.5 mb 0.00 in0.0 mm 0.00 in0.0 mm 0.00 in0.0 mm
05:04 PM 92.9°F33.8°C 38.4°F3.6°C 15% 12.0 mph S19.3 kmh S 27.0 mph43.5 kmh 29.22 in989.5 mb 0.00 in0.0 mm 0.00 in0.0 mm 0.00 in0.0 mm
05:05 PM 92.7°F33.7°C 41.5°F5.3°C 17% 23.0 mph SE37.0 kmh SE 27.0 mph43.5 kmh 29.22 in989.5 mb 0.00 in0.0 mm 0.00 in0.0 mm 0.00 in0.0 mm
05:06 PM 92.4°F33.6°C 41.2°F5.1°C 17% 18.0 mph S29.0 kmh S 27.0 mph43.5 kmh 29.22 in989.5 mb 0.00 in0.0 mm 0.00 in0.0 mm 0.00 in0.0 mm
05:07 PM 92.1°F33.4°C 42.5°F5.8°C 18% 14.0 mph SE22.5 kmh SE 27.0 mph43.5 kmh 29.22 in989.5 mb 0.00 in0.0 mm 0.00 in0.0 mm 0.00 in0.0 mm
05:08 PM 91.8°F33.2°C 40.7°F4.8°C 17% 21.0 mph SSE33.8 kmh SSE 27.0 mph43.5 kmh 29.22 in989.5 mb 0.00 in0.0 mm 0.00 in0.0 mm 0.00 in0.0 mm
05:09 PM 91.6°F33.1°C 40.6°F4.8°C 17% 18.0 mph SSE29.0 kmh SSE 27.0 mph43.5 kmh 29.22 in989.5 mb 0.00 in0.0 mm 0.00 in0.0 mm 0.00 in0.0 mm
05:10 PM 91.6°F33.1°C 40.6°F4.8°C 17% 13.0 mph SE20.9 kmh SE 27.0 mph43.5 kmh 29.22 in989.5 mb 0.00 in0.0 mm 0.00 in0.0 mm 0.00 in0.0 mm
05:11 PM 91.4°F33.0°C 40.4°F4.7°C 17% 12.0 mph ESE19.3 kmh ESE 27.0 mph43.5 kmh 29.22 in989.5 mb 0.00 in0.0 mm 0.00 in0.0 mm 0.00 in0.0 mm
05:12 PM 91.3°F32.9°C 41.8°F5.4°C 18% 14.0 mph S22.5 kmh S 27.0 mph43.5 kmh 29.22 in989.5 mb 0.00 in0.0 mm 0.00 in0.0 mm 0.00 in0.0 mm
05:13 PM 91.1°F32.8°C 41.7°F5.4°C 18% 13.0 mph S20.9 kmh S 26.0 mph41.8 kmh 29.23 in989.8 mb 0.00 in0.0 mm 0.00 in0.0 mm 0.00 in0.0 mm
05:14 PM 90.9°F32.7°C 41.5°F5.3°C 18% 18.0 mph S29.0 kmh S 27.0 mph43.5 kmh 29.22 in989.5 mb 0.00 in0.0 mm 0.00 in0.0 mm 0.00 in0.0 mm
05:15 PM 90.5°F32.5°C 39.7°F4.3°C 17% 22.0 mph SE35.4 kmh SE 27.0 mph43.5 kmh 29.22 in989.5 mb 0.00 in0.0 mm 0.00 in0.0 mm 0.00 in0.0 mm
05:16 PM 90.2°F32.3°C 40.9°F4.9°C 18% 16.0 mph SE25.7 kmh SE 27.0 mph43.5 kmh 29.22 in989.5 mb 0.00 in0.0 mm 0.00 in0.0 mm 0.00 in0.0 mm
05:17 PM 89.9°F32.2°C 40.7°F4.8°C 18% 21.0 mph SSE33.8 kmh SSE 27.0 mph43.5 kmh 29.22 in989.5 mb 0.00 in0.0 mm 0.00 in0.0 mm 0.00 in0.0 mm
05:18 PM 89.7°F32.1°C 39.1°F3.9°C 17% 22.0 mph SSE35.4 kmh SSE 27.0 mph43.5 kmh 29.22 in989.5 mb 0.00 in0.0 mm 0.00 in0.0 mm 0.00 in0.0 mm
05:19 PM 89.6°F32.0°C 40.4°F4.7°C 18% 23.0 mph SE37.0 kmh SE 27.0 mph43.5 kmh 29.22 in989.5 mb 0.00 in0.0 mm 0.00 in0.0 mm 0.00 in0.0 mm
05:20 PM 89.7°F32.1°C 40.5°F4.7°C 18% 19.0 mph SE30.6 kmh SE 27.0 mph43.5 kmh 29.22 in989.5 mb 0.00 in0.0 mm 0.00 in0.0 mm 0.00 in0.0 mm
05:21 PM 89.7°F32.1°C 40.5°F4.7°C 18% 20.0 mph SE32.2 kmh SE 27.0 mph43.5 kmh 29.22 in989.5 mb 0.00 in0.0 mm 0.00 in0.0 mm 0.00 in0.0 mm
05:22 PM 89.9°F32.2°C 40.7°F4.8°C 18% 19.0 mph S30.6 kmh S 27.0 mph43.5 kmh 29.22 in989.5 mb 0.00 in0.0 mm 0.00 in0.0 mm 0.00 in0.0 mm
05:23 PM 90.0°F32.2°C 40.8°F4.9°C 18% 10.0 mph SSE16.1 kmh SSE 24.0 mph38.6 kmh 29.22 in989.5 mb 0.00 in0.0 mm 0.00 in0.0 mm 0.00 in0.0 mm
05:24 PM 90.2°F32.3°C 40.9°F4.9°C 18% 16.0 mph S25.7 kmh S 24.0 mph38.6 kmh 29.22 in989.5 mb 0.00 in0.0 mm 0.00 in0.0 mm 0.00 in0.0 mm
05:25 PM 90.4°F32.4°C 41.1°F5.1°C 18% 14.0 mph SE22.5 kmh SE 24.0 mph38.6 kmh 29.22 in989.5 mb 0.00 in0.0 mm 0.00 in0.0 mm 0.00 in0.0 mm
05:26 PM 90.6°F32.6°C 41.3°F5.2°C 18% 13.0 mph S20.9 kmh S 24.0 mph38.6 kmh 29.22 in989.5 mb 0.00 in0.0 mm 0.00 in0.0 mm 0.00 in0.0 mm
05:27 PM 90.8°F32.7°C 41.4°F5.2°C 18% 20.0 mph SSE32.2 kmh SSE 24.0 mph38.6 kmh 29.22 in989.5 mb 0.00 in0.0 mm 0.00 in0.0 mm 0.00 in0.0 mm
05:28 PM 90.9°F32.7°C 41.5°F5.3°C 18% 15.0 mph S24.1 kmh S 24.0 mph38.6 kmh 29.22 in989.5 mb 0.00 in0.0 mm 0.00 in0.0 mm 0.00 in0.0 mm
05:29 PM 90.9°F32.7°C 41.5°F5.3°C 18% 15.0 mph SE24.1 kmh SE 24.0 mph38.6 kmh 29.22 in989.5 mb 0.00 in0.0 mm 0.00 in0.0 mm 0.00 in0.0 mm
05:30 PM 90.9°F32.7°C 40.0°F4.4°C 17% 15.0 mph SE24.1 kmh SE 24.0 mph38.6 kmh 29.22 in989.5 mb 0.00 in0.0 mm 0.00 in0.0 mm 0.00 in0.0 mm
05:31 PM 90.9°F32.7°C 40.0°F4.4°C 17% 8.0 mph SE12.9 kmh SE 24.0 mph38.6 kmh 29.22 in989.5 mb 0.00 in0.0 mm 0.00 in0.0 mm 0.00 in0.0 mm
05:32 PM 91.0°F32.8°C 40.1°F4.5°C 17% 21.0 mph SE33.8 kmh SE 23.0 mph37.0 kmh 29.22 in989.5 mb 0.00 in0.0 mm 0.00 in0.0 mm 0.00 in0.0 mm
05:33 PM 91.1°F32.8°C 41.7°F5.4°C 18% 11.0 mph S17.7 kmh S 23.0 mph37.0 kmh 29.22 in989.5 mb 0.00 in0.0 mm 0.00 in0.0 mm 0.00 in0.0 mm
05:34 PM 91.2°F32.9°C 41.7°F5.4°C 18% 9.0 mph SSE14.5 kmh SSE 23.0 mph37.0 kmh 29.22 in989.5 mb 0.00 in0.0 mm 0.00 in0.0 mm 0.00 in0.0 mm
05:35 PM 91.3°F32.9°C 41.8°F5.4°C 18% 10.0 mph S16.1 kmh S 23.0 mph37.0 kmh 29.22 in989.5 mb 0.00 in0.0 mm 0.00 in0.0 mm 0.00 in0.0 mm
05:36 PM 91.4°F33.0°C 40.4°F4.7°C 17% 13.0 mph S20.9 kmh S 23.0 mph37.0 kmh 29.22 in989.5 mb 0.00 in0.0 mm 0.00 in0.0 mm 0.00 in0.0 mm
05:37 PM 91.5°F33.1°C 40.5°F4.7°C 17% 18.0 mph E29.0 kmh E 23.0 mph37.0 kmh 29.22 in989.5 mb 0.00 in0.0 mm 0.00 in0.0 mm 0.00 in0.0 mm
05:38 PM 91.6°F33.1°C 40.6°F4.8°C 17% 11.0 mph SE17.7 kmh SE 23.0 mph37.0 kmh 29.22 in989.5 mb 0.00 in0.0 mm 0.00 in0.0 mm 0.00 in0.0 mm
05:39 PM 91.7°F33.2°C 40.7°F4.8°C 17% 16.0 mph S25.7 kmh S 21.0 mph33.8 kmh 29.21 in989.2 mb 0.00 in0.0 mm 0.00 in0.0 mm 0.00 in0.0 mm
05:40 PM 91.6°F33.1°C 40.6°F4.8°C 17% 13.0 mph SW20.9 kmh SW 21.0 mph33.8 kmh 29.21 in989.2 mb 0.00 in0.0 mm 0.00 in0.0 mm 0.00 in0.0 mm
05:41 PM 91.5°F33.1°C 38.9°F3.8°C 16% 17.0 mph S27.4 kmh S 20.0 mph32.2 kmh 29.21 in989.2 mb 0.00 in0.0 mm 0.00 in0.0 mm 0.00 in0.0 mm
05:42 PM 91.4°F33.0°C 38.9°F3.8°C 16% 15.0 mph SE24.1 kmh SE 20.0 mph32.2 kmh 29.21 in989.2 mb 0.00 in0.0 mm 0.00 in0.0 mm 0.00 in0.0 mm
05:43 PM 91.1°F32.8°C 38.6°F3.7°C 16% 9.0 mph S14.5 kmh S 20.0 mph32.2 kmh 29.21 in989.2 mb 0.00 in0.0 mm 0.00 in0.0 mm 0.00 in0.0 mm
05:44 PM 90.9°F32.7°C 38.5°F3.6°C 16% 9.0 mph SE14.5 kmh SE 20.0 mph32.2 kmh 29.21 in989.2 mb 0.00 in0.0 mm 0.00 in0.0 mm 0.00 in0.0 mm
05:45 PM 90.7°F32.6°C 39.9°F4.4°C 17% 14.0 mph SSE22.5 kmh SSE 20.0 mph32.2 kmh 29.21 in989.2 mb 0.00 in0.0 mm 0.00 in0.0 mm 0.00 in0.0 mm
05:46 PM 90.7°F32.6°C 39.9°F4.4°C 17% 17.0 mph SSE27.4 kmh SSE 20.0 mph32.2 kmh 29.21 in989.2 mb 0.00 in0.0 mm 0.00 in0.0 mm 0.00 in0.0 mm
05:47 PM 90.7°F32.6°C 39.9°F4.4°C 17% 11.0 mph SSE17.7 kmh SSE 20.0 mph32.2 kmh 29.21 in989.2 mb 0.00 in0.0 mm 0.00 in0.0 mm 0.00 in0.0 mm
05:48 PM 90.8°F32.7°C 38.4°F3.6°C 16% 9.0 mph SE14.5 kmh SE 20.0 mph32.2 kmh 29.21 in989.2 mb 0.00 in0.0 mm 0.00 in0.0 mm 0.00 in0.0 mm
05:49 PM 90.9°F32.7°C 38.5°F3.6°C 16% 13.0 mph SSW20.9 kmh SSW 20.0 mph32.2 kmh 29.21 in989.2 mb 0.00 in0.0 mm 0.00 in0.0 mm 0.00 in0.0 mm
05:50 PM 91.0°F32.8°C 38.5°F3.6°C 16% 17.0 mph S27.4 kmh S 20.0 mph32.2 kmh 29.21 in989.2 mb 0.00 in0.0 mm 0.00 in0.0 mm 0.00 in0.0 mm
05:51 PM 91.1°F32.8°C 38.6°F3.7°C 16% 16.0 mph S25.7 kmh S 20.0 mph32.2 kmh 29.21 in989.2 mb 0.00 in0.0 mm 0.00 in0.0 mm 0.00 in0.0 mm
05:52 PM 91.2°F32.9°C 38.7°F3.7°C 16% 16.0 mph S25.7 kmh S 21.0 mph33.8 kmh 29.21 in989.2 mb 0.00 in0.0 mm 0.00 in0.0 mm 0.00 in0.0 mm
05:53 PM 91.3°F32.9°C 38.8°F3.8°C 16% 6.0 mph SE9.7 kmh SE 21.0 mph33.8 kmh 29.21 in989.2 mb 0.00 in0.0 mm 0.00 in0.0 mm 0.00 in0.0 mm
05:54 PM 91.5°F33.1°C 40.5°F4.7°C 17% 11.0 mph S17.7 kmh S 21.0 mph33.8 kmh 29.21 in989.2 mb 0.00 in0.0 mm 0.00 in0.0 mm 0.00 in0.0 mm
05:55 PM 91.6°F33.1°C 39.0°F3.9°C 16% 8.0 mph WSW12.9 kmh WSW 21.0 mph33.8 kmh 29.21 in989.2 mb 0.00 in0.0 mm 0.00 in0.0 mm 0.00 in0.0 mm
05:56 PM 91.8°F33.2°C 39.2°F4.0°C 16% 6.0 mph SE9.7 kmh SE 21.0 mph33.8 kmh 29.21 in989.2 mb 0.00 in0.0 mm 0.00 in0.0 mm 0.00 in0.0 mm
05:57 PM 92.0°F33.3°C 39.3°F4.1°C 16% 5.0 mph SSW8.0 kmh SSW 21.0 mph33.8 kmh 29.21 in989.2 mb 0.00 in0.0 mm 0.00 in0.0 mm 0.00 in0.0 mm
05:58 PM 92.2°F33.4°C 39.5°F4.2°C 16% 5.0 mph SE8.0 kmh SE 21.0 mph33.8 kmh 29.21 in989.2 mb 0.00 in0.0 mm 0.00 in0.0 mm 0.00 in0.0 mm
05:59 PM 92.3°F33.5°C 39.6°F4.2°C 16% 14.0 mph S22.5 kmh S 21.0 mph33.8 kmh 29.21 in989.2 mb 0.00 in0.0 mm 0.00 in0.0 mm 0.00 in0.0 mm
06:00 PM 92.3°F33.5°C 37.9°F3.3°C 15% 13.0 mph S20.9 kmh S 21.0 mph33.8 kmh 29.21 in989.2 mb 0.00 in0.0 mm 0.00 in0.0 mm 0.00 in0.0 mm
06:01 PM 92.2°F33.4°C 37.9°F3.3°C 15% 7.0 mph S11.3 kmh S 16.0 mph25.7 kmh 29.20 in988.8 mb 0.00 in0.0 mm 0.00 in0.0 mm 0.00 in0.0 mm
06:02 PM 92.1°F33.4°C 39.4°F4.1°C 16% 7.0 mph SSE11.3 kmh SSE 15.0 mph24.1 kmh 29.20 in988.8 mb 0.00 in0.0 mm 0.00 in0.0 mm 0.00 in0.0 mm
06:03 PM 92.0°F33.3°C 39.3°F4.1°C 16% 10.0 mph ESE16.1 kmh ESE 15.0 mph24.1 kmh 29.20 in988.8 mb 0.00 in0.0 mm 0.00 in0.0 mm 0.00 in0.0 mm
06:04 PM 92.0°F33.3°C 39.3°F4.1°C 16% 13.0 mph SE20.9 kmh SE 15.0 mph24.1 kmh 29.21 in989.2 mb 0.00 in0.0 mm 0.00 in0.0 mm 0.00 in0.0 mm
06:05 PM 91.9°F33.3°C 39.3°F4.1°C 16% 12.0 mph S19.3 kmh S 15.0 mph24.1 kmh 29.21 in989.2 mb 0.00 in0.0 mm 0.00 in0.0 mm 0.00 in0.0 mm
06:06 PM 91.8°F33.2°C 39.2°F4.0°C 16% 8.0 mph S12.9 kmh S 15.0 mph24.1 kmh 29.21 in989.2 mb 0.00 in0.0 mm 0.00 in0.0 mm 0.00 in0.0 mm
06:07 PM 91.8°F33.2°C 40.7°F4.8°C 17% 6.0 mph S9.7 kmh S 15.0 mph24.1 kmh 29.21 in989.2 mb 0.00 in0.0 mm 0.00 in0.0 mm 0.00 in0.0 mm
06:08 PM 91.8°F33.2°C 39.2°F4.0°C 16% 11.0 mph SSW17.7 kmh SSW 15.0 mph24.1 kmh 29.21 in989.2 mb 0.00 in0.0 mm 0.00 in0.0 mm 0.00 in0.0 mm
06:09 PM 91.8°F33.2°C 39.2°F4.0°C 16% 7.0 mph S11.3 kmh S 15.0 mph24.1 kmh 29.21 in989.2 mb 0.00 in0.0 mm 0.00 in0.0 mm 0.00 in0.0 mm
06:10 PM 91.9°F33.3°C 39.3°F4.1°C 16% 6.0 mph S9.7 kmh S 15.0 mph24.1 kmh 29.21 in989.2 mb 0.00 in0.0 mm 0.00 in0.0 mm 0.00 in0.0 mm
06:11 PM 91.9°F33.3°C 39.3°F4.1°C 16% 10.0 mph S16.1 kmh S 15.0 mph24.1 kmh 29.21 in989.2 mb 0.00 in0.0 mm 0.00 in0.0 mm 0.00 in0.0 mm
06:12 PM 92.0°F33.3°C 39.3°F4.1°C 16% 5.0 mph SE8.0 kmh SE 15.0 mph24.1 kmh 29.21 in989.2 mb 0.00 in0.0 mm 0.00 in0.0 mm 0.00 in0.0 mm
06:13 PM 92.1°F33.4°C 39.4°F4.1°C 16% 9.0 mph SSE14.5 kmh SSE 15.0 mph24.1 kmh 29.21 in989.2 mb 0.00 in0.0 mm 0.00 in0.0 mm 0.00 in0.0 mm
06:14 PM 92.1°F33.4°C 39.4°F4.1°C 16% 11.0 mph SE17.7 kmh SE 13.0 mph20.9 kmh 29.21 in989.2 mb 0.00 in0.0 mm 0.00 in0.0 mm 0.00 in0.0 mm
06:15 PM 92.1°F33.4°C 39.4°F4.1°C 16% 11.0 mph SSE17.7 kmh SSE 15.0 mph24.1 kmh 29.21 in989.2 mb 0.00 in0.0 mm 0.00 in0.0 mm 0.00 in0.0 mm
06:16 PM 92.0°F33.3°C 39.3°F4.1°C 16% 13.0 mph SSE20.9 kmh SSE 15.0 mph24.1 kmh 29.21 in989.2 mb 0.00 in0.0 mm 0.00 in0.0 mm 0.00 in0.0 mm
06:17 PM 92.0°F33.3°C 37.7°F3.2°C 15% 10.0 mph S16.1 kmh S 15.0 mph24.1 kmh 29.21 in989.2 mb 0.00 in0.0 mm 0.00 in0.0 mm 0.00 in0.0 mm
06:18 PM 92.0°F33.3°C 37.7°F3.2°C 15% 7.0 mph S11.3 kmh S 15.0 mph24.1 kmh 29.20 in988.8 mb 0.00 in0.0 mm 0.00 in0.0 mm 0.00 in0.0 mm
06:19 PM 92.0°F33.3°C 37.7°F3.2°C 15% 12.0 mph SSE19.3 kmh SSE 15.0 mph24.1 kmh 29.20 in988.8 mb 0.00 in0.0 mm 0.00 in0.0 mm 0.00 in0.0 mm
06:20 PM 92.1°F33.4°C 37.8°F3.2°C 15% 6.0 mph SE9.7 kmh SE 15.0 mph24.1 kmh 29.20 in988.8 mb 0.00 in0.0 mm 0.00 in0.0 mm 0.00 in0.0 mm
06:21 PM 92.2°F33.4°C 37.9°F3.3°C 15% 11.0 mph SE17.7 kmh SE 15.0 mph24.1 kmh 29.21 in989.2 mb 0.00 in0.0 mm 0.00 in0.0 mm 0.00 in0.0 mm
06:22 PM 92.2°F33.4°C 37.9°F3.3°C 15% 9.0 mph SE14.5 kmh SE 15.0 mph24.1 kmh 29.21 in989.2 mb 0.00 in0.0 mm 0.00 in0.0 mm 0.00 in0.0 mm
06:23 PM 92.2°F33.4°C 37.9°F3.3°C 15% 7.0 mph S11.3 kmh S 15.0 mph24.1 kmh 29.20 in988.8 mb 0.00 in0.0 mm 0.00 in0.0 mm 0.00 in0.0 mm
06:24 PM 92.2°F33.4°C 37.9°F3.3°C 15% 7.0 mph SSE11.3 kmh SSE 14.0 mph22.5 kmh 29.20 in988.8 mb 0.00 in0.0 mm 0.00 in0.0 mm 0.00 in0.0 mm
06:25 PM 92.3°F33.5°C 37.9°F3.3°C 15% 6.0 mph SSE9.7 kmh SSE 14.0 mph22.5 kmh 29.20 in988.8 mb 0.00 in0.0 mm 0.00 in0.0 mm 0.00 in0.0 mm
06:26 PM 92.4°F33.6°C 39.7°F4.3°C 16% 7.0 mph E11.3 kmh E 12.0 mph19.3 kmh 29.20 in988.8 mb 0.00 in0.0 mm 0.00 in0.0 mm 0.00 in0.0 mm
06:27 PM 92.5°F33.6°C 38.1°F3.4°C 15% 7.0 mph S11.3 kmh S 12.0 mph19.3 kmh 29.21 in989.2 mb 0.00 in0.0 mm 0.00 in0.0 mm 0.00 in0.0 mm
06:28 PM 92.6°F33.7°C 38.2°F3.4°C 15% 8.0 mph S12.9 kmh S 12.0 mph19.3 kmh 29.21 in989.2 mb 0.00 in0.0 mm 0.00 in0.0 mm 0.00 in0.0 mm
06:29 PM 92.6°F33.7°C 36.4°F2.4°C 14% 11.0 mph ESE17.7 kmh ESE 12.0 mph19.3 kmh 29.20 in988.8 mb 0.00 in0.0 mm 0.00 in0.0 mm 0.00 in0.0 mm
06:30 PM 92.6°F33.7°C 36.4°F2.4°C 14% 7.0 mph SE11.3 kmh SE 12.0 mph19.3 kmh 29.21 in989.2 mb 0.00 in0.0 mm 0.00 in0.0 mm 0.00 in0.0 mm
06:31 PM 92.4°F33.6°C 36.3°F2.4°C 14% 8.0 mph SSE12.9 kmh SSE 11.0 mph17.7 kmh 29.20 in988.8 mb 0.00 in0.0 mm 0.00 in0.0 mm 0.00 in0.0 mm
06:32 PM 92.4°F33.6°C 36.3°F2.4°C 14% 7.0 mph SE11.3 kmh SE 11.0 mph17.7 kmh 29.20 in988.8 mb 0.00 in0.0 mm 0.00 in0.0 mm 0.00 in0.0 mm
06:33 PM 92.4°F33.6°C 36.3°F2.4°C 14% 6.0 mph SE9.7 kmh SE 12.0 mph19.3 kmh 29.20 in988.8 mb 0.00 in0.0 mm 0.00 in0.0 mm 0.00 in0.0 mm
06:34 PM 92.4°F33.6°C 36.3°F2.4°C 14% 4.0 mph S6.4 kmh S 12.0 mph19.3 kmh 29.20 in988.8 mb 0.00 in0.0 mm 0.00 in0.0 mm 0.00 in0.0 mm
06:35 PM 92.4°F33.6°C 36.3°F2.4°C 14% 5.0 mph E8.0 kmh E 12.0 mph19.3 kmh 29.20 in988.8 mb 0.00 in0.0 mm 0.00 in0.0 mm 0.00 in0.0 mm
06:36 PM 92.5°F33.6°C 36.3°F2.4°C 14% 8.0 mph SE12.9 kmh SE 12.0 mph19.3 kmh 29.21 in989.2 mb 0.00 in0.0 mm 0.00 in0.0 mm 0.00 in0.0 mm
06:37 PM 92.5°F33.6°C 36.3°F2.4°C 14% 7.0 mph SE11.3 kmh SE 12.0 mph19.3 kmh 29.21 in989.2 mb 0.00 in0.0 mm 0.00 in0.0 mm 0.00 in0.0 mm
06:38 PM 92.5°F33.6°C 36.3°F2.4°C 14% 8.0 mph S12.9 kmh S 12.0 mph19.3 kmh 29.21 in989.2 mb 0.00 in0.0 mm 0.00 in0.0 mm 0.00 in0.0 mm
06:39 PM 92.5°F33.6°C 34.5°F1.4°C 13% 5.0 mph SSE8.0 kmh SSE 12.0 mph19.3 kmh 29.20 in988.8 mb 0.00 in0.0 mm 0.00 in0.0 mm 0.00 in0.0 mm
06:40 PM 92.6°F33.7°C 34.6°F1.4°C 13% 4.0 mph SSW6.4 kmh SSW 12.0 mph19.3 kmh 29.20 in988.8 mb 0.00 in0.0 mm 0.00 in0.0 mm 0.00 in0.0 mm
06:41 PM 92.5°F33.6°C 36.3°F2.4°C 14% 5.0 mph SSE8.0 kmh SSE 12.0 mph19.3 kmh 29.20 in988.8 mb 0.00 in0.0 mm 0.00 in0.0 mm 0.00 in0.0 mm
06:42 PM 92.5°F33.6°C 36.3°F2.4°C 14% 3.0 mph S4.8 kmh S 10.0 mph16.1 kmh 29.20 in988.8 mb 0.00 in0.0 mm 0.00 in0.0 mm 0.00 in0.0 mm
06:43 PM 92.6°F33.7°C 36.4°F2.4°C 14% 4.0 mph SE6.4 kmh SE 10.0 mph16.1 kmh 29.20 in988.8 mb 0.00 in0.0 mm 0.00 in0.0 mm 0.00 in0.0 mm
06:44 PM 92.6°F33.7°C 36.4°F2.4°C 14% 8.0 mph SE12.9 kmh SE 10.0 mph16.1 kmh 29.21 in989.2 mb 0.00 in0.0 mm 0.00 in0.0 mm 0.00 in0.0 mm
06:45 PM 92.6°F33.7°C 36.4°F2.4°C 14% 5.0 mph SE8.0 kmh SE 10.0 mph16.1 kmh 29.20 in988.8 mb 0.00 in0.0 mm 0.00 in0.0 mm 0.00 in0.0 mm
06:46 PM 92.4°F33.6°C 36.3°F2.4°C 14% 4.0 mph SSE6.4 kmh SSE 10.0 mph16.1 kmh 29.20 in988.8 mb 0.00 in0.0 mm 0.00 in0.0 mm 0.00 in0.0 mm
06:47 PM 92.2°F33.4°C 36.1°F2.3°C 14% 11.0 mph SE17.7 kmh SE 12.0 mph19.3 kmh 29.20 in988.8 mb 0.00 in0.0 mm 0.00 in0.0 mm 0.00 in0.0 mm
06:48 PM 92.0°F33.3°C 37.7°F3.2°C 15% 6.0 mph SE9.7 kmh SE 16.0 mph25.7 kmh 29.20 in988.8 mb 0.00 in0.0 mm 0.00 in0.0 mm 0.00 in0.0 mm
06:49 PM 91.8°F33.2°C 37.5°F3.1°C 15% 10.0 mph SSE16.1 kmh SSE 16.0 mph25.7 kmh 29.21 in989.2 mb 0.00 in0.0 mm 0.00 in0.0 mm 0.00 in0.0 mm
06:50 PM 91.5°F33.1°C 37.3°F2.9°C 15% 5.0 mph SE8.0 kmh SE 16.0 mph25.7 kmh 29.21 in989.2 mb 0.00 in0.0 mm 0.00 in0.0 mm 0.00 in0.0 mm
06:51 PM 91.3°F32.9°C 37.1°F2.8°C 15% 6.0 mph ESE9.7 kmh ESE 16.0 mph25.7 kmh 29.21 in989.2 mb 0.00 in0.0 mm 0.00 in0.0 mm 0.00 in0.0 mm
06:52 PM 91.2°F32.9°C 37.1°F2.8°C 15% 5.0 mph S8.0 kmh S 16.0 mph25.7 kmh 29.20 in988.8 mb 0.00 in0.0 mm 0.00 in0.0 mm 0.00 in0.0 mm
06:53 PM 91.0°F32.8°C 36.9°F2.7°C 15% 10.0 mph E16.1 kmh E 16.0 mph25.7 kmh 29.21 in989.2 mb 0.00 in0.0 mm 0.00 in0.0 mm 0.00 in0.0 mm
06:54 PM 90.8°F32.7°C 36.7°F2.6°C 15% 8.0 mph S12.9 kmh S 16.0 mph25.7 kmh 29.21 in989.2 mb 0.00 in0.0 mm 0.00 in0.0 mm 0.00 in0.0 mm
06:55 PM 90.6°F32.6°C 36.6°F2.6°C 15% 7.0 mph S11.3 kmh S 16.0 mph25.7 kmh 29.21 in989.2 mb 0.00 in0.0 mm 0.00 in0.0 mm 0.00 in0.0 mm
06:56 PM 90.5°F32.5°C 36.5°F2.5°C 15% 8.0 mph S12.9 kmh S 16.0 mph25.7 kmh 29.21 in989.2 mb 0.00 in0.0 mm 0.00 in0.0 mm 0.00 in0.0 mm
06:57 PM 90.4°F32.4°C 36.4°F2.4°C 15% 8.0 mph SSE12.9 kmh SSE 13.0 mph20.9 kmh 29.21 in989.2 mb 0.00 in0.0 mm 0.00 in0.0 mm 0.00 in0.0 mm
06:58 PM 90.3°F32.4°C 38.0°F3.3°C 16% 5.0 mph S8.0 kmh S 12.0 mph19.3 kmh 29.21 in989.2 mb 0.00 in0.0 mm 0.00 in0.0 mm 0.00 in0.0 mm
06:59 PM 90.1°F32.3°C 37.8°F3.2°C 16% 4.0 mph SE6.4 kmh SE 12.0 mph19.3 kmh 29.21 in989.2 mb 0.00 in0.0 mm 0.00 in0.0 mm 0.00 in0.0 mm
07:00 PM 90.0°F32.2°C 37.8°F3.2°C 16% 5.0 mph SE8.0 kmh SE 12.0 mph19.3 kmh 29.21 in989.2 mb 0.00 in0.0 mm 0.00 in0.0 mm 0.00 in0.0 mm
07:01 PM 89.9°F32.2°C 37.7°F3.2°C 16% 4.0 mph SE6.4 kmh SE 12.0 mph19.3 kmh 29.21 in989.2 mb 0.00 in0.0 mm 0.00 in0.0 mm 0.00 in0.0 mm
07:02 PM 89.8°F32.1°C 37.6°F3.1°C 16% 3.0 mph SSE4.8 kmh SSE 12.0 mph19.3 kmh 29.21 in989.2 mb 0.00 in0.0 mm 0.00 in0.0 mm 0.00 in0.0 mm
07:03 PM 89.7°F32.1°C 37.5°F3.1°C 16% 6.0 mph SE9.7 kmh SE 10.0 mph16.1 kmh 29.20 in988.8 mb 0.00 in0.0 mm 0.00 in0.0 mm 0.00 in0.0 mm
07:04 PM 89.6°F32.0°C 39.0°F3.9°C 17% 6.0 mph SSE9.7 kmh SSE 10.0 mph16.1 kmh 29.20 in988.8 mb 0.00 in0.0 mm 0.00 in0.0 mm 0.00 in0.0 mm
07:05 PM 89.5°F31.9°C 38.9°F3.8°C 17% 4.0 mph SSE6.4 kmh SSE 10.0 mph16.1 kmh 29.21 in989.2 mb 0.00 in0.0 mm 0.00 in0.0 mm 0.00 in0.0 mm
07:06 PM 89.5°F31.9°C 40.4°F4.7°C 18% 7.0 mph SSE11.3 kmh SSE 10.0 mph16.1 kmh 29.21 in989.2 mb 0.00 in0.0 mm 0.00 in0.0 mm 0.00 in0.0 mm
07:07 PM 89.4°F31.9°C 40.3°F4.6°C 18% 8.0 mph SE12.9 kmh SE 8.0 mph12.9 kmh 29.21 in989.2 mb 0.00 in0.0 mm 0.00 in0.0 mm 0.00 in0.0 mm
07:08 PM 89.4°F31.9°C 38.8°F3.8°C 17% 6.0 mph SSE9.7 kmh SSE 9.0 mph14.5 kmh 29.20 in988.8 mb 0.00 in0.0 mm 0.00 in0.0 mm 0.00 in0.0 mm
07:09 PM 89.5°F31.9°C 38.9°F3.8°C 17% 4.0 mph SSE6.4 kmh SSE 9.0 mph14.5 kmh 29.20 in988.8 mb 0.00 in0.0 mm 0.00 in0.0 mm 0.00 in0.0 mm
07:10 PM 89.6°F32.0°C 39.0°F3.9°C 17% 3.0 mph SSE4.8 kmh SSE 9.0 mph14.5 kmh 29.21 in989.2 mb 0.00 in0.0 mm 0.00 in0.0 mm 0.00 in0.0 mm
07:11 PM 89.7°F32.1°C 39.1°F3.9°C 17% 6.0 mph SE9.7 kmh SE 9.0 mph14.5 kmh 29.21 in989.2 mb 0.00 in0.0 mm 0.00 in0.0 mm 0.00 in0.0 mm
07:12 PM 89.8°F32.1°C 39.1°F3.9°C 17% 8.0 mph SE12.9 kmh SE 10.0 mph16.1 kmh 29.21 in989.2 mb 0.00 in0.0 mm 0.00 in0.0 mm 0.00 in0.0 mm
07:13 PM 90.0°F32.2°C 39.3°F4.1°C 17% 5.0 mph SSE8.0 kmh SSE 10.0 mph16.1 kmh 29.21 in989.2 mb 0.00 in0.0 mm 0.00 in0.0 mm 0.00 in0.0 mm
07:14 PM 90.1°F32.3°C 39.4°F4.1°C 17% 5.0 mph SE8.0 kmh SE 10.0 mph16.1 kmh 29.21 in989.2 mb 0.00 in0.0 mm 0.00 in0.0 mm 0.00 in0.0 mm
07:15 PM 90.2°F32.3°C 39.5°F4.2°C 17% 4.0 mph SSE6.4 kmh SSE 10.0 mph16.1 kmh 29.21 in989.2 mb 0.00 in0.0 mm 0.00 in0.0 mm 0.00 in0.0 mm
07:16 PM 90.3°F32.4°C 39.5°F4.2°C 17% 4.0 mph SSE6.4 kmh SSE 10.0 mph16.1 kmh 29.21 in989.2 mb 0.00 in0.0 mm 0.00 in0.0 mm 0.00 in0.0 mm
07:17 PM 90.4°F32.4°C 39.6°F4.2°C 17% 6.0 mph SSE9.7 kmh SSE 10.0 mph16.1 kmh 29.21 in989.2 mb 0.00 in0.0 mm 0.00 in0.0 mm 0.00 in0.0 mm
07:18 PM 90.5°F32.5°C 38.2°F3.4°C 16% 5.0 mph SSE8.0 kmh SSE 10.0 mph16.1 kmh 29.21 in989.2 mb 0.00 in0.0 mm 0.00 in0.0 mm 0.00 in0.0 mm
07:19 PM 90.7°F32.6°C 38.3°F3.5°C 16% 4.0 mph SE6.4 kmh SE 10.0 mph16.1 kmh 29.21 in989.2 mb 0.00 in0.0 mm 0.00 in0.0 mm 0.00 in0.0 mm
07:20 PM 90.8°F32.7°C 36.7°F2.6°C 15% 5.0 mph SE8.0 kmh SE 10.0 mph16.1 kmh 29.20 in988.8 mb 0.00 in0.0 mm 0.00 in0.0 mm 0.00 in0.0 mm
07:21 PM 90.8°F32.7°C 36.7°F2.6°C 15% 5.0 mph ESE8.0 kmh ESE 9.0 mph14.5 kmh 29.20 in988.8 mb 0.00 in0.0 mm 0.00 in0.0 mm 0.00 in0.0 mm
07:22 PM 90.8°F32.7°C 36.7°F2.6°C 15% 4.0 mph SE6.4 kmh SE 9.0 mph14.5 kmh 29.20 in988.8 mb 0.00 in0.0 mm 0.00 in0.0 mm 0.00 in0.0 mm
07:23 PM 90.8°F32.7°C 36.7°F2.6°C 15% 5.0 mph SE8.0 kmh SE 9.0 mph14.5 kmh 29.20 in988.8 mb 0.00 in0.0 mm 0.00 in0.0 mm 0.00 in0.0 mm
07:24 PM 90.8°F32.7°C 36.7°F2.6°C 15% 5.0 mph ESE8.0 kmh ESE 9.0 mph14.5 kmh 29.20 in988.8 mb 0.00 in0.0 mm 0.00 in0.0 mm 0.00 in0.0 mm
07:25 PM 90.8°F32.7°C 36.7°F2.6°C 15% 4.0 mph SE6.4 kmh SE 9.0 mph14.5 kmh 29.21 in989.2 mb 0.00 in0.0 mm 0.00 in0.0 mm 0.00 in0.0 mm
07:26 PM 90.7°F32.6°C 38.3°F3.5°C 16% 3.0 mph SE4.8 kmh SE 9.0 mph14.5 kmh 29.20 in988.8 mb 0.00 in0.0 mm 0.00 in0.0 mm 0.00 in0.0 mm
07:27 PM 90.7°F32.6°C 38.3°F3.5°C 16% 5.0 mph SSE8.0 kmh SSE 9.0 mph14.5 kmh 29.20 in988.8 mb 0.00 in0.0 mm 0.00 in0.0 mm 0.00 in0.0 mm
07:28 PM 90.7°F32.6°C 38.3°F3.5°C 16% 6.0 mph S9.7 kmh S 9.0 mph14.5 kmh 29.20 in988.8 mb 0.00 in0.0 mm 0.00 in0.0 mm 0.00 in0.0 mm
07:29 PM 90.6°F32.6°C 38.2°F3.4°C 16% 5.0 mph SE8.0 kmh SE 9.0 mph14.5 kmh 29.20 in988.8 mb 0.00 in0.0 mm 0.00 in0.0 mm 0.00 in0.0 mm
07:30 PM 90.5°F32.5°C 38.2°F3.4°C 16% 5.0 mph SE8.0 kmh SE 7.0 mph11.3 kmh 29.20 in988.8 mb 0.00 in0.0 mm 0.00 in0.0 mm 0.00 in0.0 mm
07:31 PM 90.4°F32.4°C 38.1°F3.4°C 16% 5.0 mph SSE8.0 kmh SSE 7.0 mph11.3 kmh 29.20 in988.8 mb 0.00 in0.0 mm 0.00 in0.0 mm 0.00 in0.0 mm
07:32 PM 90.3°F32.4°C 38.0°F3.3°C 16% 4.0 mph SE6.4 kmh SE 7.0 mph11.3 kmh 29.20 in988.8 mb 0.00 in0.0 mm 0.00 in0.0 mm 0.00 in0.0 mm
07:33 PM 90.2°F32.3°C 37.9°F3.3°C 16% 6.0 mph SSE9.7 kmh SSE 7.0 mph11.3 kmh 29.20 in988.8 mb 0.00 in0.0 mm 0.00 in0.0 mm 0.00 in0.0 mm
07:34 PM 90.0°F32.2°C 37.8°F3.2°C 16% 6.0 mph SE9.7 kmh SE 7.0 mph11.3 kmh 29.21 in989.2 mb 0.00 in0.0 mm 0.00 in0.0 mm 0.00 in0.0 mm
07:35 PM 89.9°F32.2°C 37.7°F3.2°C 16% 7.0 mph SSE11.3 kmh SSE 8.0 mph12.9 kmh 29.20 in988.8 mb 0.00 in0.0 mm 0.00 in0.0 mm 0.00 in0.0 mm
07:36 PM 89.8°F32.1°C 37.6°F3.1°C 16% 5.0 mph SSE8.0 kmh SSE 8.0 mph12.9 kmh 29.20 in988.8 mb 0.00 in0.0 mm 0.00 in0.0 mm 0.00 in0.0 mm
07:37 PM 89.7°F32.1°C 37.5°F3.1°C 16% 4.0 mph S6.4 kmh S 8.0 mph12.9 kmh 29.20 in988.8 mb 0.00 in0.0 mm 0.00 in0.0 mm 0.00 in0.0 mm
07:38 PM 89.6°F32.0°C 37.4°F3.0°C 16% 3.0 mph SE4.8 kmh SE 8.0 mph12.9 kmh 29.20 in988.8 mb 0.00 in0.0 mm 0.00 in0.0 mm 0.00 in0.0 mm
07:39 PM 89.5°F31.9°C